<?xml version="1.0" encoding="UTF-8" standalone="no" ?>
<gpx xmlns="http://www.topografix.com/GPX/1/1" xmlns:xsi="http://www.w3.org/2001/XMLSchema-instance" xsi:schemaLocation="http://www.topografix.com/GPX/1/1 http://www.topografix.com/GPX/1/1/gpx.xsd" version="1.1" creator="VisuGPX - https://www.visugpx.com">
  <metadata>
    <name>Fort la Latte-Cap Fréhel</name>
    <desc><![CDATA[https://subircumbres.wordpress.com/2020/03/19/fort-la-latte-cap-frehel/]]></desc>
  </metadata>
  <trk>
    <name><![CDATA[FREHEL-19 13:25:17]]></name>
    <trkseg>
      <trkpt lat="48.66468" lon="-2.2919">
        <ele>59.26</ele>
        <time>2019-08-01T08:53:21Z</time>
      </trkpt>
      <trkpt lat="48.66469" lon="-2.2919">
        <ele>58.78</ele>
        <time>2019-08-01T08:53:22Z</time>
      </trkpt>
      <trkpt lat="48.66468" lon="-2.2919">
        <ele>58.78</ele>
        <time>2019-08-01T08:53:33Z</time>
      </trkpt>
      <trkpt lat="48.66469" lon="-2.29189">
        <ele>58.78</ele>
        <time>2019-08-01T08:53:40Z</time>
      </trkpt>
      <trkpt lat="48.66474" lon="-2.29189">
        <ele>58.78</ele>
        <time>2019-08-01T08:53:48Z</time>
      </trkpt>
      <trkpt lat="48.66479" lon="-2.29186">
        <ele>58.78</ele>
        <time>2019-08-01T08:53:54Z</time>
      </trkpt>
      <trkpt lat="48.6648" lon="-2.29185">
        <ele>58.78</ele>
        <time>2019-08-01T08:53:55Z</time>
      </trkpt>
      <trkpt lat="48.6648" lon="-2.29184">
        <ele>58.78</ele>
        <time>2019-08-01T08:54:01Z</time>
      </trkpt>
      <trkpt lat="48.66487" lon="-2.29179">
        <ele>58.3</ele>
        <time>2019-08-01T08:54:07Z</time>
      </trkpt>
      <trkpt lat="48.66492" lon="-2.2917">
        <ele>58.3</ele>
        <time>2019-08-01T08:54:13Z</time>
      </trkpt>
      <trkpt lat="48.66493" lon="-2.29169">
        <ele>58.3</ele>
        <time>2019-08-01T08:54:14Z</time>
      </trkpt>
      <trkpt lat="48.66501" lon="-2.29157">
        <ele>58.3</ele>
        <time>2019-08-01T08:54:21Z</time>
      </trkpt>
      <trkpt lat="48.66506" lon="-2.29141">
        <ele>58.3</ele>
        <time>2019-08-01T08:54:29Z</time>
      </trkpt>
      <trkpt lat="48.6651" lon="-2.29126">
        <ele>58.3</ele>
        <time>2019-08-01T08:54:36Z</time>
      </trkpt>
      <trkpt lat="48.66514" lon="-2.29115">
        <ele>58.3</ele>
        <time>2019-08-01T08:54:41Z</time>
      </trkpt>
      <trkpt lat="48.66518" lon="-2.29095">
        <ele>58.3</ele>
        <time>2019-08-01T08:54:51Z</time>
      </trkpt>
      <trkpt lat="48.66519" lon="-2.29088">
        <ele>58.3</ele>
        <time>2019-08-01T08:54:56Z</time>
      </trkpt>
      <trkpt lat="48.6652" lon="-2.29085">
        <ele>58.3</ele>
        <time>2019-08-01T08:54:58Z</time>
      </trkpt>
      <trkpt lat="48.66523" lon="-2.29076">
        <ele>58.3</ele>
        <time>2019-08-01T08:55:04Z</time>
      </trkpt>
      <trkpt lat="48.66528" lon="-2.29063">
        <ele>58.3</ele>
        <time>2019-08-01T08:55:11Z</time>
      </trkpt>
      <trkpt lat="48.6653" lon="-2.29058">
        <ele>58.3</ele>
        <time>2019-08-01T08:55:13Z</time>
      </trkpt>
      <trkpt lat="48.66536" lon="-2.29049">
        <ele>58.3</ele>
        <time>2019-08-01T08:55:19Z</time>
      </trkpt>
      <trkpt lat="48.66537" lon="-2.29041">
        <ele>58.3</ele>
        <time>2019-08-01T08:55:24Z</time>
      </trkpt>
      <trkpt lat="48.66541" lon="-2.29023">
        <ele>58.78</ele>
        <time>2019-08-01T08:55:33Z</time>
      </trkpt>
      <trkpt lat="48.66543" lon="-2.29018">
        <ele>59.74</ele>
        <time>2019-08-01T08:55:36Z</time>
      </trkpt>
      <trkpt lat="48.66547" lon="-2.29011">
        <ele>58.78</ele>
        <time>2019-08-01T08:55:41Z</time>
      </trkpt>
      <trkpt lat="48.66547" lon="-2.29006">
        <ele>58.78</ele>
        <time>2019-08-01T08:55:43Z</time>
      </trkpt>
      <trkpt lat="48.66552" lon="-2.28989">
        <ele>59.26</ele>
        <time>2019-08-01T08:55:52Z</time>
      </trkpt>
      <trkpt lat="48.66564" lon="-2.28974">
        <ele>59.74</ele>
        <time>2019-08-01T08:56:00Z</time>
      </trkpt>
      <trkpt lat="48.66561" lon="-2.28962">
        <ele>59.74</ele>
        <time>2019-08-01T08:56:07Z</time>
      </trkpt>
      <trkpt lat="48.66555" lon="-2.28954">
        <ele>59.74</ele>
        <time>2019-08-01T08:56:12Z</time>
      </trkpt>
      <trkpt lat="48.66544" lon="-2.28942">
        <ele>59.74</ele>
        <time>2019-08-01T08:56:22Z</time>
      </trkpt>
      <trkpt lat="48.66532" lon="-2.28935">
        <ele>59.74</ele>
        <time>2019-08-01T08:56:31Z</time>
      </trkpt>
      <trkpt lat="48.6652" lon="-2.28925">
        <ele>59.26</ele>
        <time>2019-08-01T08:56:39Z</time>
      </trkpt>
      <trkpt lat="48.66511" lon="-2.28917">
        <ele>58.78</ele>
        <time>2019-08-01T08:56:47Z</time>
      </trkpt>
      <trkpt lat="48.6651" lon="-2.28916">
        <ele>58.78</ele>
        <time>2019-08-01T08:56:48Z</time>
      </trkpt>
      <trkpt lat="48.66503" lon="-2.28906">
        <ele>58.3</ele>
        <time>2019-08-01T08:56:54Z</time>
      </trkpt>
      <trkpt lat="48.66503" lon="-2.28901">
        <ele>58.3</ele>
        <time>2019-08-01T08:56:57Z</time>
      </trkpt>
      <trkpt lat="48.66509" lon="-2.2889">
        <ele>56.37</ele>
        <time>2019-08-01T08:57:04Z</time>
      </trkpt>
      <trkpt lat="48.66513" lon="-2.28885">
        <ele>55.89</ele>
        <time>2019-08-01T08:57:07Z</time>
      </trkpt>
      <trkpt lat="48.6652" lon="-2.28879">
        <ele>54.45</ele>
        <time>2019-08-01T08:57:13Z</time>
      </trkpt>
      <trkpt lat="48.66526" lon="-2.28876">
        <ele>53.49</ele>
        <time>2019-08-01T08:57:19Z</time>
      </trkpt>
      <trkpt lat="48.6653" lon="-2.28874">
        <ele>53.01</ele>
        <time>2019-08-01T08:57:22Z</time>
      </trkpt>
      <trkpt lat="48.66539" lon="-2.2887">
        <ele>51.57</ele>
        <time>2019-08-01T08:57:29Z</time>
      </trkpt>
      <trkpt lat="48.66542" lon="-2.28868">
        <ele>51.09</ele>
        <time>2019-08-01T08:57:32Z</time>
      </trkpt>
      <trkpt lat="48.66555" lon="-2.28863">
        <ele>49.16</ele>
        <time>2019-08-01T08:57:41Z</time>
      </trkpt>
      <trkpt lat="48.66564" lon="-2.28858">
        <ele>47.72</ele>
        <time>2019-08-01T08:57:48Z</time>
      </trkpt>
      <trkpt lat="48.66573" lon="-2.28855">
        <ele>46.76</ele>
        <time>2019-08-01T08:57:55Z</time>
      </trkpt>
      <trkpt lat="48.66585" lon="-2.28851">
        <ele>45.8</ele>
        <time>2019-08-01T08:58:02Z</time>
      </trkpt>
      <trkpt lat="48.66594" lon="-2.28842">
        <ele>44.36</ele>
        <time>2019-08-01T08:58:10Z</time>
      </trkpt>
      <trkpt lat="48.66599" lon="-2.28837">
        <ele>43.88</ele>
        <time>2019-08-01T08:58:14Z</time>
      </trkpt>
      <trkpt lat="48.66609" lon="-2.28827">
        <ele>42.44</ele>
        <time>2019-08-01T08:58:22Z</time>
      </trkpt>
      <trkpt lat="48.6662" lon="-2.28814">
        <ele>40.99</ele>
        <time>2019-08-01T08:58:32Z</time>
      </trkpt>
      <trkpt lat="48.66621" lon="-2.28812">
        <ele>40.99</ele>
        <time>2019-08-01T08:58:34Z</time>
      </trkpt>
      <trkpt lat="48.66626" lon="-2.28804">
        <ele>40.03</ele>
        <time>2019-08-01T08:58:39Z</time>
      </trkpt>
      <trkpt lat="48.66635" lon="-2.28793">
        <ele>39.07</ele>
        <time>2019-08-01T08:58:47Z</time>
      </trkpt>
      <trkpt lat="48.66643" lon="-2.28783">
        <ele>38.59</ele>
        <time>2019-08-01T08:58:54Z</time>
      </trkpt>
      <trkpt lat="48.66654" lon="-2.28773">
        <ele>37.63</ele>
        <time>2019-08-01T08:59:03Z</time>
      </trkpt>
      <trkpt lat="48.66661" lon="-2.28767">
        <ele>36.67</ele>
        <time>2019-08-01T08:59:10Z</time>
      </trkpt>
      <trkpt lat="48.6667" lon="-2.28758">
        <ele>35.71</ele>
        <time>2019-08-01T08:59:17Z</time>
      </trkpt>
      <trkpt lat="48.66677" lon="-2.2875">
        <ele>33.78</ele>
        <time>2019-08-01T08:59:25Z</time>
      </trkpt>
      <trkpt lat="48.66682" lon="-2.28744">
        <ele>32.82</ele>
        <time>2019-08-01T08:59:31Z</time>
      </trkpt>
      <trkpt lat="48.66693" lon="-2.28735">
        <ele>31.38</ele>
        <time>2019-08-01T08:59:39Z</time>
      </trkpt>
      <trkpt lat="48.66696" lon="-2.28733">
        <ele>30.9</ele>
        <time>2019-08-01T08:59:45Z</time>
      </trkpt>
      <trkpt lat="48.66697" lon="-2.28737">
        <ele>31.38</ele>
        <time>2019-08-01T08:59:52Z</time>
      </trkpt>
      <trkpt lat="48.66697" lon="-2.28743">
        <ele>32.34</ele>
        <time>2019-08-01T08:59:57Z</time>
      </trkpt>
      <trkpt lat="48.66695" lon="-2.28751">
        <ele>32.82</ele>
        <time>2019-08-01T09:00:05Z</time>
      </trkpt>
      <trkpt lat="48.66695" lon="-2.28754">
        <ele>32.82</ele>
        <time>2019-08-01T09:00:12Z</time>
      </trkpt>
      <trkpt lat="48.66695" lon="-2.28754">
        <ele>32.82</ele>
        <time>2019-08-01T09:00:30Z</time>
      </trkpt>
      <trkpt lat="48.66694" lon="-2.2876">
        <ele>33.3</ele>
        <time>2019-08-01T09:00:39Z</time>
      </trkpt>
      <trkpt lat="48.66696" lon="-2.28774">
        <ele>33.78</ele>
        <time>2019-08-01T09:00:46Z</time>
      </trkpt>
      <trkpt lat="48.66696" lon="-2.28778">
        <ele>32.82</ele>
        <time>2019-08-01T09:00:52Z</time>
      </trkpt>
      <trkpt lat="48.66697" lon="-2.28791">
        <ele>35.23</ele>
        <time>2019-08-01T09:01:00Z</time>
      </trkpt>
      <trkpt lat="48.66702" lon="-2.28801">
        <ele>34.74</ele>
        <time>2019-08-01T09:01:07Z</time>
      </trkpt>
      <trkpt lat="48.66709" lon="-2.2881">
        <ele>35.23</ele>
        <time>2019-08-01T09:01:14Z</time>
      </trkpt>
      <trkpt lat="48.66711" lon="-2.28812">
        <ele>35.71</ele>
        <time>2019-08-01T09:01:16Z</time>
      </trkpt>
      <trkpt lat="48.66714" lon="-2.28818">
        <ele>36.19</ele>
        <time>2019-08-01T09:01:24Z</time>
      </trkpt>
      <trkpt lat="48.66714" lon="-2.28818">
        <ele>36.19</ele>
        <time>2019-08-01T09:01:33Z</time>
      </trkpt>
      <trkpt lat="48.66714" lon="-2.28819">
        <ele>36.19</ele>
        <time>2019-08-01T09:01:44Z</time>
      </trkpt>
      <trkpt lat="48.66714" lon="-2.2882">
        <ele>36.19</ele>
        <time>2019-08-01T09:01:54Z</time>
      </trkpt>
      <trkpt lat="48.66714" lon="-2.28818">
        <ele>36.19</ele>
        <time>2019-08-01T09:02:02Z</time>
      </trkpt>
      <trkpt lat="48.66713" lon="-2.28822">
        <ele>36.19</ele>
        <time>2019-08-01T09:02:09Z</time>
      </trkpt>
      <trkpt lat="48.66711" lon="-2.28829">
        <ele>36.67</ele>
        <time>2019-08-01T09:02:14Z</time>
      </trkpt>
      <trkpt lat="48.66708" lon="-2.28834">
        <ele>37.15</ele>
        <time>2019-08-01T09:02:19Z</time>
      </trkpt>
      <trkpt lat="48.66705" lon="-2.28844">
        <ele>37.15</ele>
        <time>2019-08-01T09:02:24Z</time>
      </trkpt>
      <trkpt lat="48.66702" lon="-2.28853">
        <ele>37.15</ele>
        <time>2019-08-01T09:02:29Z</time>
      </trkpt>
      <trkpt lat="48.667" lon="-2.28855">
        <ele>37.63</ele>
        <time>2019-08-01T09:02:32Z</time>
      </trkpt>
      <trkpt lat="48.66698" lon="-2.28861">
        <ele>38.59</ele>
        <time>2019-08-01T09:02:36Z</time>
      </trkpt>
      <trkpt lat="48.66697" lon="-2.28864">
        <ele>38.59</ele>
        <time>2019-08-01T09:02:38Z</time>
      </trkpt>
      <trkpt lat="48.66695" lon="-2.28875">
        <ele>39.07</ele>
        <time>2019-08-01T09:02:45Z</time>
      </trkpt>
      <trkpt lat="48.66693" lon="-2.2889">
        <ele>39.55</ele>
        <time>2019-08-01T09:02:53Z</time>
      </trkpt>
      <trkpt lat="48.66691" lon="-2.28894">
        <ele>39.55</ele>
        <time>2019-08-01T09:03:06Z</time>
      </trkpt>
      <trkpt lat="48.6669" lon="-2.28897">
        <ele>39.55</ele>
        <time>2019-08-01T09:03:24Z</time>
      </trkpt>
      <trkpt lat="48.6669" lon="-2.28898">
        <ele>40.51</ele>
        <time>2019-08-01T09:03:37Z</time>
      </trkpt>
      <trkpt lat="48.6669" lon="-2.28898">
        <ele>39.55</ele>
        <time>2019-08-01T09:03:54Z</time>
      </trkpt>
      <trkpt lat="48.6669" lon="-2.28898">
        <ele>39.55</ele>
        <time>2019-08-01T09:04:10Z</time>
      </trkpt>
      <trkpt lat="48.66689" lon="-2.28899">
        <ele>39.55</ele>
        <time>2019-08-01T09:04:20Z</time>
      </trkpt>
      <trkpt lat="48.66688" lon="-2.2891">
        <ele>40.51</ele>
        <time>2019-08-01T09:04:27Z</time>
      </trkpt>
      <trkpt lat="48.66689" lon="-2.28918">
        <ele>40.99</ele>
        <time>2019-08-01T09:04:32Z</time>
      </trkpt>
      <trkpt lat="48.66692" lon="-2.2893">
        <ele>41.47</ele>
        <time>2019-08-01T09:04:40Z</time>
      </trkpt>
      <trkpt lat="48.66692" lon="-2.28935">
        <ele>41.95</ele>
        <time>2019-08-01T09:04:43Z</time>
      </trkpt>
      <trkpt lat="48.66696" lon="-2.28948">
        <ele>42.92</ele>
        <time>2019-08-01T09:04:51Z</time>
      </trkpt>
      <trkpt lat="48.66696" lon="-2.28951">
        <ele>42.92</ele>
        <time>2019-08-01T09:04:53Z</time>
      </trkpt>
      <trkpt lat="48.66698" lon="-2.28958">
        <ele>43.4</ele>
        <time>2019-08-01T09:04:57Z</time>
      </trkpt>
      <trkpt lat="48.66699" lon="-2.28971">
        <ele>44.36</ele>
        <time>2019-08-01T09:05:04Z</time>
      </trkpt>
      <trkpt lat="48.66697" lon="-2.28971">
        <ele>44.36</ele>
        <time>2019-08-01T09:05:15Z</time>
      </trkpt>
      <trkpt lat="48.66694" lon="-2.2897">
        <ele>43.88</ele>
        <time>2019-08-01T09:05:29Z</time>
      </trkpt>
      <trkpt lat="48.66693" lon="-2.28969">
        <ele>44.36</ele>
        <time>2019-08-01T09:05:40Z</time>
      </trkpt>
      <trkpt lat="48.66694" lon="-2.28969">
        <ele>44.36</ele>
        <time>2019-08-01T09:05:50Z</time>
      </trkpt>
      <trkpt lat="48.66694" lon="-2.28969">
        <ele>44.36</ele>
        <time>2019-08-01T09:05:56Z</time>
      </trkpt>
      <trkpt lat="48.66696" lon="-2.28973">
        <ele>43.88</ele>
        <time>2019-08-01T09:06:09Z</time>
      </trkpt>
      <trkpt lat="48.66698" lon="-2.28978">
        <ele>43.88</ele>
        <time>2019-08-01T09:06:17Z</time>
      </trkpt>
      <trkpt lat="48.66701" lon="-2.2898">
        <ele>43.88</ele>
        <time>2019-08-01T09:06:27Z</time>
      </trkpt>
      <trkpt lat="48.66702" lon="-2.28982">
        <ele>43.88</ele>
        <time>2019-08-01T09:06:29Z</time>
      </trkpt>
      <trkpt lat="48.66705" lon="-2.28988">
        <ele>43.88</ele>
        <time>2019-08-01T09:06:33Z</time>
      </trkpt>
      <trkpt lat="48.66707" lon="-2.28995">
        <ele>43.88</ele>
        <time>2019-08-01T09:06:38Z</time>
      </trkpt>
      <trkpt lat="48.66713" lon="-2.29008">
        <ele>43.88</ele>
        <time>2019-08-01T09:06:45Z</time>
      </trkpt>
      <trkpt lat="48.66714" lon="-2.29014">
        <ele>43.88</ele>
        <time>2019-08-01T09:06:49Z</time>
      </trkpt>
      <trkpt lat="48.66713" lon="-2.29028">
        <ele>43.88</ele>
        <time>2019-08-01T09:06:56Z</time>
      </trkpt>
      <trkpt lat="48.66711" lon="-2.29035">
        <ele>44.36</ele>
        <time>2019-08-01T09:07:02Z</time>
      </trkpt>
      <trkpt lat="48.66711" lon="-2.29037">
        <ele>45.32</ele>
        <time>2019-08-01T09:07:06Z</time>
      </trkpt>
      <trkpt lat="48.66709" lon="-2.29044">
        <ele>45.8</ele>
        <time>2019-08-01T09:07:10Z</time>
      </trkpt>
      <trkpt lat="48.66709" lon="-2.29048">
        <ele>45.8</ele>
        <time>2019-08-01T09:07:13Z</time>
      </trkpt>
      <trkpt lat="48.66713" lon="-2.29061">
        <ele>46.28</ele>
        <time>2019-08-01T09:07:20Z</time>
      </trkpt>
      <trkpt lat="48.66713" lon="-2.29064">
        <ele>46.28</ele>
        <time>2019-08-01T09:07:21Z</time>
      </trkpt>
      <trkpt lat="48.66716" lon="-2.29072">
        <ele>47.24</ele>
        <time>2019-08-01T09:07:25Z</time>
      </trkpt>
      <trkpt lat="48.66716" lon="-2.29078">
        <ele>47.24</ele>
        <time>2019-08-01T09:07:28Z</time>
      </trkpt>
      <trkpt lat="48.66716" lon="-2.29089">
        <ele>47.24</ele>
        <time>2019-08-01T09:07:33Z</time>
      </trkpt>
      <trkpt lat="48.66715" lon="-2.29099">
        <ele>47.72</ele>
        <time>2019-08-01T09:07:39Z</time>
      </trkpt>
      <trkpt lat="48.66714" lon="-2.29105">
        <ele>48.2</ele>
        <time>2019-08-01T09:07:42Z</time>
      </trkpt>
      <trkpt lat="48.66708" lon="-2.29116">
        <ele>48.2</ele>
        <time>2019-08-01T09:07:50Z</time>
      </trkpt>
      <trkpt lat="48.66702" lon="-2.29125">
        <ele>48.68</ele>
        <time>2019-08-01T09:07:58Z</time>
      </trkpt>
      <trkpt lat="48.66701" lon="-2.29131">
        <ele>48.68</ele>
        <time>2019-08-01T09:08:02Z</time>
      </trkpt>
      <trkpt lat="48.66699" lon="-2.29145">
        <ele>48.68</ele>
        <time>2019-08-01T09:08:08Z</time>
      </trkpt>
      <trkpt lat="48.66699" lon="-2.29155">
        <ele>48.2</ele>
        <time>2019-08-01T09:08:15Z</time>
      </trkpt>
      <trkpt lat="48.667" lon="-2.29161">
        <ele>48.2</ele>
        <time>2019-08-01T09:08:20Z</time>
      </trkpt>
      <trkpt lat="48.66709" lon="-2.29178">
        <ele>47.72</ele>
        <time>2019-08-01T09:08:28Z</time>
      </trkpt>
      <trkpt lat="48.6671" lon="-2.2918">
        <ele>47.72</ele>
        <time>2019-08-01T09:08:29Z</time>
      </trkpt>
      <trkpt lat="48.66713" lon="-2.29186">
        <ele>47.72</ele>
        <time>2019-08-01T09:08:32Z</time>
      </trkpt>
      <trkpt lat="48.66714" lon="-2.29189">
        <ele>47.72</ele>
        <time>2019-08-01T09:08:37Z</time>
      </trkpt>
      <trkpt lat="48.66722" lon="-2.292">
        <ele>47.72</ele>
        <time>2019-08-01T09:08:43Z</time>
      </trkpt>
      <trkpt lat="48.66723" lon="-2.29203">
        <ele>47.24</ele>
        <time>2019-08-01T09:08:45Z</time>
      </trkpt>
      <trkpt lat="48.66724" lon="-2.29217">
        <ele>46.76</ele>
        <time>2019-08-01T09:08:50Z</time>
      </trkpt>
      <trkpt lat="48.66727" lon="-2.29227">
        <ele>46.76</ele>
        <time>2019-08-01T09:08:54Z</time>
      </trkpt>
      <trkpt lat="48.66733" lon="-2.29243">
        <ele>46.28</ele>
        <time>2019-08-01T09:09:04Z</time>
      </trkpt>
      <trkpt lat="48.66736" lon="-2.29251">
        <ele>46.28</ele>
        <time>2019-08-01T09:09:08Z</time>
      </trkpt>
      <trkpt lat="48.66736" lon="-2.29254">
        <ele>46.28</ele>
        <time>2019-08-01T09:09:10Z</time>
      </trkpt>
      <trkpt lat="48.66739" lon="-2.29264">
        <ele>46.28</ele>
        <time>2019-08-01T09:09:15Z</time>
      </trkpt>
      <trkpt lat="48.66746" lon="-2.29277">
        <ele>45.8</ele>
        <time>2019-08-01T09:09:23Z</time>
      </trkpt>
      <trkpt lat="48.66751" lon="-2.29292">
        <ele>46.28</ele>
        <time>2019-08-01T09:09:30Z</time>
      </trkpt>
      <trkpt lat="48.66752" lon="-2.29295">
        <ele>46.28</ele>
        <time>2019-08-01T09:09:32Z</time>
      </trkpt>
      <trkpt lat="48.66749" lon="-2.2931">
        <ele>45.8</ele>
        <time>2019-08-01T09:09:40Z</time>
      </trkpt>
      <trkpt lat="48.66751" lon="-2.29325">
        <ele>45.32</ele>
        <time>2019-08-01T09:09:48Z</time>
      </trkpt>
      <trkpt lat="48.66753" lon="-2.29334">
        <ele>45.32</ele>
        <time>2019-08-01T09:09:54Z</time>
      </trkpt>
      <trkpt lat="48.66756" lon="-2.29345">
        <ele>45.32</ele>
        <time>2019-08-01T09:10:00Z</time>
      </trkpt>
      <trkpt lat="48.66757" lon="-2.29353">
        <ele>45.8</ele>
        <time>2019-08-01T09:10:03Z</time>
      </trkpt>
      <trkpt lat="48.66755" lon="-2.29361">
        <ele>45.8</ele>
        <time>2019-08-01T09:10:07Z</time>
      </trkpt>
      <trkpt lat="48.66757" lon="-2.29376">
        <ele>46.28</ele>
        <time>2019-08-01T09:10:14Z</time>
      </trkpt>
      <trkpt lat="48.66756" lon="-2.29382">
        <ele>46.76</ele>
        <time>2019-08-01T09:10:17Z</time>
      </trkpt>
      <trkpt lat="48.66755" lon="-2.29385">
        <ele>46.76</ele>
        <time>2019-08-01T09:10:19Z</time>
      </trkpt>
      <trkpt lat="48.66758" lon="-2.29397">
        <ele>46.76</ele>
        <time>2019-08-01T09:10:26Z</time>
      </trkpt>
      <trkpt lat="48.66759" lon="-2.29397">
        <ele>46.76</ele>
        <time>2019-08-01T09:10:27Z</time>
      </trkpt>
      <trkpt lat="48.66759" lon="-2.29403">
        <ele>46.28</ele>
        <time>2019-08-01T09:10:30Z</time>
      </trkpt>
      <trkpt lat="48.66758" lon="-2.29416">
        <ele>46.28</ele>
        <time>2019-08-01T09:10:37Z</time>
      </trkpt>
      <trkpt lat="48.66756" lon="-2.29432">
        <ele>46.28</ele>
        <time>2019-08-01T09:10:45Z</time>
      </trkpt>
      <trkpt lat="48.66756" lon="-2.29447">
        <ele>46.28</ele>
        <time>2019-08-01T09:10:52Z</time>
      </trkpt>
      <trkpt lat="48.66755" lon="-2.29456">
        <ele>45.8</ele>
        <time>2019-08-01T09:10:57Z</time>
      </trkpt>
      <trkpt lat="48.66751" lon="-2.29467">
        <ele>46.76</ele>
        <time>2019-08-01T09:11:05Z</time>
      </trkpt>
      <trkpt lat="48.66751" lon="-2.29469">
        <ele>46.76</ele>
        <time>2019-08-01T09:11:06Z</time>
      </trkpt>
      <trkpt lat="48.6675" lon="-2.29477">
        <ele>47.24</ele>
        <time>2019-08-01T09:11:11Z</time>
      </trkpt>
      <trkpt lat="48.66746" lon="-2.29491">
        <ele>47.72</ele>
        <time>2019-08-01T09:11:17Z</time>
      </trkpt>
      <trkpt lat="48.66747" lon="-2.29496">
        <ele>47.72</ele>
        <time>2019-08-01T09:11:20Z</time>
      </trkpt>
      <trkpt lat="48.66746" lon="-2.29507">
        <ele>48.2</ele>
        <time>2019-08-01T09:11:26Z</time>
      </trkpt>
      <trkpt lat="48.66748" lon="-2.29513">
        <ele>48.2</ele>
        <time>2019-08-01T09:11:30Z</time>
      </trkpt>
      <trkpt lat="48.66744" lon="-2.29526">
        <ele>48.2</ele>
        <time>2019-08-01T09:11:37Z</time>
      </trkpt>
      <trkpt lat="48.66744" lon="-2.29531">
        <ele>48.68</ele>
        <time>2019-08-01T09:11:41Z</time>
      </trkpt>
      <trkpt lat="48.66741" lon="-2.2954">
        <ele>49.16</ele>
        <time>2019-08-01T09:11:47Z</time>
      </trkpt>
      <trkpt lat="48.66738" lon="-2.29555">
        <ele>49.16</ele>
        <time>2019-08-01T09:11:55Z</time>
      </trkpt>
      <trkpt lat="48.66736" lon="-2.29567">
        <ele>49.65</ele>
        <time>2019-08-01T09:12:01Z</time>
      </trkpt>
      <trkpt lat="48.66732" lon="-2.29573">
        <ele>49.16</ele>
        <time>2019-08-01T09:12:05Z</time>
      </trkpt>
      <trkpt lat="48.66728" lon="-2.29575">
        <ele>49.65</ele>
        <time>2019-08-01T09:12:08Z</time>
      </trkpt>
      <trkpt lat="48.66724" lon="-2.29589">
        <ele>49.65</ele>
        <time>2019-08-01T09:12:16Z</time>
      </trkpt>
      <trkpt lat="48.66722" lon="-2.29602">
        <ele>49.16</ele>
        <time>2019-08-01T09:12:22Z</time>
      </trkpt>
      <trkpt lat="48.66722" lon="-2.29608">
        <ele>49.65</ele>
        <time>2019-08-01T09:12:26Z</time>
      </trkpt>
      <trkpt lat="48.66723" lon="-2.2962">
        <ele>50.13</ele>
        <time>2019-08-01T09:12:32Z</time>
      </trkpt>
      <trkpt lat="48.66722" lon="-2.29633">
        <ele>50.61</ele>
        <time>2019-08-01T09:12:39Z</time>
      </trkpt>
      <trkpt lat="48.66721" lon="-2.29649">
        <ele>50.61</ele>
        <time>2019-08-01T09:12:47Z</time>
      </trkpt>
      <trkpt lat="48.6672" lon="-2.29651">
        <ele>50.61</ele>
        <time>2019-08-01T09:12:48Z</time>
      </trkpt>
      <trkpt lat="48.66718" lon="-2.29664">
        <ele>50.61</ele>
        <time>2019-08-01T09:12:54Z</time>
      </trkpt>
      <trkpt lat="48.66719" lon="-2.29669">
        <ele>50.13</ele>
        <time>2019-08-01T09:12:56Z</time>
      </trkpt>
      <trkpt lat="48.66721" lon="-2.29682">
        <ele>50.13</ele>
        <time>2019-08-01T09:13:02Z</time>
      </trkpt>
      <trkpt lat="48.6672" lon="-2.29691">
        <ele>50.13</ele>
        <time>2019-08-01T09:13:08Z</time>
      </trkpt>
      <trkpt lat="48.66715" lon="-2.29699">
        <ele>51.09</ele>
        <time>2019-08-01T09:13:14Z</time>
      </trkpt>
      <trkpt lat="48.6671" lon="-2.29711">
        <ele>52.05</ele>
        <time>2019-08-01T09:13:20Z</time>
      </trkpt>
      <trkpt lat="48.66707" lon="-2.29721">
        <ele>52.53</ele>
        <time>2019-08-01T09:13:26Z</time>
      </trkpt>
      <trkpt lat="48.66701" lon="-2.29723">
        <ele>53.97</ele>
        <time>2019-08-01T09:13:33Z</time>
      </trkpt>
      <trkpt lat="48.66701" lon="-2.29723">
        <ele>54.45</ele>
        <time>2019-08-01T09:13:34Z</time>
      </trkpt>
      <trkpt lat="48.66699" lon="-2.29726">
        <ele>54.93</ele>
        <time>2019-08-01T09:13:36Z</time>
      </trkpt>
      <trkpt lat="48.66697" lon="-2.29734">
        <ele>54.93</ele>
        <time>2019-08-01T09:13:40Z</time>
      </trkpt>
      <trkpt lat="48.66695" lon="-2.29744">
        <ele>54.93</ele>
        <time>2019-08-01T09:13:45Z</time>
      </trkpt>
      <trkpt lat="48.66694" lon="-2.29748">
        <ele>54.93</ele>
        <time>2019-08-01T09:13:47Z</time>
      </trkpt>
      <trkpt lat="48.66688" lon="-2.29757">
        <ele>55.89</ele>
        <time>2019-08-01T09:13:55Z</time>
      </trkpt>
      <trkpt lat="48.66686" lon="-2.29767">
        <ele>56.37</ele>
        <time>2019-08-01T09:14:02Z</time>
      </trkpt>
      <trkpt lat="48.66686" lon="-2.2977">
        <ele>56.86</ele>
        <time>2019-08-01T09:14:07Z</time>
      </trkpt>
      <trkpt lat="48.66684" lon="-2.29778">
        <ele>58.3</ele>
        <time>2019-08-01T09:14:14Z</time>
      </trkpt>
      <trkpt lat="48.66684" lon="-2.29779">
        <ele>58.3</ele>
        <time>2019-08-01T09:14:15Z</time>
      </trkpt>
      <trkpt lat="48.66687" lon="-2.29789">
        <ele>58.78</ele>
        <time>2019-08-01T09:14:21Z</time>
      </trkpt>
      <trkpt lat="48.66688" lon="-2.29793">
        <ele>59.26</ele>
        <time>2019-08-01T09:14:24Z</time>
      </trkpt>
      <trkpt lat="48.66693" lon="-2.29803">
        <ele>59.26</ele>
        <time>2019-08-01T09:14:30Z</time>
      </trkpt>
      <trkpt lat="48.66698" lon="-2.29819">
        <ele>59.26</ele>
        <time>2019-08-01T09:14:39Z</time>
      </trkpt>
      <trkpt lat="48.66691" lon="-2.2983">
        <ele>59.26</ele>
        <time>2019-08-01T09:14:52Z</time>
      </trkpt>
      <trkpt lat="48.66691" lon="-2.29833">
        <ele>59.26</ele>
        <time>2019-08-01T09:15:08Z</time>
      </trkpt>
      <trkpt lat="48.66692" lon="-2.29836">
        <ele>59.26</ele>
        <time>2019-08-01T09:15:10Z</time>
      </trkpt>
      <trkpt lat="48.66693" lon="-2.29847">
        <ele>59.74</ele>
        <time>2019-08-01T09:15:18Z</time>
      </trkpt>
      <trkpt lat="48.66694" lon="-2.29849">
        <ele>60.22</ele>
        <time>2019-08-01T09:15:20Z</time>
      </trkpt>
      <trkpt lat="48.66694" lon="-2.29858">
        <ele>60.7</ele>
        <time>2019-08-01T09:15:25Z</time>
      </trkpt>
      <trkpt lat="48.66693" lon="-2.29863">
        <ele>61.66</ele>
        <time>2019-08-01T09:15:29Z</time>
      </trkpt>
      <trkpt lat="48.66692" lon="-2.29874">
        <ele>63.58</ele>
        <time>2019-08-01T09:15:36Z</time>
      </trkpt>
      <trkpt lat="48.66692" lon="-2.29884">
        <ele>65.03</ele>
        <time>2019-08-01T09:15:43Z</time>
      </trkpt>
      <trkpt lat="48.66694" lon="-2.29899">
        <ele>65.99</ele>
        <time>2019-08-01T09:15:51Z</time>
      </trkpt>
      <trkpt lat="48.66698" lon="-2.29913">
        <ele>65.03</ele>
        <time>2019-08-01T09:15:59Z</time>
      </trkpt>
      <trkpt lat="48.66697" lon="-2.29928">
        <ele>66.47</ele>
        <time>2019-08-01T09:16:06Z</time>
      </trkpt>
      <trkpt lat="48.66702" lon="-2.2994">
        <ele>66.95</ele>
        <time>2019-08-01T09:16:14Z</time>
      </trkpt>
      <trkpt lat="48.66703" lon="-2.29943">
        <ele>66.47</ele>
        <time>2019-08-01T09:16:16Z</time>
      </trkpt>
      <trkpt lat="48.66703" lon="-2.29952">
        <ele>67.43</ele>
        <time>2019-08-01T09:16:21Z</time>
      </trkpt>
      <trkpt lat="48.66706" lon="-2.29971">
        <ele>66.95</ele>
        <time>2019-08-01T09:16:29Z</time>
      </trkpt>
      <trkpt lat="48.66706" lon="-2.29975">
        <ele>66.95</ele>
        <time>2019-08-01T09:16:31Z</time>
      </trkpt>
      <trkpt lat="48.66707" lon="-2.29982">
        <ele>66.95</ele>
        <time>2019-08-01T09:16:35Z</time>
      </trkpt>
      <trkpt lat="48.66707" lon="-2.29986">
        <ele>66.95</ele>
        <time>2019-08-01T09:16:37Z</time>
      </trkpt>
      <trkpt lat="48.66709" lon="-2.29991">
        <ele>66.95</ele>
        <time>2019-08-01T09:16:44Z</time>
      </trkpt>
      <trkpt lat="48.6671" lon="-2.29993">
        <ele>66.95</ele>
        <time>2019-08-01T09:17:05Z</time>
      </trkpt>
      <trkpt lat="48.66711" lon="-2.29993">
        <ele>66.95</ele>
        <time>2019-08-01T09:17:19Z</time>
      </trkpt>
      <trkpt lat="48.6671" lon="-2.29994">
        <ele>66.95</ele>
        <time>2019-08-01T09:17:21Z</time>
      </trkpt>
      <trkpt lat="48.66711" lon="-2.30009">
        <ele>65.99</ele>
        <time>2019-08-01T09:17:30Z</time>
      </trkpt>
      <trkpt lat="48.66712" lon="-2.3002">
        <ele>65.03</ele>
        <time>2019-08-01T09:17:36Z</time>
      </trkpt>
      <trkpt lat="48.66713" lon="-2.3003">
        <ele>64.55</ele>
        <time>2019-08-01T09:17:42Z</time>
      </trkpt>
      <trkpt lat="48.66713" lon="-2.30035">
        <ele>64.07</ele>
        <time>2019-08-01T09:17:46Z</time>
      </trkpt>
      <trkpt lat="48.66712" lon="-2.30039">
        <ele>63.58</ele>
        <time>2019-08-01T09:17:48Z</time>
      </trkpt>
      <trkpt lat="48.66712" lon="-2.30053">
        <ele>63.1</ele>
        <time>2019-08-01T09:17:55Z</time>
      </trkpt>
      <trkpt lat="48.66713" lon="-2.30057">
        <ele>63.1</ele>
        <time>2019-08-01T09:17:57Z</time>
      </trkpt>
      <trkpt lat="48.66715" lon="-2.30068">
        <ele>62.62</ele>
        <time>2019-08-01T09:18:03Z</time>
      </trkpt>
      <trkpt lat="48.66716" lon="-2.30074">
        <ele>62.14</ele>
        <time>2019-08-01T09:18:06Z</time>
      </trkpt>
      <trkpt lat="48.66718" lon="-2.30083">
        <ele>62.14</ele>
        <time>2019-08-01T09:18:11Z</time>
      </trkpt>
      <trkpt lat="48.66721" lon="-2.30089">
        <ele>61.66</ele>
        <time>2019-08-01T09:18:14Z</time>
      </trkpt>
      <trkpt lat="48.66726" lon="-2.30102">
        <ele>61.18</ele>
        <time>2019-08-01T09:18:20Z</time>
      </trkpt>
      <trkpt lat="48.66725" lon="-2.30104">
        <ele>60.7</ele>
        <time>2019-08-01T09:18:21Z</time>
      </trkpt>
      <trkpt lat="48.66722" lon="-2.30115">
        <ele>59.74</ele>
        <time>2019-08-01T09:18:29Z</time>
      </trkpt>
      <trkpt lat="48.66722" lon="-2.30116">
        <ele>59.26</ele>
        <time>2019-08-01T09:18:30Z</time>
      </trkpt>
      <trkpt lat="48.66721" lon="-2.30122">
        <ele>58.3</ele>
        <time>2019-08-01T09:18:33Z</time>
      </trkpt>
      <trkpt lat="48.66716" lon="-2.30127">
        <ele>57.82</ele>
        <time>2019-08-01T09:18:37Z</time>
      </trkpt>
      <trkpt lat="48.66715" lon="-2.30133">
        <ele>57.82</ele>
        <time>2019-08-01T09:18:40Z</time>
      </trkpt>
      <trkpt lat="48.66716" lon="-2.30144">
        <ele>57.82</ele>
        <time>2019-08-01T09:18:44Z</time>
      </trkpt>
      <trkpt lat="48.66718" lon="-2.30158">
        <ele>57.82</ele>
        <time>2019-08-01T09:18:50Z</time>
      </trkpt>
      <trkpt lat="48.66715" lon="-2.30163">
        <ele>57.82</ele>
        <time>2019-08-01T09:18:53Z</time>
      </trkpt>
      <trkpt lat="48.66715" lon="-2.30179">
        <ele>56.86</ele>
        <time>2019-08-01T09:19:01Z</time>
      </trkpt>
      <trkpt lat="48.66714" lon="-2.30185">
        <ele>57.82</ele>
        <time>2019-08-01T09:19:06Z</time>
      </trkpt>
      <trkpt lat="48.66709" lon="-2.30189">
        <ele>59.74</ele>
        <time>2019-08-01T09:19:12Z</time>
      </trkpt>
      <trkpt lat="48.66709" lon="-2.30193">
        <ele>60.22</ele>
        <time>2019-08-01T09:19:15Z</time>
      </trkpt>
      <trkpt lat="48.66711" lon="-2.30208">
        <ele>60.7</ele>
        <time>2019-08-01T09:19:23Z</time>
      </trkpt>
      <trkpt lat="48.66713" lon="-2.30218">
        <ele>61.18</ele>
        <time>2019-08-01T09:19:29Z</time>
      </trkpt>
      <trkpt lat="48.66712" lon="-2.30221">
        <ele>61.18</ele>
        <time>2019-08-01T09:19:31Z</time>
      </trkpt>
      <trkpt lat="48.66713" lon="-2.30233">
        <ele>60.7</ele>
        <time>2019-08-01T09:19:36Z</time>
      </trkpt>
      <trkpt lat="48.6671" lon="-2.30243">
        <ele>60.7</ele>
        <time>2019-08-01T09:19:41Z</time>
      </trkpt>
      <trkpt lat="48.66714" lon="-2.30258">
        <ele>61.66</ele>
        <time>2019-08-01T09:19:48Z</time>
      </trkpt>
      <trkpt lat="48.66715" lon="-2.30262">
        <ele>61.66</ele>
        <time>2019-08-01T09:19:50Z</time>
      </trkpt>
      <trkpt lat="48.66716" lon="-2.30272">
        <ele>62.62</ele>
        <time>2019-08-01T09:19:56Z</time>
      </trkpt>
      <trkpt lat="48.66718" lon="-2.30277">
        <ele>63.58</ele>
        <time>2019-08-01T09:20:02Z</time>
      </trkpt>
      <trkpt lat="48.66718" lon="-2.30283">
        <ele>63.58</ele>
        <time>2019-08-01T09:20:05Z</time>
      </trkpt>
      <trkpt lat="48.66724" lon="-2.30289">
        <ele>63.58</ele>
        <time>2019-08-01T09:20:09Z</time>
      </trkpt>
      <trkpt lat="48.66728" lon="-2.30296">
        <ele>63.58</ele>
        <time>2019-08-01T09:20:12Z</time>
      </trkpt>
      <trkpt lat="48.66732" lon="-2.303">
        <ele>64.07</ele>
        <time>2019-08-01T09:20:15Z</time>
      </trkpt>
      <trkpt lat="48.66738" lon="-2.30306">
        <ele>64.55</ele>
        <time>2019-08-01T09:20:22Z</time>
      </trkpt>
      <trkpt lat="48.66739" lon="-2.30307">
        <ele>64.55</ele>
        <time>2019-08-01T09:20:23Z</time>
      </trkpt>
      <trkpt lat="48.6674" lon="-2.30308">
        <ele>65.03</ele>
        <time>2019-08-01T09:20:25Z</time>
      </trkpt>
      <trkpt lat="48.66741" lon="-2.30316">
        <ele>65.99</ele>
        <time>2019-08-01T09:20:31Z</time>
      </trkpt>
      <trkpt lat="48.66742" lon="-2.30317">
        <ele>65.99</ele>
        <time>2019-08-01T09:20:32Z</time>
      </trkpt>
      <trkpt lat="48.66747" lon="-2.30324">
        <ele>66.95</ele>
        <time>2019-08-01T09:20:36Z</time>
      </trkpt>
      <trkpt lat="48.6675" lon="-2.30331">
        <ele>67.91</ele>
        <time>2019-08-01T09:20:41Z</time>
      </trkpt>
      <trkpt lat="48.66753" lon="-2.30339">
        <ele>69.83</ele>
        <time>2019-08-01T09:20:48Z</time>
      </trkpt>
      <trkpt lat="48.66757" lon="-2.30346">
        <ele>70.79</ele>
        <time>2019-08-01T09:20:55Z</time>
      </trkpt>
      <trkpt lat="48.66763" lon="-2.3035">
        <ele>71.76</ele>
        <time>2019-08-01T09:21:03Z</time>
      </trkpt>
      <trkpt lat="48.66763" lon="-2.30351">
        <ele>71.76</ele>
        <time>2019-08-01T09:21:04Z</time>
      </trkpt>
      <trkpt lat="48.66766" lon="-2.30352">
        <ele>71.76</ele>
        <time>2019-08-01T09:21:07Z</time>
      </trkpt>
      <trkpt lat="48.66771" lon="-2.3036">
        <ele>72.24</ele>
        <time>2019-08-01T09:21:15Z</time>
      </trkpt>
      <trkpt lat="48.66774" lon="-2.30365">
        <ele>72.72</ele>
        <time>2019-08-01T09:21:18Z</time>
      </trkpt>
      <trkpt lat="48.66776" lon="-2.30381">
        <ele>72.24</ele>
        <time>2019-08-01T09:21:25Z</time>
      </trkpt>
      <trkpt lat="48.66777" lon="-2.30391">
        <ele>71.76</ele>
        <time>2019-08-01T09:21:30Z</time>
      </trkpt>
      <trkpt lat="48.66778" lon="-2.30393">
        <ele>72.24</ele>
        <time>2019-08-01T09:21:31Z</time>
      </trkpt>
      <trkpt lat="48.66779" lon="-2.30402">
        <ele>72.72</ele>
        <time>2019-08-01T09:21:36Z</time>
      </trkpt>
      <trkpt lat="48.66783" lon="-2.30411">
        <ele>73.2</ele>
        <time>2019-08-01T09:21:41Z</time>
      </trkpt>
      <trkpt lat="48.66784" lon="-2.30413">
        <ele>73.68</ele>
        <time>2019-08-01T09:21:42Z</time>
      </trkpt>
      <trkpt lat="48.66787" lon="-2.30424">
        <ele>73.68</ele>
        <time>2019-08-01T09:21:47Z</time>
      </trkpt>
      <trkpt lat="48.66788" lon="-2.30425">
        <ele>73.68</ele>
        <time>2019-08-01T09:21:48Z</time>
      </trkpt>
      <trkpt lat="48.66797" lon="-2.30439">
        <ele>73.2</ele>
        <time>2019-08-01T09:21:57Z</time>
      </trkpt>
      <trkpt lat="48.66801" lon="-2.30453">
        <ele>72.72</ele>
        <time>2019-08-01T09:22:04Z</time>
      </trkpt>
      <trkpt lat="48.66805" lon="-2.30466">
        <ele>71.76</ele>
        <time>2019-08-01T09:22:12Z</time>
      </trkpt>
      <trkpt lat="48.66804" lon="-2.3047">
        <ele>71.27</ele>
        <time>2019-08-01T09:22:19Z</time>
      </trkpt>
      <trkpt lat="48.66804" lon="-2.30474">
        <ele>70.79</ele>
        <time>2019-08-01T09:22:31Z</time>
      </trkpt>
      <trkpt lat="48.66805" lon="-2.30475">
        <ele>70.79</ele>
        <time>2019-08-01T09:22:33Z</time>
      </trkpt>
      <trkpt lat="48.66806" lon="-2.3048">
        <ele>69.83</ele>
        <time>2019-08-01T09:22:39Z</time>
      </trkpt>
      <trkpt lat="48.66804" lon="-2.30486">
        <ele>69.83</ele>
        <time>2019-08-01T09:22:50Z</time>
      </trkpt>
      <trkpt lat="48.66803" lon="-2.30489">
        <ele>69.83</ele>
        <time>2019-08-01T09:23:07Z</time>
      </trkpt>
      <trkpt lat="48.66803" lon="-2.3049">
        <ele>69.35</ele>
        <time>2019-08-01T09:23:27Z</time>
      </trkpt>
      <trkpt lat="48.66803" lon="-2.30491">
        <ele>69.35</ele>
        <time>2019-08-01T09:23:28Z</time>
      </trkpt>
      <trkpt lat="48.66802" lon="-2.30493">
        <ele>69.35</ele>
        <time>2019-08-01T09:23:30Z</time>
      </trkpt>
      <trkpt lat="48.668" lon="-2.30502">
        <ele>67.91</ele>
        <time>2019-08-01T09:23:37Z</time>
      </trkpt>
      <trkpt lat="48.668" lon="-2.30505">
        <ele>68.87</ele>
        <time>2019-08-01T09:23:39Z</time>
      </trkpt>
      <trkpt lat="48.66802" lon="-2.30513">
        <ele>66.95</ele>
        <time>2019-08-01T09:23:43Z</time>
      </trkpt>
      <trkpt lat="48.66802" lon="-2.30524">
        <ele>65.99</ele>
        <time>2019-08-01T09:23:49Z</time>
      </trkpt>
      <trkpt lat="48.66804" lon="-2.30528">
        <ele>65.51</ele>
        <time>2019-08-01T09:23:52Z</time>
      </trkpt>
      <trkpt lat="48.66805" lon="-2.30534">
        <ele>65.03</ele>
        <time>2019-08-01T09:23:55Z</time>
      </trkpt>
      <trkpt lat="48.66807" lon="-2.30542">
        <ele>64.07</ele>
        <time>2019-08-01T09:24:01Z</time>
      </trkpt>
      <trkpt lat="48.6681" lon="-2.30555">
        <ele>63.58</ele>
        <time>2019-08-01T09:24:08Z</time>
      </trkpt>
      <trkpt lat="48.66813" lon="-2.30567">
        <ele>63.1</ele>
        <time>2019-08-01T09:24:14Z</time>
      </trkpt>
      <trkpt lat="48.66814" lon="-2.30579">
        <ele>63.1</ele>
        <time>2019-08-01T09:24:20Z</time>
      </trkpt>
      <trkpt lat="48.66815" lon="-2.30583">
        <ele>62.62</ele>
        <time>2019-08-01T09:24:22Z</time>
      </trkpt>
      <trkpt lat="48.66816" lon="-2.30587">
        <ele>62.62</ele>
        <time>2019-08-01T09:24:24Z</time>
      </trkpt>
      <trkpt lat="48.66816" lon="-2.30588">
        <ele>62.62</ele>
        <time>2019-08-01T09:24:25Z</time>
      </trkpt>
      <trkpt lat="48.66819" lon="-2.30596">
        <ele>62.62</ele>
        <time>2019-08-01T09:24:29Z</time>
      </trkpt>
      <trkpt lat="48.66824" lon="-2.30617">
        <ele>62.62</ele>
        <time>2019-08-01T09:24:38Z</time>
      </trkpt>
      <trkpt lat="48.66825" lon="-2.30621">
        <ele>62.62</ele>
        <time>2019-08-01T09:24:40Z</time>
      </trkpt>
      <trkpt lat="48.66826" lon="-2.30628">
        <ele>63.1</ele>
        <time>2019-08-01T09:24:46Z</time>
      </trkpt>
      <trkpt lat="48.66827" lon="-2.30632">
        <ele>63.1</ele>
        <time>2019-08-01T09:24:48Z</time>
      </trkpt>
      <trkpt lat="48.66831" lon="-2.30636">
        <ele>63.1</ele>
        <time>2019-08-01T09:24:56Z</time>
      </trkpt>
      <trkpt lat="48.66831" lon="-2.30637">
        <ele>63.1</ele>
        <time>2019-08-01T09:25:09Z</time>
      </trkpt>
      <trkpt lat="48.66833" lon="-2.30641">
        <ele>63.1</ele>
        <time>2019-08-01T09:25:12Z</time>
      </trkpt>
      <trkpt lat="48.66841" lon="-2.30654">
        <ele>64.07</ele>
        <time>2019-08-01T09:25:20Z</time>
      </trkpt>
      <trkpt lat="48.66843" lon="-2.30664">
        <ele>64.55</ele>
        <time>2019-08-01T09:25:26Z</time>
      </trkpt>
      <trkpt lat="48.66846" lon="-2.30679">
        <ele>64.55</ele>
        <time>2019-08-01T09:25:34Z</time>
      </trkpt>
      <trkpt lat="48.66846" lon="-2.30695">
        <ele>64.07</ele>
        <time>2019-08-01T09:25:42Z</time>
      </trkpt>
      <trkpt lat="48.66845" lon="-2.30699">
        <ele>64.07</ele>
        <time>2019-08-01T09:25:45Z</time>
      </trkpt>
      <trkpt lat="48.66845" lon="-2.30713">
        <ele>63.58</ele>
        <time>2019-08-01T09:25:53Z</time>
      </trkpt>
      <trkpt lat="48.66849" lon="-2.30727">
        <ele>63.1</ele>
        <time>2019-08-01T09:26:00Z</time>
      </trkpt>
      <trkpt lat="48.66851" lon="-2.30734">
        <ele>63.58</ele>
        <time>2019-08-01T09:26:04Z</time>
      </trkpt>
      <trkpt lat="48.66853" lon="-2.30737">
        <ele>63.58</ele>
        <time>2019-08-01T09:26:07Z</time>
      </trkpt>
      <trkpt lat="48.66857" lon="-2.30748">
        <ele>64.07</ele>
        <time>2019-08-01T09:26:13Z</time>
      </trkpt>
      <trkpt lat="48.66861" lon="-2.30756">
        <ele>64.55</ele>
        <time>2019-08-01T09:26:19Z</time>
      </trkpt>
      <trkpt lat="48.66863" lon="-2.30771">
        <ele>65.03</ele>
        <time>2019-08-01T09:26:26Z</time>
      </trkpt>
      <trkpt lat="48.66867" lon="-2.30783">
        <ele>64.07</ele>
        <time>2019-08-01T09:26:33Z</time>
      </trkpt>
      <trkpt lat="48.66869" lon="-2.30788">
        <ele>63.58</ele>
        <time>2019-08-01T09:26:36Z</time>
      </trkpt>
      <trkpt lat="48.66874" lon="-2.30803">
        <ele>62.62</ele>
        <time>2019-08-01T09:26:45Z</time>
      </trkpt>
      <trkpt lat="48.66875" lon="-2.30806">
        <ele>62.14</ele>
        <time>2019-08-01T09:26:53Z</time>
      </trkpt>
      <trkpt lat="48.66874" lon="-2.30806">
        <ele>62.14</ele>
        <time>2019-08-01T09:27:00Z</time>
      </trkpt>
      <trkpt lat="48.66874" lon="-2.30806">
        <ele>62.14</ele>
        <time>2019-08-01T09:27:20Z</time>
      </trkpt>
      <trkpt lat="48.66874" lon="-2.30806">
        <ele>62.14</ele>
        <time>2019-08-01T09:27:22Z</time>
      </trkpt>
      <trkpt lat="48.66877" lon="-2.30812">
        <ele>61.66</ele>
        <time>2019-08-01T09:27:31Z</time>
      </trkpt>
      <trkpt lat="48.66879" lon="-2.30818">
        <ele>62.14</ele>
        <time>2019-08-01T09:27:40Z</time>
      </trkpt>
      <trkpt lat="48.66879" lon="-2.3082">
        <ele>61.18</ele>
        <time>2019-08-01T09:27:41Z</time>
      </trkpt>
      <trkpt lat="48.66885" lon="-2.30839">
        <ele>60.7</ele>
        <time>2019-08-01T09:27:50Z</time>
      </trkpt>
      <trkpt lat="48.66886" lon="-2.30844">
        <ele>60.7</ele>
        <time>2019-08-01T09:27:53Z</time>
      </trkpt>
      <trkpt lat="48.66891" lon="-2.30859">
        <ele>60.22</ele>
        <time>2019-08-01T09:28:02Z</time>
      </trkpt>
      <trkpt lat="48.66894" lon="-2.30873">
        <ele>60.22</ele>
        <time>2019-08-01T09:28:09Z</time>
      </trkpt>
      <trkpt lat="48.66896" lon="-2.30887">
        <ele>59.26</ele>
        <time>2019-08-01T09:28:16Z</time>
      </trkpt>
      <trkpt lat="48.66897" lon="-2.30898">
        <ele>59.26</ele>
        <time>2019-08-01T09:28:22Z</time>
      </trkpt>
      <trkpt lat="48.66901" lon="-2.3091">
        <ele>58.3</ele>
        <time>2019-08-01T09:28:30Z</time>
      </trkpt>
      <trkpt lat="48.66908" lon="-2.30921">
        <ele>57.34</ele>
        <time>2019-08-01T09:28:38Z</time>
      </trkpt>
      <trkpt lat="48.66909" lon="-2.30924">
        <ele>57.34</ele>
        <time>2019-08-01T09:28:40Z</time>
      </trkpt>
      <trkpt lat="48.66918" lon="-2.30937">
        <ele>56.37</ele>
        <time>2019-08-01T09:28:50Z</time>
      </trkpt>
      <trkpt lat="48.66925" lon="-2.30952">
        <ele>55.89</ele>
        <time>2019-08-01T09:28:59Z</time>
      </trkpt>
      <trkpt lat="48.6693" lon="-2.30967">
        <ele>54.93</ele>
        <time>2019-08-01T09:29:07Z</time>
      </trkpt>
      <trkpt lat="48.66932" lon="-2.30981">
        <ele>55.89</ele>
        <time>2019-08-01T09:29:14Z</time>
      </trkpt>
      <trkpt lat="48.66939" lon="-2.30995">
        <ele>55.41</ele>
        <time>2019-08-01T09:29:23Z</time>
      </trkpt>
      <trkpt lat="48.66946" lon="-2.3101">
        <ele>55.89</ele>
        <time>2019-08-01T09:29:32Z</time>
      </trkpt>
      <trkpt lat="48.66964" lon="-2.31095">
        <ele>61.66</ele>
        <time>2019-08-01T09:30:23Z</time>
      </trkpt>
      <trkpt lat="48.66963" lon="-2.31096">
        <ele>61.66</ele>
        <time>2019-08-01T09:30:24Z</time>
      </trkpt>
      <trkpt lat="48.66957" lon="-2.31104">
        <ele>61.66</ele>
        <time>2019-08-01T09:30:32Z</time>
      </trkpt>
      <trkpt lat="48.66954" lon="-2.31117">
        <ele>61.18</ele>
        <time>2019-08-01T09:30:41Z</time>
      </trkpt>
      <trkpt lat="48.66954" lon="-2.31121">
        <ele>61.66</ele>
        <time>2019-08-01T09:30:44Z</time>
      </trkpt>
      <trkpt lat="48.66948" lon="-2.31135">
        <ele>62.14</ele>
        <time>2019-08-01T09:30:55Z</time>
      </trkpt>
      <trkpt lat="48.66942" lon="-2.31143">
        <ele>61.66</ele>
        <time>2019-08-01T09:31:02Z</time>
      </trkpt>
      <trkpt lat="48.66941" lon="-2.31146">
        <ele>61.18</ele>
        <time>2019-08-01T09:31:04Z</time>
      </trkpt>
      <trkpt lat="48.66943" lon="-2.31159">
        <ele>61.66</ele>
        <time>2019-08-01T09:31:13Z</time>
      </trkpt>
      <trkpt lat="48.66944" lon="-2.31163">
        <ele>62.14</ele>
        <time>2019-08-01T09:31:17Z</time>
      </trkpt>
      <trkpt lat="48.66952" lon="-2.31169">
        <ele>62.62</ele>
        <time>2019-08-01T09:31:24Z</time>
      </trkpt>
      <trkpt lat="48.66959" lon="-2.31171">
        <ele>63.1</ele>
        <time>2019-08-01T09:31:29Z</time>
      </trkpt>
      <trkpt lat="48.6697" lon="-2.31168">
        <ele>63.1</ele>
        <time>2019-08-01T09:31:38Z</time>
      </trkpt>
      <trkpt lat="48.6698" lon="-2.31171">
        <ele>63.1</ele>
        <time>2019-08-01T09:31:45Z</time>
      </trkpt>
      <trkpt lat="48.66989" lon="-2.31169">
        <ele>63.1</ele>
        <time>2019-08-01T09:31:52Z</time>
      </trkpt>
      <trkpt lat="48.67002" lon="-2.31167">
        <ele>63.1</ele>
        <time>2019-08-01T09:32:01Z</time>
      </trkpt>
      <trkpt lat="48.67013" lon="-2.31164">
        <ele>62.62</ele>
        <time>2019-08-01T09:32:09Z</time>
      </trkpt>
      <trkpt lat="48.67025" lon="-2.31159">
        <ele>63.58</ele>
        <time>2019-08-01T09:32:19Z</time>
      </trkpt>
      <trkpt lat="48.67032" lon="-2.31164">
        <ele>64.07</ele>
        <time>2019-08-01T09:32:27Z</time>
      </trkpt>
      <trkpt lat="48.67036" lon="-2.31174">
        <ele>64.55</ele>
        <time>2019-08-01T09:32:35Z</time>
      </trkpt>
      <trkpt lat="48.6704" lon="-2.31184">
        <ele>65.51</ele>
        <time>2019-08-01T09:32:41Z</time>
      </trkpt>
      <trkpt lat="48.67047" lon="-2.31194">
        <ele>65.51</ele>
        <time>2019-08-01T09:32:48Z</time>
      </trkpt>
      <trkpt lat="48.67052" lon="-2.31207">
        <ele>65.03</ele>
        <time>2019-08-01T09:32:56Z</time>
      </trkpt>
      <trkpt lat="48.67056" lon="-2.31215">
        <ele>64.07</ele>
        <time>2019-08-01T09:33:03Z</time>
      </trkpt>
      <trkpt lat="48.67061" lon="-2.31229">
        <ele>63.1</ele>
        <time>2019-08-01T09:33:11Z</time>
      </trkpt>
      <trkpt lat="48.67067" lon="-2.31239">
        <ele>62.62</ele>
        <time>2019-08-01T09:33:19Z</time>
      </trkpt>
      <trkpt lat="48.67073" lon="-2.31251">
        <ele>61.66</ele>
        <time>2019-08-01T09:33:27Z</time>
      </trkpt>
      <trkpt lat="48.67078" lon="-2.31259">
        <ele>61.66</ele>
        <time>2019-08-01T09:33:32Z</time>
      </trkpt>
      <trkpt lat="48.67086" lon="-2.31269">
        <ele>61.18</ele>
        <time>2019-08-01T09:33:40Z</time>
      </trkpt>
      <trkpt lat="48.67094" lon="-2.3128">
        <ele>60.22</ele>
        <time>2019-08-01T09:33:48Z</time>
      </trkpt>
      <trkpt lat="48.67103" lon="-2.31289">
        <ele>59.26</ele>
        <time>2019-08-01T09:33:55Z</time>
      </trkpt>
      <trkpt lat="48.6711" lon="-2.31295">
        <ele>59.26</ele>
        <time>2019-08-01T09:34:02Z</time>
      </trkpt>
      <trkpt lat="48.67118" lon="-2.313">
        <ele>58.78</ele>
        <time>2019-08-01T09:34:08Z</time>
      </trkpt>
      <trkpt lat="48.67128" lon="-2.313">
        <ele>58.78</ele>
        <time>2019-08-01T09:34:16Z</time>
      </trkpt>
      <trkpt lat="48.6713" lon="-2.31299">
        <ele>58.78</ele>
        <time>2019-08-01T09:34:17Z</time>
      </trkpt>
      <trkpt lat="48.6714" lon="-2.313">
        <ele>58.78</ele>
        <time>2019-08-01T09:34:25Z</time>
      </trkpt>
      <trkpt lat="48.67148" lon="-2.31308">
        <ele>59.26</ele>
        <time>2019-08-01T09:34:32Z</time>
      </trkpt>
      <trkpt lat="48.67155" lon="-2.31321">
        <ele>59.74</ele>
        <time>2019-08-01T09:34:40Z</time>
      </trkpt>
      <trkpt lat="48.67163" lon="-2.31332">
        <ele>59.74</ele>
        <time>2019-08-01T09:34:48Z</time>
      </trkpt>
      <trkpt lat="48.6717" lon="-2.3134">
        <ele>60.7</ele>
        <time>2019-08-01T09:34:56Z</time>
      </trkpt>
      <trkpt lat="48.67172" lon="-2.31343">
        <ele>61.18</ele>
        <time>2019-08-01T09:35:01Z</time>
      </trkpt>
      <trkpt lat="48.67176" lon="-2.31349">
        <ele>61.66</ele>
        <time>2019-08-01T09:35:05Z</time>
      </trkpt>
      <trkpt lat="48.6718" lon="-2.31354">
        <ele>61.66</ele>
        <time>2019-08-01T09:35:12Z</time>
      </trkpt>
      <trkpt lat="48.67184" lon="-2.31359">
        <ele>61.66</ele>
        <time>2019-08-01T09:35:18Z</time>
      </trkpt>
      <trkpt lat="48.67191" lon="-2.31366">
        <ele>61.66</ele>
        <time>2019-08-01T09:35:25Z</time>
      </trkpt>
      <trkpt lat="48.67194" lon="-2.3137">
        <ele>61.66</ele>
        <time>2019-08-01T09:35:28Z</time>
      </trkpt>
      <trkpt lat="48.67203" lon="-2.31375">
        <ele>61.66</ele>
        <time>2019-08-01T09:35:35Z</time>
      </trkpt>
      <trkpt lat="48.67208" lon="-2.3138">
        <ele>62.14</ele>
        <time>2019-08-01T09:35:40Z</time>
      </trkpt>
      <trkpt lat="48.67215" lon="-2.31387">
        <ele>63.1</ele>
        <time>2019-08-01T09:35:48Z</time>
      </trkpt>
      <trkpt lat="48.67217" lon="-2.31394">
        <ele>63.58</ele>
        <time>2019-08-01T09:35:53Z</time>
      </trkpt>
      <trkpt lat="48.67218" lon="-2.31398">
        <ele>64.07</ele>
        <time>2019-08-01T09:35:56Z</time>
      </trkpt>
      <trkpt lat="48.67223" lon="-2.31406">
        <ele>64.55</ele>
        <time>2019-08-01T09:36:03Z</time>
      </trkpt>
      <trkpt lat="48.67225" lon="-2.31408">
        <ele>64.55</ele>
        <time>2019-08-01T09:36:05Z</time>
      </trkpt>
      <trkpt lat="48.67231" lon="-2.31415">
        <ele>64.55</ele>
        <time>2019-08-01T09:36:12Z</time>
      </trkpt>
      <trkpt lat="48.67238" lon="-2.31426">
        <ele>63.58</ele>
        <time>2019-08-01T09:36:21Z</time>
      </trkpt>
      <trkpt lat="48.67239" lon="-2.31428">
        <ele>64.07</ele>
        <time>2019-08-01T09:36:27Z</time>
      </trkpt>
      <trkpt lat="48.67239" lon="-2.31428">
        <ele>63.58</ele>
        <time>2019-08-01T09:36:28Z</time>
      </trkpt>
      <trkpt lat="48.67242" lon="-2.31433">
        <ele>63.1</ele>
        <time>2019-08-01T09:36:33Z</time>
      </trkpt>
      <trkpt lat="48.67243" lon="-2.31434">
        <ele>63.1</ele>
        <time>2019-08-01T09:36:35Z</time>
      </trkpt>
      <trkpt lat="48.67248" lon="-2.31444">
        <ele>62.62</ele>
        <time>2019-08-01T09:36:42Z</time>
      </trkpt>
      <trkpt lat="48.67247" lon="-2.31452">
        <ele>62.62</ele>
        <time>2019-08-01T09:36:47Z</time>
      </trkpt>
      <trkpt lat="48.67249" lon="-2.31462">
        <ele>62.14</ele>
        <time>2019-08-01T09:36:54Z</time>
      </trkpt>
      <trkpt lat="48.67252" lon="-2.31465">
        <ele>62.14</ele>
        <time>2019-08-01T09:36:58Z</time>
      </trkpt>
      <trkpt lat="48.67254" lon="-2.3147">
        <ele>61.66</ele>
        <time>2019-08-01T09:37:02Z</time>
      </trkpt>
      <trkpt lat="48.67258" lon="-2.31478">
        <ele>61.18</ele>
        <time>2019-08-01T09:37:07Z</time>
      </trkpt>
      <trkpt lat="48.67259" lon="-2.31483">
        <ele>61.18</ele>
        <time>2019-08-01T09:37:10Z</time>
      </trkpt>
      <trkpt lat="48.67267" lon="-2.31486">
        <ele>60.7</ele>
        <time>2019-08-01T09:37:16Z</time>
      </trkpt>
      <trkpt lat="48.67272" lon="-2.31488">
        <ele>61.18</ele>
        <time>2019-08-01T09:37:20Z</time>
      </trkpt>
      <trkpt lat="48.67277" lon="-2.31499">
        <ele>61.18</ele>
        <time>2019-08-01T09:37:28Z</time>
      </trkpt>
      <trkpt lat="48.67279" lon="-2.315">
        <ele>61.66</ele>
        <time>2019-08-01T09:37:34Z</time>
      </trkpt>
      <trkpt lat="48.6728" lon="-2.31503">
        <ele>61.66</ele>
        <time>2019-08-01T09:37:45Z</time>
      </trkpt>
      <trkpt lat="48.6728" lon="-2.31508">
        <ele>61.66</ele>
        <time>2019-08-01T09:37:48Z</time>
      </trkpt>
      <trkpt lat="48.67287" lon="-2.31514">
        <ele>62.14</ele>
        <time>2019-08-01T09:37:55Z</time>
      </trkpt>
      <trkpt lat="48.67289" lon="-2.31514">
        <ele>62.62</ele>
        <time>2019-08-01T09:37:57Z</time>
      </trkpt>
      <trkpt lat="48.67296" lon="-2.31518">
        <ele>63.58</ele>
        <time>2019-08-01T09:38:04Z</time>
      </trkpt>
      <trkpt lat="48.67305" lon="-2.31522">
        <ele>64.07</ele>
        <time>2019-08-01T09:38:12Z</time>
      </trkpt>
      <trkpt lat="48.67314" lon="-2.31529">
        <ele>64.07</ele>
        <time>2019-08-01T09:38:21Z</time>
      </trkpt>
      <trkpt lat="48.6732" lon="-2.31534">
        <ele>64.55</ele>
        <time>2019-08-01T09:38:27Z</time>
      </trkpt>
      <trkpt lat="48.67328" lon="-2.31539">
        <ele>65.03</ele>
        <time>2019-08-01T09:38:33Z</time>
      </trkpt>
      <trkpt lat="48.6733" lon="-2.31541">
        <ele>65.51</ele>
        <time>2019-08-01T09:38:36Z</time>
      </trkpt>
      <trkpt lat="48.67332" lon="-2.31544">
        <ele>65.51</ele>
        <time>2019-08-01T09:38:38Z</time>
      </trkpt>
      <trkpt lat="48.67339" lon="-2.31549">
        <ele>65.99</ele>
        <time>2019-08-01T09:38:45Z</time>
      </trkpt>
      <trkpt lat="48.67345" lon="-2.31553">
        <ele>65.99</ele>
        <time>2019-08-01T09:38:52Z</time>
      </trkpt>
      <trkpt lat="48.67345" lon="-2.31553">
        <ele>66.47</ele>
        <time>2019-08-01T09:39:00Z</time>
      </trkpt>
      <trkpt lat="48.67348" lon="-2.31554">
        <ele>65.99</ele>
        <time>2019-08-01T09:39:13Z</time>
      </trkpt>
      <trkpt lat="48.67358" lon="-2.31557">
        <ele>65.03</ele>
        <time>2019-08-01T09:39:20Z</time>
      </trkpt>
      <trkpt lat="48.67362" lon="-2.31557">
        <ele>65.03</ele>
        <time>2019-08-01T09:39:22Z</time>
      </trkpt>
      <trkpt lat="48.67378" lon="-2.31559">
        <ele>64.55</ele>
        <time>2019-08-01T09:39:30Z</time>
      </trkpt>
      <trkpt lat="48.67389" lon="-2.31561">
        <ele>64.55</ele>
        <time>2019-08-01T09:39:37Z</time>
      </trkpt>
      <trkpt lat="48.67399" lon="-2.31564">
        <ele>64.55</ele>
        <time>2019-08-01T09:39:43Z</time>
      </trkpt>
      <trkpt lat="48.67407" lon="-2.31566">
        <ele>64.55</ele>
        <time>2019-08-01T09:39:48Z</time>
      </trkpt>
      <trkpt lat="48.67416" lon="-2.31569">
        <ele>63.58</ele>
        <time>2019-08-01T09:39:55Z</time>
      </trkpt>
      <trkpt lat="48.67428" lon="-2.31573">
        <ele>63.58</ele>
        <time>2019-08-01T09:40:03Z</time>
      </trkpt>
      <trkpt lat="48.67437" lon="-2.31576">
        <ele>63.1</ele>
        <time>2019-08-01T09:40:10Z</time>
      </trkpt>
      <trkpt lat="48.67439" lon="-2.31575">
        <ele>63.1</ele>
        <time>2019-08-01T09:40:17Z</time>
      </trkpt>
      <trkpt lat="48.67442" lon="-2.31576">
        <ele>62.62</ele>
        <time>2019-08-01T09:40:27Z</time>
      </trkpt>
      <trkpt lat="48.67454" lon="-2.31576">
        <ele>62.14</ele>
        <time>2019-08-01T09:40:35Z</time>
      </trkpt>
      <trkpt lat="48.67464" lon="-2.31574">
        <ele>61.66</ele>
        <time>2019-08-01T09:40:43Z</time>
      </trkpt>
      <trkpt lat="48.67466" lon="-2.31575">
        <ele>61.66</ele>
        <time>2019-08-01T09:40:45Z</time>
      </trkpt>
      <trkpt lat="48.67469" lon="-2.31581">
        <ele>61.18</ele>
        <time>2019-08-01T09:40:49Z</time>
      </trkpt>
      <trkpt lat="48.67468" lon="-2.31595">
        <ele>61.18</ele>
        <time>2019-08-01T09:40:57Z</time>
      </trkpt>
      <trkpt lat="48.67467" lon="-2.31606">
        <ele>60.7</ele>
        <time>2019-08-01T09:41:05Z</time>
      </trkpt>
      <trkpt lat="48.67469" lon="-2.31607">
        <ele>60.22</ele>
        <time>2019-08-01T09:41:08Z</time>
      </trkpt>
      <trkpt lat="48.6747" lon="-2.31604">
        <ele>59.26</ele>
        <time>2019-08-01T09:41:10Z</time>
      </trkpt>
      <trkpt lat="48.67475" lon="-2.31594">
        <ele>59.26</ele>
        <time>2019-08-01T09:41:18Z</time>
      </trkpt>
      <trkpt lat="48.67476" lon="-2.31595">
        <ele>58.78</ele>
        <time>2019-08-01T09:41:19Z</time>
      </trkpt>
      <trkpt lat="48.67476" lon="-2.31602">
        <ele>57.82</ele>
        <time>2019-08-01T09:41:23Z</time>
      </trkpt>
      <trkpt lat="48.67477" lon="-2.31607">
        <ele>57.34</ele>
        <time>2019-08-01T09:41:30Z</time>
      </trkpt>
      <trkpt lat="48.67478" lon="-2.31607">
        <ele>57.34</ele>
        <time>2019-08-01T09:41:31Z</time>
      </trkpt>
      <trkpt lat="48.67481" lon="-2.31598">
        <ele>55.89</ele>
        <time>2019-08-01T09:41:37Z</time>
      </trkpt>
      <trkpt lat="48.67484" lon="-2.31593">
        <ele>55.41</ele>
        <time>2019-08-01T09:41:42Z</time>
      </trkpt>
      <trkpt lat="48.67485" lon="-2.31599">
        <ele>53.97</ele>
        <time>2019-08-01T09:41:47Z</time>
      </trkpt>
      <trkpt lat="48.67486" lon="-2.31604">
        <ele>53.01</ele>
        <time>2019-08-01T09:41:50Z</time>
      </trkpt>
      <trkpt lat="48.67489" lon="-2.31613">
        <ele>52.53</ele>
        <time>2019-08-01T09:41:55Z</time>
      </trkpt>
      <trkpt lat="48.67489" lon="-2.31615">
        <ele>52.53</ele>
        <time>2019-08-01T09:41:56Z</time>
      </trkpt>
      <trkpt lat="48.67485" lon="-2.31624">
        <ele>53.01</ele>
        <time>2019-08-01T09:42:01Z</time>
      </trkpt>
      <trkpt lat="48.67478" lon="-2.3164">
        <ele>53.01</ele>
        <time>2019-08-01T09:42:08Z</time>
      </trkpt>
      <trkpt lat="48.67478" lon="-2.31652">
        <ele>52.05</ele>
        <time>2019-08-01T09:42:15Z</time>
      </trkpt>
      <trkpt lat="48.6748" lon="-2.31658">
        <ele>52.05</ele>
        <time>2019-08-01T09:42:20Z</time>
      </trkpt>
      <trkpt lat="48.67483" lon="-2.31661">
        <ele>51.57</ele>
        <time>2019-08-01T09:42:22Z</time>
      </trkpt>
      <trkpt lat="48.67486" lon="-2.31666">
        <ele>51.57</ele>
        <time>2019-08-01T09:42:25Z</time>
      </trkpt>
      <trkpt lat="48.67489" lon="-2.31672">
        <ele>51.57</ele>
        <time>2019-08-01T09:42:28Z</time>
      </trkpt>
      <trkpt lat="48.67496" lon="-2.31681">
        <ele>53.01</ele>
        <time>2019-08-01T09:42:36Z</time>
      </trkpt>
      <trkpt lat="48.67498" lon="-2.31679">
        <ele>53.97</ele>
        <time>2019-08-01T09:42:43Z</time>
      </trkpt>
      <trkpt lat="48.67499" lon="-2.3168">
        <ele>54.45</ele>
        <time>2019-08-01T09:42:55Z</time>
      </trkpt>
      <trkpt lat="48.67501" lon="-2.31681">
        <ele>55.41</ele>
        <time>2019-08-01T09:42:59Z</time>
      </trkpt>
      <trkpt lat="48.67507" lon="-2.31675">
        <ele>55.89</ele>
        <time>2019-08-01T09:43:05Z</time>
      </trkpt>
      <trkpt lat="48.67515" lon="-2.31668">
        <ele>55.89</ele>
        <time>2019-08-01T09:43:12Z</time>
      </trkpt>
      <trkpt lat="48.67516" lon="-2.31667">
        <ele>55.89</ele>
        <time>2019-08-01T09:43:13Z</time>
      </trkpt>
      <trkpt lat="48.67523" lon="-2.31662">
        <ele>56.37</ele>
        <time>2019-08-01T09:43:19Z</time>
      </trkpt>
      <trkpt lat="48.67529" lon="-2.31658">
        <ele>56.37</ele>
        <time>2019-08-01T09:43:25Z</time>
      </trkpt>
      <trkpt lat="48.67533" lon="-2.3164">
        <ele>59.74</ele>
        <time>2019-08-01T09:43:34Z</time>
      </trkpt>
      <trkpt lat="48.67537" lon="-2.31624">
        <ele>57.34</ele>
        <time>2019-08-01T09:43:42Z</time>
      </trkpt>
      <trkpt lat="48.67539" lon="-2.31614">
        <ele>56.37</ele>
        <time>2019-08-01T09:43:47Z</time>
      </trkpt>
      <trkpt lat="48.67546" lon="-2.3159">
        <ele>57.82</ele>
        <time>2019-08-01T09:43:57Z</time>
      </trkpt>
      <trkpt lat="48.67552" lon="-2.31571">
        <ele>58.3</ele>
        <time>2019-08-01T09:44:05Z</time>
      </trkpt>
      <trkpt lat="48.67558" lon="-2.31558">
        <ele>58.78</ele>
        <time>2019-08-01T09:44:13Z</time>
      </trkpt>
      <trkpt lat="48.67563" lon="-2.31551">
        <ele>59.26</ele>
        <time>2019-08-01T09:44:19Z</time>
      </trkpt>
      <trkpt lat="48.67568" lon="-2.3154">
        <ele>60.22</ele>
        <time>2019-08-01T09:44:27Z</time>
      </trkpt>
      <trkpt lat="48.67575" lon="-2.31535">
        <ele>61.18</ele>
        <time>2019-08-01T09:44:36Z</time>
      </trkpt>
      <trkpt lat="48.67579" lon="-2.31534">
        <ele>61.66</ele>
        <time>2019-08-01T09:44:40Z</time>
      </trkpt>
      <trkpt lat="48.67587" lon="-2.31536">
        <ele>62.14</ele>
        <time>2019-08-01T09:44:48Z</time>
      </trkpt>
      <trkpt lat="48.67595" lon="-2.31539">
        <ele>62.14</ele>
        <time>2019-08-01T09:44:55Z</time>
      </trkpt>
      <trkpt lat="48.67607" lon="-2.31536">
        <ele>62.14</ele>
        <time>2019-08-01T09:45:05Z</time>
      </trkpt>
      <trkpt lat="48.67609" lon="-2.31535">
        <ele>62.14</ele>
        <time>2019-08-01T09:45:06Z</time>
      </trkpt>
      <trkpt lat="48.67615" lon="-2.31531">
        <ele>62.14</ele>
        <time>2019-08-01T09:45:10Z</time>
      </trkpt>
      <trkpt lat="48.67624" lon="-2.31533">
        <ele>62.14</ele>
        <time>2019-08-01T09:45:18Z</time>
      </trkpt>
      <trkpt lat="48.67624" lon="-2.31533">
        <ele>62.14</ele>
        <time>2019-08-01T09:45:25Z</time>
      </trkpt>
      <trkpt lat="48.67626" lon="-2.31535">
        <ele>61.66</ele>
        <time>2019-08-01T09:45:29Z</time>
      </trkpt>
      <trkpt lat="48.67637" lon="-2.31531">
        <ele>61.66</ele>
        <time>2019-08-01T09:45:38Z</time>
      </trkpt>
      <trkpt lat="48.67646" lon="-2.31529">
        <ele>61.66</ele>
        <time>2019-08-01T09:45:45Z</time>
      </trkpt>
      <trkpt lat="48.6765" lon="-2.3153">
        <ele>61.66</ele>
        <time>2019-08-01T09:45:48Z</time>
      </trkpt>
      <trkpt lat="48.67656" lon="-2.31525">
        <ele>61.66</ele>
        <time>2019-08-01T09:45:55Z</time>
      </trkpt>
      <trkpt lat="48.67665" lon="-2.3152">
        <ele>61.18</ele>
        <time>2019-08-01T09:46:02Z</time>
      </trkpt>
      <trkpt lat="48.67679" lon="-2.31519">
        <ele>61.18</ele>
        <time>2019-08-01T09:46:12Z</time>
      </trkpt>
      <trkpt lat="48.67686" lon="-2.31516">
        <ele>64.55</ele>
        <time>2019-08-01T09:46:18Z</time>
      </trkpt>
      <trkpt lat="48.67689" lon="-2.31514">
        <ele>62.62</ele>
        <time>2019-08-01T09:46:21Z</time>
      </trkpt>
      <trkpt lat="48.67694" lon="-2.31513">
        <ele>61.66</ele>
        <time>2019-08-01T09:46:25Z</time>
      </trkpt>
      <trkpt lat="48.67706" lon="-2.31508">
        <ele>62.14</ele>
        <time>2019-08-01T09:46:34Z</time>
      </trkpt>
      <trkpt lat="48.67716" lon="-2.31504">
        <ele>62.14</ele>
        <time>2019-08-01T09:46:42Z</time>
      </trkpt>
      <trkpt lat="48.67727" lon="-2.31498">
        <ele>62.62</ele>
        <time>2019-08-01T09:46:50Z</time>
      </trkpt>
      <trkpt lat="48.67733" lon="-2.31496">
        <ele>62.14</ele>
        <time>2019-08-01T09:46:55Z</time>
      </trkpt>
      <trkpt lat="48.67747" lon="-2.31487">
        <ele>62.14</ele>
        <time>2019-08-01T09:47:06Z</time>
      </trkpt>
      <trkpt lat="48.6776" lon="-2.31482">
        <ele>61.66</ele>
        <time>2019-08-01T09:47:15Z</time>
      </trkpt>
      <trkpt lat="48.67763" lon="-2.31477">
        <ele>61.66</ele>
        <time>2019-08-01T09:47:19Z</time>
      </trkpt>
      <trkpt lat="48.67765" lon="-2.31473">
        <ele>61.66</ele>
        <time>2019-08-01T09:47:22Z</time>
      </trkpt>
      <trkpt lat="48.67772" lon="-2.31464">
        <ele>60.7</ele>
        <time>2019-08-01T09:47:30Z</time>
      </trkpt>
      <trkpt lat="48.67775" lon="-2.31461">
        <ele>60.7</ele>
        <time>2019-08-01T09:47:34Z</time>
      </trkpt>
      <trkpt lat="48.67785" lon="-2.3145">
        <ele>59.74</ele>
        <time>2019-08-01T09:47:43Z</time>
      </trkpt>
      <trkpt lat="48.67795" lon="-2.31451">
        <ele>60.7</ele>
        <time>2019-08-01T09:47:51Z</time>
      </trkpt>
      <trkpt lat="48.678" lon="-2.31451">
        <ele>61.18</ele>
        <time>2019-08-01T09:47:55Z</time>
      </trkpt>
      <trkpt lat="48.67813" lon="-2.31444">
        <ele>60.22</ele>
        <time>2019-08-01T09:48:06Z</time>
      </trkpt>
      <trkpt lat="48.67826" lon="-2.31438">
        <ele>60.22</ele>
        <time>2019-08-01T09:48:16Z</time>
      </trkpt>
      <trkpt lat="48.67832" lon="-2.31435">
        <ele>60.7</ele>
        <time>2019-08-01T09:48:22Z</time>
      </trkpt>
      <trkpt lat="48.67845" lon="-2.31434">
        <ele>60.7</ele>
        <time>2019-08-01T09:48:31Z</time>
      </trkpt>
      <trkpt lat="48.67856" lon="-2.31432">
        <ele>61.18</ele>
        <time>2019-08-01T09:48:39Z</time>
      </trkpt>
      <trkpt lat="48.67862" lon="-2.31427">
        <ele>61.66</ele>
        <time>2019-08-01T09:48:45Z</time>
      </trkpt>
      <trkpt lat="48.67873" lon="-2.31422">
        <ele>61.18</ele>
        <time>2019-08-01T09:48:53Z</time>
      </trkpt>
      <trkpt lat="48.67881" lon="-2.31416">
        <ele>61.18</ele>
        <time>2019-08-01T09:49:00Z</time>
      </trkpt>
      <trkpt lat="48.67888" lon="-2.31413">
        <ele>60.7</ele>
        <time>2019-08-01T09:49:07Z</time>
      </trkpt>
      <trkpt lat="48.67892" lon="-2.31409">
        <ele>60.22</ele>
        <time>2019-08-01T09:49:11Z</time>
      </trkpt>
      <trkpt lat="48.67903" lon="-2.31403">
        <ele>58.78</ele>
        <time>2019-08-01T09:49:20Z</time>
      </trkpt>
      <trkpt lat="48.6791" lon="-2.31398">
        <ele>58.3</ele>
        <time>2019-08-01T09:49:27Z</time>
      </trkpt>
      <trkpt lat="48.6792" lon="-2.31391">
        <ele>58.78</ele>
        <time>2019-08-01T09:49:35Z</time>
      </trkpt>
      <trkpt lat="48.67926" lon="-2.31387">
        <ele>59.74</ele>
        <time>2019-08-01T09:49:41Z</time>
      </trkpt>
      <trkpt lat="48.67933" lon="-2.31383">
        <ele>60.7</ele>
        <time>2019-08-01T09:49:48Z</time>
      </trkpt>
      <trkpt lat="48.67942" lon="-2.31377">
        <ele>61.18</ele>
        <time>2019-08-01T09:49:56Z</time>
      </trkpt>
      <trkpt lat="48.67949" lon="-2.31373">
        <ele>61.18</ele>
        <time>2019-08-01T09:50:02Z</time>
      </trkpt>
      <trkpt lat="48.67951" lon="-2.31371">
        <ele>61.66</ele>
        <time>2019-08-01T09:50:04Z</time>
      </trkpt>
      <trkpt lat="48.67957" lon="-2.31365">
        <ele>61.66</ele>
        <time>2019-08-01T09:50:10Z</time>
      </trkpt>
      <trkpt lat="48.67965" lon="-2.31354">
        <ele>61.66</ele>
        <time>2019-08-01T09:50:18Z</time>
      </trkpt>
      <trkpt lat="48.67971" lon="-2.31341">
        <ele>62.14</ele>
        <time>2019-08-01T09:50:26Z</time>
      </trkpt>
      <trkpt lat="48.67981" lon="-2.3134">
        <ele>63.1</ele>
        <time>2019-08-01T09:50:35Z</time>
      </trkpt>
      <trkpt lat="48.67993" lon="-2.31346">
        <ele>63.1</ele>
        <time>2019-08-01T09:50:45Z</time>
      </trkpt>
      <trkpt lat="48.68004" lon="-2.31355">
        <ele>62.62</ele>
        <time>2019-08-01T09:50:54Z</time>
      </trkpt>
      <trkpt lat="48.68011" lon="-2.31361">
        <ele>62.62</ele>
        <time>2019-08-01T09:51:01Z</time>
      </trkpt>
      <trkpt lat="48.68018" lon="-2.31361">
        <ele>62.62</ele>
        <time>2019-08-01T09:51:09Z</time>
      </trkpt>
      <trkpt lat="48.68019" lon="-2.31362">
        <ele>62.62</ele>
        <time>2019-08-01T09:51:10Z</time>
      </trkpt>
      <trkpt lat="48.68028" lon="-2.31367">
        <ele>63.1</ele>
        <time>2019-08-01T09:51:19Z</time>
      </trkpt>
      <trkpt lat="48.68036" lon="-2.31369">
        <ele>63.58</ele>
        <time>2019-08-01T09:51:27Z</time>
      </trkpt>
      <trkpt lat="48.68043" lon="-2.31373">
        <ele>64.55</ele>
        <time>2019-08-01T09:51:36Z</time>
      </trkpt>
      <trkpt lat="48.68046" lon="-2.31374">
        <ele>65.03</ele>
        <time>2019-08-01T09:51:39Z</time>
      </trkpt>
      <trkpt lat="48.68048" lon="-2.31374">
        <ele>65.03</ele>
        <time>2019-08-01T09:51:41Z</time>
      </trkpt>
      <trkpt lat="48.68051" lon="-2.31378">
        <ele>65.03</ele>
        <time>2019-08-01T09:51:45Z</time>
      </trkpt>
      <trkpt lat="48.6806" lon="-2.31384">
        <ele>65.51</ele>
        <time>2019-08-01T09:51:53Z</time>
      </trkpt>
      <trkpt lat="48.68062" lon="-2.31384">
        <ele>65.03</ele>
        <time>2019-08-01T09:51:55Z</time>
      </trkpt>
      <trkpt lat="48.68064" lon="-2.31385">
        <ele>65.51</ele>
        <time>2019-08-01T09:51:57Z</time>
      </trkpt>
      <trkpt lat="48.68073" lon="-2.31391">
        <ele>65.51</ele>
        <time>2019-08-01T09:52:05Z</time>
      </trkpt>
      <trkpt lat="48.68074" lon="-2.31392">
        <ele>65.51</ele>
        <time>2019-08-01T09:52:06Z</time>
      </trkpt>
      <trkpt lat="48.68079" lon="-2.31393">
        <ele>65.51</ele>
        <time>2019-08-01T09:52:10Z</time>
      </trkpt>
      <trkpt lat="48.68082" lon="-2.31394">
        <ele>65.51</ele>
        <time>2019-08-01T09:52:14Z</time>
      </trkpt>
      <trkpt lat="48.68094" lon="-2.31399">
        <ele>65.51</ele>
        <time>2019-08-01T09:52:23Z</time>
      </trkpt>
      <trkpt lat="48.68095" lon="-2.31399">
        <ele>65.99</ele>
        <time>2019-08-01T09:52:24Z</time>
      </trkpt>
      <trkpt lat="48.68105" lon="-2.31403">
        <ele>65.99</ele>
        <time>2019-08-01T09:52:33Z</time>
      </trkpt>
      <trkpt lat="48.68113" lon="-2.31405">
        <ele>66.47</ele>
        <time>2019-08-01T09:52:39Z</time>
      </trkpt>
      <trkpt lat="48.68123" lon="-2.3141">
        <ele>66.95</ele>
        <time>2019-08-01T09:52:49Z</time>
      </trkpt>
      <trkpt lat="48.68125" lon="-2.31412">
        <ele>66.47</ele>
        <time>2019-08-01T09:52:51Z</time>
      </trkpt>
      <trkpt lat="48.68131" lon="-2.31413">
        <ele>66.95</ele>
        <time>2019-08-01T09:52:56Z</time>
      </trkpt>
      <trkpt lat="48.68137" lon="-2.31414">
        <ele>66.47</ele>
        <time>2019-08-01T09:53:01Z</time>
      </trkpt>
      <trkpt lat="48.68147" lon="-2.31419">
        <ele>65.99</ele>
        <time>2019-08-01T09:53:10Z</time>
      </trkpt>
      <trkpt lat="48.68157" lon="-2.31423">
        <ele>65.99</ele>
        <time>2019-08-01T09:53:19Z</time>
      </trkpt>
      <trkpt lat="48.68157" lon="-2.31424">
        <ele>65.99</ele>
        <time>2019-08-01T09:53:26Z</time>
      </trkpt>
      <trkpt lat="48.68157" lon="-2.31424">
        <ele>65.99</ele>
        <time>2019-08-01T09:53:43Z</time>
      </trkpt>
      <trkpt lat="48.68157" lon="-2.31425">
        <ele>65.99</ele>
        <time>2019-08-01T09:53:47Z</time>
      </trkpt>
      <trkpt lat="48.68161" lon="-2.3143">
        <ele>65.99</ele>
        <time>2019-08-01T09:53:53Z</time>
      </trkpt>
      <trkpt lat="48.68164" lon="-2.31433">
        <ele>65.99</ele>
        <time>2019-08-01T09:53:56Z</time>
      </trkpt>
      <trkpt lat="48.68168" lon="-2.31438">
        <ele>65.51</ele>
        <time>2019-08-01T09:54:00Z</time>
      </trkpt>
      <trkpt lat="48.68182" lon="-2.31444">
        <ele>64.55</ele>
        <time>2019-08-01T09:54:09Z</time>
      </trkpt>
      <trkpt lat="48.68183" lon="-2.31445">
        <ele>64.55</ele>
        <time>2019-08-01T09:54:10Z</time>
      </trkpt>
      <trkpt lat="48.6819" lon="-2.31451">
        <ele>64.07</ele>
        <time>2019-08-01T09:54:15Z</time>
      </trkpt>
      <trkpt lat="48.68192" lon="-2.31453">
        <ele>63.1</ele>
        <time>2019-08-01T09:54:17Z</time>
      </trkpt>
      <trkpt lat="48.68198" lon="-2.31458">
        <ele>63.1</ele>
        <time>2019-08-01T09:54:21Z</time>
      </trkpt>
      <trkpt lat="48.68207" lon="-2.31464">
        <ele>62.14</ele>
        <time>2019-08-01T09:54:27Z</time>
      </trkpt>
      <trkpt lat="48.68219" lon="-2.31468">
        <ele>61.66</ele>
        <time>2019-08-01T09:54:36Z</time>
      </trkpt>
      <trkpt lat="48.68227" lon="-2.31477">
        <ele>61.18</ele>
        <time>2019-08-01T09:54:43Z</time>
      </trkpt>
      <trkpt lat="48.68228" lon="-2.3148">
        <ele>61.18</ele>
        <time>2019-08-01T09:54:48Z</time>
      </trkpt>
      <trkpt lat="48.68228" lon="-2.31481">
        <ele>60.7</ele>
        <time>2019-08-01T09:54:57Z</time>
      </trkpt>
      <trkpt lat="48.68229" lon="-2.31481">
        <ele>61.18</ele>
        <time>2019-08-01T09:55:13Z</time>
      </trkpt>
      <trkpt lat="48.68228" lon="-2.3148">
        <ele>61.18</ele>
        <time>2019-08-01T09:55:22Z</time>
      </trkpt>
      <trkpt lat="48.68237" lon="-2.31485">
        <ele>61.66</ele>
        <time>2019-08-01T09:55:28Z</time>
      </trkpt>
      <trkpt lat="48.68244" lon="-2.31492">
        <ele>61.66</ele>
        <time>2019-08-01T09:55:32Z</time>
      </trkpt>
      <trkpt lat="48.68253" lon="-2.31497">
        <ele>61.66</ele>
        <time>2019-08-01T09:55:36Z</time>
      </trkpt>
      <trkpt lat="48.68259" lon="-2.31502">
        <ele>61.66</ele>
        <time>2019-08-01T09:55:42Z</time>
      </trkpt>
      <trkpt lat="48.68268" lon="-2.31509">
        <ele>62.14</ele>
        <time>2019-08-01T09:55:50Z</time>
      </trkpt>
      <trkpt lat="48.6828" lon="-2.31518">
        <ele>62.62</ele>
        <time>2019-08-01T09:56:00Z</time>
      </trkpt>
      <trkpt lat="48.68288" lon="-2.31521">
        <ele>62.62</ele>
        <time>2019-08-01T09:56:07Z</time>
      </trkpt>
      <trkpt lat="48.68298" lon="-2.31524">
        <ele>62.62</ele>
        <time>2019-08-01T09:56:15Z</time>
      </trkpt>
      <trkpt lat="48.68308" lon="-2.31526">
        <ele>62.14</ele>
        <time>2019-08-01T09:56:23Z</time>
      </trkpt>
      <trkpt lat="48.68312" lon="-2.3153">
        <ele>62.62</ele>
        <time>2019-08-01T09:56:31Z</time>
      </trkpt>
      <trkpt lat="48.68314" lon="-2.31536">
        <ele>63.1</ele>
        <time>2019-08-01T09:56:36Z</time>
      </trkpt>
      <trkpt lat="48.68314" lon="-2.31547">
        <ele>63.58</ele>
        <time>2019-08-01T09:56:44Z</time>
      </trkpt>
      <trkpt lat="48.68315" lon="-2.31558">
        <ele>64.07</ele>
        <time>2019-08-01T09:56:51Z</time>
      </trkpt>
      <trkpt lat="48.68318" lon="-2.31569">
        <ele>64.07</ele>
        <time>2019-08-01T09:56:58Z</time>
      </trkpt>
      <trkpt lat="48.68319" lon="-2.31583">
        <ele>64.55</ele>
        <time>2019-08-01T09:57:06Z</time>
      </trkpt>
      <trkpt lat="48.6832" lon="-2.31597">
        <ele>64.55</ele>
        <time>2019-08-01T09:57:13Z</time>
      </trkpt>
      <trkpt lat="48.68321" lon="-2.31607">
        <ele>64.55</ele>
        <time>2019-08-01T09:57:19Z</time>
      </trkpt>
      <trkpt lat="48.68321" lon="-2.31615">
        <ele>64.07</ele>
        <time>2019-08-01T09:57:25Z</time>
      </trkpt>
      <trkpt lat="48.68319" lon="-2.3162">
        <ele>64.07</ele>
        <time>2019-08-01T09:57:29Z</time>
      </trkpt>
      <trkpt lat="48.68315" lon="-2.31634">
        <ele>63.58</ele>
        <time>2019-08-01T09:57:37Z</time>
      </trkpt>
      <trkpt lat="48.6831" lon="-2.31641">
        <ele>63.1</ele>
        <time>2019-08-01T09:57:42Z</time>
      </trkpt>
      <trkpt lat="48.68299" lon="-2.31653">
        <ele>63.1</ele>
        <time>2019-08-01T09:57:52Z</time>
      </trkpt>
      <trkpt lat="48.68298" lon="-2.31654">
        <ele>63.1</ele>
        <time>2019-08-01T09:57:53Z</time>
      </trkpt>
      <trkpt lat="48.68291" lon="-2.31667">
        <ele>63.58</ele>
        <time>2019-08-01T09:58:01Z</time>
      </trkpt>
      <trkpt lat="48.68285" lon="-2.3168">
        <ele>63.58</ele>
        <time>2019-08-01T09:58:09Z</time>
      </trkpt>
      <trkpt lat="48.68279" lon="-2.31695">
        <ele>63.1</ele>
        <time>2019-08-01T09:58:18Z</time>
      </trkpt>
      <trkpt lat="48.6828" lon="-2.3171">
        <ele>63.1</ele>
        <time>2019-08-01T09:58:26Z</time>
      </trkpt>
      <trkpt lat="48.68281" lon="-2.31711">
        <ele>63.1</ele>
        <time>2019-08-01T09:58:27Z</time>
      </trkpt>
      <trkpt lat="48.68287" lon="-2.3173">
        <ele>63.58</ele>
        <time>2019-08-01T09:58:37Z</time>
      </trkpt>
      <trkpt lat="48.68288" lon="-2.31736">
        <ele>63.58</ele>
        <time>2019-08-01T09:58:41Z</time>
      </trkpt>
      <trkpt lat="48.68295" lon="-2.31749">
        <ele>64.07</ele>
        <time>2019-08-01T09:58:49Z</time>
      </trkpt>
      <trkpt lat="48.683" lon="-2.31759">
        <ele>64.07</ele>
        <time>2019-08-01T09:58:57Z</time>
      </trkpt>
      <trkpt lat="48.68302" lon="-2.31764">
        <ele>64.55</ele>
        <time>2019-08-01T09:59:04Z</time>
      </trkpt>
      <trkpt lat="48.68301" lon="-2.31766">
        <ele>64.55</ele>
        <time>2019-08-01T09:59:17Z</time>
      </trkpt>
      <trkpt lat="48.68304" lon="-2.3177">
        <ele>64.55</ele>
        <time>2019-08-01T09:59:24Z</time>
      </trkpt>
      <trkpt lat="48.68305" lon="-2.31771">
        <ele>64.55</ele>
        <time>2019-08-01T09:59:25Z</time>
      </trkpt>
      <trkpt lat="48.68312" lon="-2.31785">
        <ele>65.03</ele>
        <time>2019-08-01T09:59:33Z</time>
      </trkpt>
      <trkpt lat="48.68321" lon="-2.31804">
        <ele>65.51</ele>
        <time>2019-08-01T09:59:42Z</time>
      </trkpt>
      <trkpt lat="48.68324" lon="-2.3181">
        <ele>65.51</ele>
        <time>2019-08-01T09:59:45Z</time>
      </trkpt>
      <trkpt lat="48.6833" lon="-2.31825">
        <ele>66.47</ele>
        <time>2019-08-01T09:59:52Z</time>
      </trkpt>
      <trkpt lat="48.68333" lon="-2.31834">
        <ele>66.95</ele>
        <time>2019-08-01T09:59:56Z</time>
      </trkpt>
      <trkpt lat="48.68337" lon="-2.31855">
        <ele>67.91</ele>
        <time>2019-08-01T10:00:06Z</time>
      </trkpt>
      <trkpt lat="48.68343" lon="-2.31869">
        <ele>67.91</ele>
        <time>2019-08-01T10:00:14Z</time>
      </trkpt>
      <trkpt lat="48.68352" lon="-2.31871">
        <ele>68.39</ele>
        <time>2019-08-01T10:00:21Z</time>
      </trkpt>
      <trkpt lat="48.68352" lon="-2.31871">
        <ele>68.39</ele>
        <time>2019-08-01T10:00:28Z</time>
      </trkpt>
      <trkpt lat="48.68352" lon="-2.31874">
        <ele>68.39</ele>
        <time>2019-08-01T10:00:34Z</time>
      </trkpt>
      <trkpt lat="48.68352" lon="-2.31874">
        <ele>67.91</ele>
        <time>2019-08-01T10:00:41Z</time>
      </trkpt>
      <trkpt lat="48.68352" lon="-2.31873">
        <ele>68.39</ele>
        <time>2019-08-01T10:00:49Z</time>
      </trkpt>
      <trkpt lat="48.68351" lon="-2.31873">
        <ele>68.39</ele>
        <time>2019-08-01T10:00:58Z</time>
      </trkpt>
      <trkpt lat="48.68352" lon="-2.31873">
        <ele>67.91</ele>
        <time>2019-08-01T10:01:10Z</time>
      </trkpt>
      <trkpt lat="48.68351" lon="-2.31874">
        <ele>68.39</ele>
        <time>2019-08-01T10:01:17Z</time>
      </trkpt>
      <trkpt lat="48.68354" lon="-2.31874">
        <ele>68.39</ele>
        <time>2019-08-01T10:01:23Z</time>
      </trkpt>
      <trkpt lat="48.68359" lon="-2.31874">
        <ele>68.39</ele>
        <time>2019-08-01T10:01:27Z</time>
      </trkpt>
      <trkpt lat="48.68365" lon="-2.31874">
        <ele>68.87</ele>
        <time>2019-08-01T10:01:36Z</time>
      </trkpt>
      <trkpt lat="48.68365" lon="-2.31874">
        <ele>68.87</ele>
        <time>2019-08-01T10:01:52Z</time>
      </trkpt>
      <trkpt lat="48.68365" lon="-2.31874">
        <ele>68.87</ele>
        <time>2019-08-01T10:02:03Z</time>
      </trkpt>
      <trkpt lat="48.68365" lon="-2.31874">
        <ele>69.35</ele>
        <time>2019-08-01T10:02:09Z</time>
      </trkpt>
      <trkpt lat="48.68365" lon="-2.31874">
        <ele>68.87</ele>
        <time>2019-08-01T10:02:24Z</time>
      </trkpt>
      <trkpt lat="48.68365" lon="-2.31874">
        <ele>68.87</ele>
        <time>2019-08-01T10:02:32Z</time>
      </trkpt>
      <trkpt lat="48.68367" lon="-2.31878">
        <ele>68.87</ele>
        <time>2019-08-01T10:02:39Z</time>
      </trkpt>
      <trkpt lat="48.68368" lon="-2.31879">
        <ele>68.87</ele>
        <time>2019-08-01T10:02:40Z</time>
      </trkpt>
      <trkpt lat="48.68371" lon="-2.31884">
        <ele>69.35</ele>
        <time>2019-08-01T10:02:45Z</time>
      </trkpt>
      <trkpt lat="48.68378" lon="-2.31886">
        <ele>69.35</ele>
        <time>2019-08-01T10:02:51Z</time>
      </trkpt>
      <trkpt lat="48.6838" lon="-2.31887">
        <ele>69.35</ele>
        <time>2019-08-01T10:02:53Z</time>
      </trkpt>
      <trkpt lat="48.68383" lon="-2.31886">
        <ele>69.35</ele>
        <time>2019-08-01T10:02:56Z</time>
      </trkpt>
      <trkpt lat="48.68391" lon="-2.31887">
        <ele>69.35</ele>
        <time>2019-08-01T10:03:04Z</time>
      </trkpt>
      <trkpt lat="48.68396" lon="-2.31889">
        <ele>69.83</ele>
        <time>2019-08-01T10:03:10Z</time>
      </trkpt>
      <trkpt lat="48.68403" lon="-2.3189">
        <ele>69.83</ele>
        <time>2019-08-01T10:03:17Z</time>
      </trkpt>
      <trkpt lat="48.68407" lon="-2.3189">
        <ele>70.31</ele>
        <time>2019-08-01T10:03:26Z</time>
      </trkpt>
      <trkpt lat="48.68409" lon="-2.3189">
        <ele>70.31</ele>
        <time>2019-08-01T10:03:36Z</time>
      </trkpt>
      <trkpt lat="48.6841" lon="-2.31889">
        <ele>70.31</ele>
        <time>2019-08-01T10:03:45Z</time>
      </trkpt>
      <trkpt lat="48.68412" lon="-2.31892">
        <ele>70.31</ele>
        <time>2019-08-01T10:03:56Z</time>
      </trkpt>
      <trkpt lat="48.68412" lon="-2.31887">
        <ele>70.31</ele>
        <time>2019-08-01T10:04:06Z</time>
      </trkpt>
      <trkpt lat="48.68412" lon="-2.31887">
        <ele>70.31</ele>
        <time>2019-08-01T10:04:14Z</time>
      </trkpt>
      <trkpt lat="48.68412" lon="-2.31885">
        <ele>70.31</ele>
        <time>2019-08-01T10:04:27Z</time>
      </trkpt>
      <trkpt lat="48.68413" lon="-2.31884">
        <ele>70.31</ele>
        <time>2019-08-01T10:04:41Z</time>
      </trkpt>
      <trkpt lat="48.68413" lon="-2.31887">
        <ele>70.31</ele>
        <time>2019-08-01T10:04:53Z</time>
      </trkpt>
      <trkpt lat="48.68414" lon="-2.31883">
        <ele>70.79</ele>
        <time>2019-08-01T10:05:04Z</time>
      </trkpt>
      <trkpt lat="48.68416" lon="-2.31877">
        <ele>70.79</ele>
        <time>2019-08-01T10:05:16Z</time>
      </trkpt>
      <trkpt lat="48.68416" lon="-2.31875">
        <ele>70.79</ele>
        <time>2019-08-01T10:05:29Z</time>
      </trkpt>
      <trkpt lat="48.68417" lon="-2.31873">
        <ele>70.79</ele>
        <time>2019-08-01T10:05:42Z</time>
      </trkpt>
      <trkpt lat="48.68417" lon="-2.31872">
        <ele>70.79</ele>
        <time>2019-08-01T10:05:51Z</time>
      </trkpt>
      <trkpt lat="48.68419" lon="-2.3187">
        <ele>70.79</ele>
        <time>2019-08-01T10:05:56Z</time>
      </trkpt>
      <trkpt lat="48.68426" lon="-2.31845">
        <ele>70.79</ele>
        <time>2019-08-01T10:06:06Z</time>
      </trkpt>
      <trkpt lat="48.68429" lon="-2.31834">
        <ele>70.79</ele>
        <time>2019-08-01T10:06:17Z</time>
      </trkpt>
      <trkpt lat="48.68429" lon="-2.3184">
        <ele>70.31</ele>
        <time>2019-08-01T10:06:26Z</time>
      </trkpt>
      <trkpt lat="48.68429" lon="-2.31842">
        <ele>70.79</ele>
        <time>2019-08-01T10:06:39Z</time>
      </trkpt>
      <trkpt lat="48.6843" lon="-2.3184">
        <ele>70.79</ele>
        <time>2019-08-01T10:06:48Z</time>
      </trkpt>
      <trkpt lat="48.6843" lon="-2.3184">
        <ele>70.79</ele>
        <time>2019-08-01T10:06:57Z</time>
      </trkpt>
      <trkpt lat="48.68431" lon="-2.3184">
        <ele>70.79</ele>
        <time>2019-08-01T10:07:08Z</time>
      </trkpt>
      <trkpt lat="48.68432" lon="-2.31834">
        <ele>71.76</ele>
        <time>2019-08-01T10:07:17Z</time>
      </trkpt>
      <trkpt lat="48.68429" lon="-2.3182">
        <ele>72.24</ele>
        <time>2019-08-01T10:07:28Z</time>
      </trkpt>
      <trkpt lat="48.68424" lon="-2.31809">
        <ele>71.76</ele>
        <time>2019-08-01T10:07:38Z</time>
      </trkpt>
      <trkpt lat="48.68423" lon="-2.31808">
        <ele>76.56</ele>
        <time>2019-08-01T10:07:39Z</time>
      </trkpt>
      <trkpt lat="48.68422" lon="-2.31807">
        <ele>75.12</ele>
        <time>2019-08-01T10:07:40Z</time>
      </trkpt>
      <trkpt lat="48.68416" lon="-2.31794">
        <ele>74.64</ele>
        <time>2019-08-01T10:07:50Z</time>
      </trkpt>
      <trkpt lat="48.68415" lon="-2.31904">
        <ele>68.39</ele>
        <time>2019-08-01T10:21:02Z</time>
      </trkpt>
      <trkpt lat="48.68425" lon="-2.31904">
        <ele>70.31</ele>
        <time>2019-08-01T10:21:11Z</time>
      </trkpt>
      <trkpt lat="48.68434" lon="-2.31898">
        <ele>69.83</ele>
        <time>2019-08-01T10:21:18Z</time>
      </trkpt>
      <trkpt lat="48.68441" lon="-2.31892">
        <ele>68.87</ele>
        <time>2019-08-01T10:21:24Z</time>
      </trkpt>
      <trkpt lat="48.68451" lon="-2.31884">
        <ele>67.91</ele>
        <time>2019-08-01T10:21:32Z</time>
      </trkpt>
      <trkpt lat="48.68458" lon="-2.31877">
        <ele>67.43</ele>
        <time>2019-08-01T10:21:38Z</time>
      </trkpt>
      <trkpt lat="48.68467" lon="-2.31868">
        <ele>66.95</ele>
        <time>2019-08-01T10:21:45Z</time>
      </trkpt>
      <trkpt lat="48.68475" lon="-2.31861">
        <ele>66.47</ele>
        <time>2019-08-01T10:21:52Z</time>
      </trkpt>
      <trkpt lat="48.68486" lon="-2.31852">
        <ele>66.47</ele>
        <time>2019-08-01T10:22:00Z</time>
      </trkpt>
      <trkpt lat="48.68496" lon="-2.3184">
        <ele>66.47</ele>
        <time>2019-08-01T10:22:09Z</time>
      </trkpt>
      <trkpt lat="48.68504" lon="-2.31829">
        <ele>65.51</ele>
        <time>2019-08-01T10:22:17Z</time>
      </trkpt>
      <trkpt lat="48.68513" lon="-2.31819">
        <ele>65.03</ele>
        <time>2019-08-01T10:22:24Z</time>
      </trkpt>
      <trkpt lat="48.68522" lon="-2.3181">
        <ele>64.07</ele>
        <time>2019-08-01T10:22:31Z</time>
      </trkpt>
      <trkpt lat="48.68525" lon="-2.31802">
        <ele>64.07</ele>
        <time>2019-08-01T10:22:36Z</time>
      </trkpt>
      <trkpt lat="48.6853" lon="-2.31798">
        <ele>63.58</ele>
        <time>2019-08-01T10:22:40Z</time>
      </trkpt>
      <trkpt lat="48.6854" lon="-2.31786">
        <ele>63.1</ele>
        <time>2019-08-01T10:22:48Z</time>
      </trkpt>
      <trkpt lat="48.68552" lon="-2.31777">
        <ele>62.62</ele>
        <time>2019-08-01T10:22:56Z</time>
      </trkpt>
      <trkpt lat="48.68562" lon="-2.31771">
        <ele>62.62</ele>
        <time>2019-08-01T10:23:03Z</time>
      </trkpt>
      <trkpt lat="48.6857" lon="-2.3176">
        <ele>62.62</ele>
        <time>2019-08-01T10:23:11Z</time>
      </trkpt>
      <trkpt lat="48.6858" lon="-2.31751">
        <ele>62.14</ele>
        <time>2019-08-01T10:23:18Z</time>
      </trkpt>
      <trkpt lat="48.68586" lon="-2.31745">
        <ele>62.14</ele>
        <time>2019-08-01T10:23:24Z</time>
      </trkpt>
      <trkpt lat="48.68588" lon="-2.31744">
        <ele>62.62</ele>
        <time>2019-08-01T10:23:26Z</time>
      </trkpt>
      <trkpt lat="48.68598" lon="-2.31747">
        <ele>62.14</ele>
        <time>2019-08-01T10:23:33Z</time>
      </trkpt>
      <trkpt lat="48.68601" lon="-2.31748">
        <ele>62.14</ele>
        <time>2019-08-01T10:23:36Z</time>
      </trkpt>
      <trkpt lat="48.6861" lon="-2.31748">
        <ele>62.14</ele>
        <time>2019-08-01T10:23:42Z</time>
      </trkpt>
      <trkpt lat="48.68614" lon="-2.31749">
        <ele>62.14</ele>
        <time>2019-08-01T10:23:46Z</time>
      </trkpt>
      <trkpt lat="48.68621" lon="-2.31754">
        <ele>62.14</ele>
        <time>2019-08-01T10:23:53Z</time>
      </trkpt>
      <trkpt lat="48.68624" lon="-2.31753">
        <ele>62.14</ele>
        <time>2019-08-01T10:23:59Z</time>
      </trkpt>
      <trkpt lat="48.68624" lon="-2.31754">
        <ele>62.14</ele>
        <time>2019-08-01T10:24:16Z</time>
      </trkpt>
      <trkpt lat="48.68623" lon="-2.31754">
        <ele>62.14</ele>
        <time>2019-08-01T10:24:18Z</time>
      </trkpt>
      <trkpt lat="48.68633" lon="-2.31755">
        <ele>62.14</ele>
        <time>2019-08-01T10:24:25Z</time>
      </trkpt>
      <trkpt lat="48.68644" lon="-2.31756">
        <ele>61.66</ele>
        <time>2019-08-01T10:24:32Z</time>
      </trkpt>
      <trkpt lat="48.68656" lon="-2.31758">
        <ele>61.66</ele>
        <time>2019-08-01T10:24:40Z</time>
      </trkpt>
      <trkpt lat="48.68668" lon="-2.31762">
        <ele>61.18</ele>
        <time>2019-08-01T10:24:48Z</time>
      </trkpt>
      <trkpt lat="48.68673" lon="-2.31764">
        <ele>61.18</ele>
        <time>2019-08-01T10:24:51Z</time>
      </trkpt>
      <trkpt lat="48.68681" lon="-2.31768">
        <ele>61.18</ele>
        <time>2019-08-01T10:24:56Z</time>
      </trkpt>
      <trkpt lat="48.68694" lon="-2.31773">
        <ele>60.7</ele>
        <time>2019-08-01T10:25:04Z</time>
      </trkpt>
      <trkpt lat="48.68706" lon="-2.31774">
        <ele>60.22</ele>
        <time>2019-08-01T10:25:11Z</time>
      </trkpt>
      <trkpt lat="48.68718" lon="-2.31776">
        <ele>59.74</ele>
        <time>2019-08-01T10:25:18Z</time>
      </trkpt>
      <trkpt lat="48.68724" lon="-2.31778">
        <ele>59.74</ele>
        <time>2019-08-01T10:25:23Z</time>
      </trkpt>
      <trkpt lat="48.68732" lon="-2.31779">
        <ele>59.74</ele>
        <time>2019-08-01T10:25:28Z</time>
      </trkpt>
      <trkpt lat="48.6874" lon="-2.3178">
        <ele>59.74</ele>
        <time>2019-08-01T10:25:33Z</time>
      </trkpt>
      <trkpt lat="48.68752" lon="-2.31781">
        <ele>59.74</ele>
        <time>2019-08-01T10:25:43Z</time>
      </trkpt>
      <trkpt lat="48.68756" lon="-2.31782">
        <ele>59.26</ele>
        <time>2019-08-01T10:25:49Z</time>
      </trkpt>
      <trkpt lat="48.6876" lon="-2.31784">
        <ele>59.74</ele>
        <time>2019-08-01T10:25:56Z</time>
      </trkpt>
      <trkpt lat="48.68761" lon="-2.31783">
        <ele>59.74</ele>
        <time>2019-08-01T10:26:03Z</time>
      </trkpt>
      <trkpt lat="48.68764" lon="-2.31781">
        <ele>58.78</ele>
        <time>2019-08-01T10:26:07Z</time>
      </trkpt>
      <trkpt lat="48.68771" lon="-2.31774">
        <ele>58.78</ele>
        <time>2019-08-01T10:26:15Z</time>
      </trkpt>
      <trkpt lat="48.68776" lon="-2.31779">
        <ele>57.34</ele>
        <time>2019-08-01T10:26:23Z</time>
      </trkpt>
      <trkpt lat="48.68777" lon="-2.3178">
        <ele>57.34</ele>
        <time>2019-08-01T10:26:32Z</time>
      </trkpt>
      <trkpt lat="48.68772" lon="-2.31779">
        <ele>57.34</ele>
        <time>2019-08-01T10:26:44Z</time>
      </trkpt>
      <trkpt lat="48.68772" lon="-2.31779">
        <ele>57.34</ele>
        <time>2019-08-01T10:26:55Z</time>
      </trkpt>
      <trkpt lat="48.68771" lon="-2.3178">
        <ele>57.82</ele>
        <time>2019-08-01T10:27:06Z</time>
      </trkpt>
      <trkpt lat="48.68771" lon="-2.31779">
        <ele>57.82</ele>
        <time>2019-08-01T10:27:12Z</time>
      </trkpt>
      <trkpt lat="48.68771" lon="-2.31779">
        <ele>58.78</ele>
        <time>2019-08-01T10:27:13Z</time>
      </trkpt>
      <trkpt lat="48.68768" lon="-2.31778">
        <ele>58.3</ele>
        <time>2019-08-01T10:27:16Z</time>
      </trkpt>
      <trkpt lat="48.6877" lon="-2.31766">
        <ele>59.26</ele>
        <time>2019-08-01T10:27:24Z</time>
      </trkpt>
      <trkpt lat="48.68772" lon="-2.31763">
        <ele>58.3</ele>
        <time>2019-08-01T10:27:26Z</time>
      </trkpt>
      <trkpt lat="48.6878" lon="-2.3176">
        <ele>58.3</ele>
        <time>2019-08-01T10:27:31Z</time>
      </trkpt>
      <trkpt lat="48.68783" lon="-2.31759">
        <ele>58.3</ele>
        <time>2019-08-01T10:27:34Z</time>
      </trkpt>
      <trkpt lat="48.68788" lon="-2.31753">
        <ele>58.3</ele>
        <time>2019-08-01T10:27:42Z</time>
      </trkpt>
      <trkpt lat="48.68789" lon="-2.31752">
        <ele>58.3</ele>
        <time>2019-08-01T10:27:50Z</time>
      </trkpt>
      <trkpt lat="48.68789" lon="-2.31752">
        <ele>58.78</ele>
        <time>2019-08-01T10:27:51Z</time>
      </trkpt>
      <trkpt lat="48.68783" lon="-2.31752">
        <ele>59.26</ele>
        <time>2019-08-01T10:27:58Z</time>
      </trkpt>
      <trkpt lat="48.68779" lon="-2.31749">
        <ele>58.78</ele>
        <time>2019-08-01T10:28:04Z</time>
      </trkpt>
      <trkpt lat="48.68777" lon="-2.31748">
        <ele>58.78</ele>
        <time>2019-08-01T10:28:06Z</time>
      </trkpt>
      <trkpt lat="48.68772" lon="-2.31747">
        <ele>58.3</ele>
        <time>2019-08-01T10:28:12Z</time>
      </trkpt>
      <trkpt lat="48.68771" lon="-2.31747">
        <ele>59.26</ele>
        <time>2019-08-01T10:28:19Z</time>
      </trkpt>
      <trkpt lat="48.68769" lon="-2.3174">
        <ele>59.26</ele>
        <time>2019-08-01T10:28:26Z</time>
      </trkpt>
      <trkpt lat="48.68767" lon="-2.31739">
        <ele>59.74</ele>
        <time>2019-08-01T10:28:32Z</time>
      </trkpt>
      <trkpt lat="48.68761" lon="-2.31729">
        <ele>60.7</ele>
        <time>2019-08-01T10:28:39Z</time>
      </trkpt>
      <trkpt lat="48.68756" lon="-2.3172">
        <ele>60.22</ele>
        <time>2019-08-01T10:28:45Z</time>
      </trkpt>
      <trkpt lat="48.68752" lon="-2.3171">
        <ele>60.7</ele>
        <time>2019-08-01T10:28:52Z</time>
      </trkpt>
      <trkpt lat="48.68744" lon="-2.31704">
        <ele>61.18</ele>
        <time>2019-08-01T10:29:01Z</time>
      </trkpt>
      <trkpt lat="48.68737" lon="-2.31698">
        <ele>62.14</ele>
        <time>2019-08-01T10:29:08Z</time>
      </trkpt>
      <trkpt lat="48.6873" lon="-2.31696">
        <ele>62.62</ele>
        <time>2019-08-01T10:29:16Z</time>
      </trkpt>
      <trkpt lat="48.68725" lon="-2.31693">
        <ele>62.62</ele>
        <time>2019-08-01T10:29:21Z</time>
      </trkpt>
      <trkpt lat="48.68722" lon="-2.31691">
        <ele>62.14</ele>
        <time>2019-08-01T10:29:24Z</time>
      </trkpt>
      <trkpt lat="48.68718" lon="-2.31689">
        <ele>62.14</ele>
        <time>2019-08-01T10:29:27Z</time>
      </trkpt>
      <trkpt lat="48.68715" lon="-2.31689">
        <ele>62.62</ele>
        <time>2019-08-01T10:29:30Z</time>
      </trkpt>
      <trkpt lat="48.68709" lon="-2.31685">
        <ele>62.62</ele>
        <time>2019-08-01T10:29:36Z</time>
      </trkpt>
      <trkpt lat="48.68701" lon="-2.31676">
        <ele>62.62</ele>
        <time>2019-08-01T10:29:44Z</time>
      </trkpt>
      <trkpt lat="48.68696" lon="-2.31673">
        <ele>62.62</ele>
        <time>2019-08-01T10:29:49Z</time>
      </trkpt>
      <trkpt lat="48.68694" lon="-2.31672">
        <ele>62.62</ele>
        <time>2019-08-01T10:29:51Z</time>
      </trkpt>
      <trkpt lat="48.68686" lon="-2.31668">
        <ele>62.62</ele>
        <time>2019-08-01T10:29:58Z</time>
      </trkpt>
      <trkpt lat="48.68681" lon="-2.31666">
        <ele>62.14</ele>
        <time>2019-08-01T10:30:03Z</time>
      </trkpt>
      <trkpt lat="48.68675" lon="-2.31666">
        <ele>62.14</ele>
        <time>2019-08-01T10:30:08Z</time>
      </trkpt>
      <trkpt lat="48.68666" lon="-2.31663">
        <ele>61.66</ele>
        <time>2019-08-01T10:30:16Z</time>
      </trkpt>
      <trkpt lat="48.68659" lon="-2.31661">
        <ele>61.66</ele>
        <time>2019-08-01T10:30:23Z</time>
      </trkpt>
      <trkpt lat="48.68657" lon="-2.3166">
        <ele>61.18</ele>
        <time>2019-08-01T10:30:34Z</time>
      </trkpt>
      <trkpt lat="48.68656" lon="-2.31659">
        <ele>61.18</ele>
        <time>2019-08-01T10:30:37Z</time>
      </trkpt>
      <trkpt lat="48.68652" lon="-2.31647">
        <ele>60.22</ele>
        <time>2019-08-01T10:30:44Z</time>
      </trkpt>
      <trkpt lat="48.68649" lon="-2.31643">
        <ele>60.22</ele>
        <time>2019-08-01T10:30:51Z</time>
      </trkpt>
      <trkpt lat="48.68648" lon="-2.31643">
        <ele>60.22</ele>
        <time>2019-08-01T10:30:53Z</time>
      </trkpt>
      <trkpt lat="48.68646" lon="-2.31641">
        <ele>59.26</ele>
        <time>2019-08-01T10:31:00Z</time>
      </trkpt>
      <trkpt lat="48.68646" lon="-2.31643">
        <ele>59.26</ele>
        <time>2019-08-01T10:31:12Z</time>
      </trkpt>
      <trkpt lat="48.68645" lon="-2.31643">
        <ele>59.74</ele>
        <time>2019-08-01T10:31:19Z</time>
      </trkpt>
      <trkpt lat="48.68643" lon="-2.31645">
        <ele>60.22</ele>
        <time>2019-08-01T10:31:25Z</time>
      </trkpt>
      <trkpt lat="48.68635" lon="-2.31645">
        <ele>60.22</ele>
        <time>2019-08-01T10:31:31Z</time>
      </trkpt>
      <trkpt lat="48.68628" lon="-2.31646">
        <ele>60.22</ele>
        <time>2019-08-01T10:31:36Z</time>
      </trkpt>
      <trkpt lat="48.6862" lon="-2.31643">
        <ele>59.74</ele>
        <time>2019-08-01T10:31:43Z</time>
      </trkpt>
      <trkpt lat="48.68616" lon="-2.31645">
        <ele>59.74</ele>
        <time>2019-08-01T10:31:47Z</time>
      </trkpt>
      <trkpt lat="48.68606" lon="-2.31648">
        <ele>59.74</ele>
        <time>2019-08-01T10:31:54Z</time>
      </trkpt>
      <trkpt lat="48.68601" lon="-2.31651">
        <ele>59.74</ele>
        <time>2019-08-01T10:31:59Z</time>
      </trkpt>
      <trkpt lat="48.68598" lon="-2.31652">
        <ele>60.22</ele>
        <time>2019-08-01T10:32:02Z</time>
      </trkpt>
      <trkpt lat="48.68587" lon="-2.31654">
        <ele>59.74</ele>
        <time>2019-08-01T10:32:11Z</time>
      </trkpt>
      <trkpt lat="48.68581" lon="-2.3166">
        <ele>59.74</ele>
        <time>2019-08-01T10:32:18Z</time>
      </trkpt>
      <trkpt lat="48.68576" lon="-2.31669">
        <ele>60.7</ele>
        <time>2019-08-01T10:32:24Z</time>
      </trkpt>
      <trkpt lat="48.68568" lon="-2.31674">
        <ele>61.66</ele>
        <time>2019-08-01T10:32:31Z</time>
      </trkpt>
      <trkpt lat="48.68563" lon="-2.31672">
        <ele>61.66</ele>
        <time>2019-08-01T10:32:35Z</time>
      </trkpt>
      <trkpt lat="48.68553" lon="-2.31665">
        <ele>61.18</ele>
        <time>2019-08-01T10:32:44Z</time>
      </trkpt>
      <trkpt lat="48.68551" lon="-2.31663">
        <ele>61.18</ele>
        <time>2019-08-01T10:32:47Z</time>
      </trkpt>
      <trkpt lat="48.68547" lon="-2.3166">
        <ele>60.22</ele>
        <time>2019-08-01T10:32:50Z</time>
      </trkpt>
      <trkpt lat="48.68545" lon="-2.31657">
        <ele>61.66</ele>
        <time>2019-08-01T10:32:53Z</time>
      </trkpt>
      <trkpt lat="48.68542" lon="-2.31649">
        <ele>60.7</ele>
        <time>2019-08-01T10:33:01Z</time>
      </trkpt>
      <trkpt lat="48.68541" lon="-2.3165">
        <ele>60.7</ele>
        <time>2019-08-01T10:33:10Z</time>
      </trkpt>
      <trkpt lat="48.68541" lon="-2.3165">
        <ele>60.7</ele>
        <time>2019-08-01T10:33:22Z</time>
      </trkpt>
      <trkpt lat="48.68541" lon="-2.3165">
        <ele>60.7</ele>
        <time>2019-08-01T10:33:32Z</time>
      </trkpt>
      <trkpt lat="48.68541" lon="-2.3165">
        <ele>60.7</ele>
        <time>2019-08-01T10:33:36Z</time>
      </trkpt>
      <trkpt lat="48.68539" lon="-2.31646">
        <ele>60.22</ele>
        <time>2019-08-01T10:33:39Z</time>
      </trkpt>
      <trkpt lat="48.68534" lon="-2.31642">
        <ele>60.22</ele>
        <time>2019-08-01T10:33:44Z</time>
      </trkpt>
      <trkpt lat="48.6853" lon="-2.3164">
        <ele>59.74</ele>
        <time>2019-08-01T10:33:48Z</time>
      </trkpt>
      <trkpt lat="48.68526" lon="-2.31638">
        <ele>59.74</ele>
        <time>2019-08-01T10:33:52Z</time>
      </trkpt>
      <trkpt lat="48.68524" lon="-2.31638">
        <ele>59.74</ele>
        <time>2019-08-01T10:33:54Z</time>
      </trkpt>
      <trkpt lat="48.68517" lon="-2.3163">
        <ele>60.22</ele>
        <time>2019-08-01T10:34:02Z</time>
      </trkpt>
      <trkpt lat="48.68512" lon="-2.31622">
        <ele>59.26</ele>
        <time>2019-08-01T10:34:10Z</time>
      </trkpt>
      <trkpt lat="48.68511" lon="-2.31621">
        <ele>59.74</ele>
        <time>2019-08-01T10:34:19Z</time>
      </trkpt>
      <trkpt lat="48.68511" lon="-2.3162">
        <ele>59.74</ele>
        <time>2019-08-01T10:34:28Z</time>
      </trkpt>
      <trkpt lat="48.68512" lon="-2.3162">
        <ele>59.74</ele>
        <time>2019-08-01T10:34:37Z</time>
      </trkpt>
      <trkpt lat="48.68506" lon="-2.31613">
        <ele>59.26</ele>
        <time>2019-08-01T10:34:44Z</time>
      </trkpt>
      <trkpt lat="48.68504" lon="-2.31609">
        <ele>59.74</ele>
        <time>2019-08-01T10:34:47Z</time>
      </trkpt>
      <trkpt lat="48.68499" lon="-2.316">
        <ele>59.26</ele>
        <time>2019-08-01T10:34:54Z</time>
      </trkpt>
      <trkpt lat="48.68497" lon="-2.31596">
        <ele>59.26</ele>
        <time>2019-08-01T10:34:57Z</time>
      </trkpt>
      <trkpt lat="48.68494" lon="-2.31589">
        <ele>59.26</ele>
        <time>2019-08-01T10:35:02Z</time>
      </trkpt>
      <trkpt lat="48.6849" lon="-2.31585">
        <ele>59.26</ele>
        <time>2019-08-01T10:35:08Z</time>
      </trkpt>
      <trkpt lat="48.68487" lon="-2.31582">
        <ele>57.82</ele>
        <time>2019-08-01T10:35:11Z</time>
      </trkpt>
      <trkpt lat="48.68481" lon="-2.31578">
        <ele>58.3</ele>
        <time>2019-08-01T10:35:16Z</time>
      </trkpt>
      <trkpt lat="48.68481" lon="-2.31577">
        <ele>58.78</ele>
        <time>2019-08-01T10:35:19Z</time>
      </trkpt>
      <trkpt lat="48.68478" lon="-2.31572">
        <ele>58.78</ele>
        <time>2019-08-01T10:35:24Z</time>
      </trkpt>
      <trkpt lat="48.68475" lon="-2.31569">
        <ele>58.78</ele>
        <time>2019-08-01T10:35:27Z</time>
      </trkpt>
      <trkpt lat="48.68472" lon="-2.31565">
        <ele>58.3</ele>
        <time>2019-08-01T10:35:34Z</time>
      </trkpt>
      <trkpt lat="48.68471" lon="-2.31556">
        <ele>57.82</ele>
        <time>2019-08-01T10:35:42Z</time>
      </trkpt>
      <trkpt lat="48.6847" lon="-2.31552">
        <ele>57.82</ele>
        <time>2019-08-01T10:35:58Z</time>
      </trkpt>
      <trkpt lat="48.68469" lon="-2.31551">
        <ele>58.3</ele>
        <time>2019-08-01T10:36:08Z</time>
      </trkpt>
      <trkpt lat="48.68469" lon="-2.31553">
        <ele>58.78</ele>
        <time>2019-08-01T10:36:11Z</time>
      </trkpt>
      <trkpt lat="48.68468" lon="-2.31553">
        <ele>58.3</ele>
        <time>2019-08-01T10:36:13Z</time>
      </trkpt>
      <trkpt lat="48.68462" lon="-2.31544">
        <ele>58.3</ele>
        <time>2019-08-01T10:36:19Z</time>
      </trkpt>
      <trkpt lat="48.6846" lon="-2.31542">
        <ele>58.3</ele>
        <time>2019-08-01T10:36:21Z</time>
      </trkpt>
      <trkpt lat="48.68448" lon="-2.31533">
        <ele>58.78</ele>
        <time>2019-08-01T10:36:30Z</time>
      </trkpt>
      <trkpt lat="48.68442" lon="-2.31532">
        <ele>58.78</ele>
        <time>2019-08-01T10:36:35Z</time>
      </trkpt>
      <trkpt lat="48.68439" lon="-2.31532">
        <ele>59.26</ele>
        <time>2019-08-01T10:36:37Z</time>
      </trkpt>
      <trkpt lat="48.6843" lon="-2.31532">
        <ele>60.22</ele>
        <time>2019-08-01T10:36:43Z</time>
      </trkpt>
      <trkpt lat="48.68427" lon="-2.31532">
        <ele>60.22</ele>
        <time>2019-08-01T10:36:45Z</time>
      </trkpt>
      <trkpt lat="48.68417" lon="-2.31534">
        <ele>60.7</ele>
        <time>2019-08-01T10:36:51Z</time>
      </trkpt>
      <trkpt lat="48.68412" lon="-2.31533">
        <ele>60.7</ele>
        <time>2019-08-01T10:36:54Z</time>
      </trkpt>
      <trkpt lat="48.68404" lon="-2.3153">
        <ele>61.18</ele>
        <time>2019-08-01T10:36:59Z</time>
      </trkpt>
      <trkpt lat="48.68402" lon="-2.3153">
        <ele>61.18</ele>
        <time>2019-08-01T10:37:00Z</time>
      </trkpt>
      <trkpt lat="48.68397" lon="-2.31528">
        <ele>61.66</ele>
        <time>2019-08-01T10:37:03Z</time>
      </trkpt>
      <trkpt lat="48.68392" lon="-2.31525">
        <ele>61.66</ele>
        <time>2019-08-01T10:37:06Z</time>
      </trkpt>
      <trkpt lat="48.68383" lon="-2.31522">
        <ele>61.66</ele>
        <time>2019-08-01T10:37:12Z</time>
      </trkpt>
      <trkpt lat="48.68376" lon="-2.31519">
        <ele>62.14</ele>
        <time>2019-08-01T10:37:16Z</time>
      </trkpt>
      <trkpt lat="48.68375" lon="-2.31519">
        <ele>62.14</ele>
        <time>2019-08-01T10:37:17Z</time>
      </trkpt>
      <trkpt lat="48.68364" lon="-2.31517">
        <ele>62.62</ele>
        <time>2019-08-01T10:37:24Z</time>
      </trkpt>
      <trkpt lat="48.68359" lon="-2.31517">
        <ele>62.62</ele>
        <time>2019-08-01T10:37:27Z</time>
      </trkpt>
      <trkpt lat="48.68347" lon="-2.31523">
        <ele>63.1</ele>
        <time>2019-08-01T10:37:35Z</time>
      </trkpt>
      <trkpt lat="48.68337" lon="-2.31526">
        <ele>63.58</ele>
        <time>2019-08-01T10:37:41Z</time>
      </trkpt>
      <trkpt lat="48.68329" lon="-2.31529">
        <ele>63.58</ele>
        <time>2019-08-01T10:37:47Z</time>
      </trkpt>
      <trkpt lat="48.68322" lon="-2.31532">
        <ele>65.03</ele>
        <time>2019-08-01T10:37:52Z</time>
      </trkpt>
      <trkpt lat="48.68319" lon="-2.3153">
        <ele>65.03</ele>
        <time>2019-08-01T10:37:59Z</time>
      </trkpt>
      <trkpt lat="48.68319" lon="-2.3153">
        <ele>65.51</ele>
        <time>2019-08-01T10:38:11Z</time>
      </trkpt>
      <trkpt lat="48.68318" lon="-2.3153">
        <ele>65.51</ele>
        <time>2019-08-01T10:38:12Z</time>
      </trkpt>
      <trkpt lat="48.68308" lon="-2.31526">
        <ele>65.03</ele>
        <time>2019-08-01T10:38:21Z</time>
      </trkpt>
      <trkpt lat="48.68298" lon="-2.31522">
        <ele>65.51</ele>
        <time>2019-08-01T10:38:30Z</time>
      </trkpt>
      <trkpt lat="48.68287" lon="-2.31519">
        <ele>65.03</ele>
        <time>2019-08-01T10:38:38Z</time>
      </trkpt>
      <trkpt lat="48.68286" lon="-2.31519">
        <ele>65.03</ele>
        <time>2019-08-01T10:38:39Z</time>
      </trkpt>
      <trkpt lat="48.6828" lon="-2.31517">
        <ele>65.51</ele>
        <time>2019-08-01T10:38:44Z</time>
      </trkpt>
      <trkpt lat="48.68272" lon="-2.31511">
        <ele>65.03</ele>
        <time>2019-08-01T10:38:50Z</time>
      </trkpt>
      <trkpt lat="48.68268" lon="-2.31507">
        <ele>64.55</ele>
        <time>2019-08-01T10:38:55Z</time>
      </trkpt>
      <trkpt lat="48.68265" lon="-2.31507">
        <ele>65.03</ele>
        <time>2019-08-01T10:39:02Z</time>
      </trkpt>
      <trkpt lat="48.68265" lon="-2.31508">
        <ele>65.03</ele>
        <time>2019-08-01T10:39:19Z</time>
      </trkpt>
      <trkpt lat="48.68265" lon="-2.31508">
        <ele>65.03</ele>
        <time>2019-08-01T10:39:23Z</time>
      </trkpt>
      <trkpt lat="48.68258" lon="-2.31501">
        <ele>64.07</ele>
        <time>2019-08-01T10:39:31Z</time>
      </trkpt>
      <trkpt lat="48.68251" lon="-2.31496">
        <ele>64.07</ele>
        <time>2019-08-01T10:39:36Z</time>
      </trkpt>
      <trkpt lat="48.68248" lon="-2.31495">
        <ele>64.07</ele>
        <time>2019-08-01T10:39:38Z</time>
      </trkpt>
      <trkpt lat="48.68239" lon="-2.31486">
        <ele>64.07</ele>
        <time>2019-08-01T10:39:44Z</time>
      </trkpt>
      <trkpt lat="48.68236" lon="-2.31482">
        <ele>63.58</ele>
        <time>2019-08-01T10:39:46Z</time>
      </trkpt>
      <trkpt lat="48.68228" lon="-2.31478">
        <ele>63.58</ele>
        <time>2019-08-01T10:39:51Z</time>
      </trkpt>
      <trkpt lat="48.68223" lon="-2.31475">
        <ele>64.07</ele>
        <time>2019-08-01T10:39:56Z</time>
      </trkpt>
      <trkpt lat="48.68221" lon="-2.31473">
        <ele>64.55</ele>
        <time>2019-08-01T10:39:58Z</time>
      </trkpt>
      <trkpt lat="48.68212" lon="-2.31469">
        <ele>65.03</ele>
        <time>2019-08-01T10:40:03Z</time>
      </trkpt>
      <trkpt lat="48.68205" lon="-2.31465">
        <ele>65.03</ele>
        <time>2019-08-01T10:40:08Z</time>
      </trkpt>
      <trkpt lat="48.68202" lon="-2.31463">
        <ele>65.03</ele>
        <time>2019-08-01T10:40:10Z</time>
      </trkpt>
      <trkpt lat="48.68192" lon="-2.31456">
        <ele>65.99</ele>
        <time>2019-08-01T10:40:17Z</time>
      </trkpt>
      <trkpt lat="48.68188" lon="-2.31452">
        <ele>66.95</ele>
        <time>2019-08-01T10:40:21Z</time>
      </trkpt>
      <trkpt lat="48.68182" lon="-2.31448">
        <ele>67.43</ele>
        <time>2019-08-01T10:40:25Z</time>
      </trkpt>
      <trkpt lat="48.68175" lon="-2.31447">
        <ele>67.91</ele>
        <time>2019-08-01T10:40:30Z</time>
      </trkpt>
      <trkpt lat="48.6817" lon="-2.31443">
        <ele>68.39</ele>
        <time>2019-08-01T10:40:35Z</time>
      </trkpt>
      <trkpt lat="48.68169" lon="-2.31443">
        <ele>68.87</ele>
        <time>2019-08-01T10:40:36Z</time>
      </trkpt>
      <trkpt lat="48.68165" lon="-2.31436">
        <ele>68.87</ele>
        <time>2019-08-01T10:40:42Z</time>
      </trkpt>
      <trkpt lat="48.68156" lon="-2.31432">
        <ele>68.39</ele>
        <time>2019-08-01T10:40:49Z</time>
      </trkpt>
      <trkpt lat="48.6815" lon="-2.3143">
        <ele>68.87</ele>
        <time>2019-08-01T10:40:54Z</time>
      </trkpt>
      <trkpt lat="48.68145" lon="-2.31426">
        <ele>68.87</ele>
        <time>2019-08-01T10:40:58Z</time>
      </trkpt>
      <trkpt lat="48.6814" lon="-2.31423">
        <ele>68.87</ele>
        <time>2019-08-01T10:41:02Z</time>
      </trkpt>
      <trkpt lat="48.68132" lon="-2.31419">
        <ele>68.87</ele>
        <time>2019-08-01T10:41:07Z</time>
      </trkpt>
      <trkpt lat="48.68123" lon="-2.31414">
        <ele>68.39</ele>
        <time>2019-08-01T10:41:13Z</time>
      </trkpt>
      <trkpt lat="48.68117" lon="-2.31413">
        <ele>68.39</ele>
        <time>2019-08-01T10:41:18Z</time>
      </trkpt>
      <trkpt lat="48.68112" lon="-2.31411">
        <ele>68.39</ele>
        <time>2019-08-01T10:41:22Z</time>
      </trkpt>
      <trkpt lat="48.68103" lon="-2.31408">
        <ele>67.91</ele>
        <time>2019-08-01T10:41:30Z</time>
      </trkpt>
      <trkpt lat="48.68096" lon="-2.31406">
        <ele>67.91</ele>
        <time>2019-08-01T10:41:34Z</time>
      </trkpt>
      <trkpt lat="48.68087" lon="-2.31403">
        <ele>67.43</ele>
        <time>2019-08-01T10:41:40Z</time>
      </trkpt>
      <trkpt lat="48.68085" lon="-2.31402">
        <ele>67.43</ele>
        <time>2019-08-01T10:41:41Z</time>
      </trkpt>
      <trkpt lat="48.68078" lon="-2.31398">
        <ele>67.43</ele>
        <time>2019-08-01T10:41:46Z</time>
      </trkpt>
      <trkpt lat="48.68069" lon="-2.31391">
        <ele>67.43</ele>
        <time>2019-08-01T10:41:53Z</time>
      </trkpt>
      <trkpt lat="48.68067" lon="-2.31389">
        <ele>67.43</ele>
        <time>2019-08-01T10:41:55Z</time>
      </trkpt>
      <trkpt lat="48.68058" lon="-2.31385">
        <ele>66.95</ele>
        <time>2019-08-01T10:42:02Z</time>
      </trkpt>
      <trkpt lat="48.6805" lon="-2.3138">
        <ele>66.95</ele>
        <time>2019-08-01T10:42:09Z</time>
      </trkpt>
      <trkpt lat="48.68047" lon="-2.31378">
        <ele>66.95</ele>
        <time>2019-08-01T10:42:12Z</time>
      </trkpt>
      <trkpt lat="48.68043" lon="-2.31376">
        <ele>66.47</ele>
        <time>2019-08-01T10:42:17Z</time>
      </trkpt>
      <trkpt lat="48.68041" lon="-2.31374">
        <ele>65.99</ele>
        <time>2019-08-01T10:42:19Z</time>
      </trkpt>
      <trkpt lat="48.68037" lon="-2.3137">
        <ele>65.51</ele>
        <time>2019-08-01T10:42:22Z</time>
      </trkpt>
      <trkpt lat="48.6803" lon="-2.31367">
        <ele>64.55</ele>
        <time>2019-08-01T10:42:28Z</time>
      </trkpt>
      <trkpt lat="48.68027" lon="-2.31366">
        <ele>64.55</ele>
        <time>2019-08-01T10:42:30Z</time>
      </trkpt>
      <trkpt lat="48.68019" lon="-2.31363">
        <ele>64.07</ele>
        <time>2019-08-01T10:42:36Z</time>
      </trkpt>
      <trkpt lat="48.68012" lon="-2.31363">
        <ele>64.07</ele>
        <time>2019-08-01T10:42:42Z</time>
      </trkpt>
      <trkpt lat="48.68009" lon="-2.31363">
        <ele>64.07</ele>
        <time>2019-08-01T10:42:44Z</time>
      </trkpt>
      <trkpt lat="48.68006" lon="-2.31362">
        <ele>64.07</ele>
        <time>2019-08-01T10:42:46Z</time>
      </trkpt>
      <trkpt lat="48.68003" lon="-2.31358">
        <ele>63.58</ele>
        <time>2019-08-01T10:42:49Z</time>
      </trkpt>
      <trkpt lat="48.67994" lon="-2.31352">
        <ele>64.07</ele>
        <time>2019-08-01T10:42:56Z</time>
      </trkpt>
      <trkpt lat="48.67989" lon="-2.31346">
        <ele>64.07</ele>
        <time>2019-08-01T10:43:01Z</time>
      </trkpt>
      <trkpt lat="48.67983" lon="-2.31341">
        <ele>64.55</ele>
        <time>2019-08-01T10:43:06Z</time>
      </trkpt>
      <trkpt lat="48.67973" lon="-2.3134">
        <ele>64.07</ele>
        <time>2019-08-01T10:43:13Z</time>
      </trkpt>
      <trkpt lat="48.67966" lon="-2.31347">
        <ele>63.58</ele>
        <time>2019-08-01T10:43:19Z</time>
      </trkpt>
      <trkpt lat="48.67966" lon="-2.31348">
        <ele>63.58</ele>
        <time>2019-08-01T10:43:20Z</time>
      </trkpt>
      <trkpt lat="48.67961" lon="-2.3136">
        <ele>63.1</ele>
        <time>2019-08-01T10:43:27Z</time>
      </trkpt>
      <trkpt lat="48.67954" lon="-2.3137">
        <ele>62.62</ele>
        <time>2019-08-01T10:43:34Z</time>
      </trkpt>
      <trkpt lat="48.67942" lon="-2.31375">
        <ele>63.1</ele>
        <time>2019-08-01T10:43:43Z</time>
      </trkpt>
      <trkpt lat="48.67936" lon="-2.3138">
        <ele>62.62</ele>
        <time>2019-08-01T10:43:50Z</time>
      </trkpt>
      <trkpt lat="48.67928" lon="-2.31385">
        <ele>62.14</ele>
        <time>2019-08-01T10:43:57Z</time>
      </trkpt>
      <trkpt lat="48.67922" lon="-2.31389">
        <ele>61.18</ele>
        <time>2019-08-01T10:44:02Z</time>
      </trkpt>
      <trkpt lat="48.67914" lon="-2.31396">
        <ele>60.22</ele>
        <time>2019-08-01T10:44:08Z</time>
      </trkpt>
      <trkpt lat="48.67909" lon="-2.31399">
        <ele>60.22</ele>
        <time>2019-08-01T10:44:12Z</time>
      </trkpt>
      <trkpt lat="48.67904" lon="-2.31402">
        <ele>59.26</ele>
        <time>2019-08-01T10:44:16Z</time>
      </trkpt>
      <trkpt lat="48.67895" lon="-2.31407">
        <ele>60.22</ele>
        <time>2019-08-01T10:44:25Z</time>
      </trkpt>
      <trkpt lat="48.67892" lon="-2.31408">
        <ele>60.7</ele>
        <time>2019-08-01T10:44:28Z</time>
      </trkpt>
      <trkpt lat="48.67889" lon="-2.31409">
        <ele>61.18</ele>
        <time>2019-08-01T10:44:32Z</time>
      </trkpt>
      <trkpt lat="48.67881" lon="-2.31414">
        <ele>62.62</ele>
        <time>2019-08-01T10:44:41Z</time>
      </trkpt>
      <trkpt lat="48.67874" lon="-2.31418">
        <ele>62.62</ele>
        <time>2019-08-01T10:44:46Z</time>
      </trkpt>
      <trkpt lat="48.67865" lon="-2.31423">
        <ele>63.1</ele>
        <time>2019-08-01T10:44:54Z</time>
      </trkpt>
      <trkpt lat="48.67861" lon="-2.31427">
        <ele>63.1</ele>
        <time>2019-08-01T10:44:59Z</time>
      </trkpt>
      <trkpt lat="48.67859" lon="-2.31429">
        <ele>63.1</ele>
        <time>2019-08-01T10:45:03Z</time>
      </trkpt>
      <trkpt lat="48.67857" lon="-2.31429">
        <ele>63.1</ele>
        <time>2019-08-01T10:45:05Z</time>
      </trkpt>
      <trkpt lat="48.67852" lon="-2.31428">
        <ele>62.62</ele>
        <time>2019-08-01T10:45:09Z</time>
      </trkpt>
      <trkpt lat="48.67843" lon="-2.31431">
        <ele>62.14</ele>
        <time>2019-08-01T10:45:17Z</time>
      </trkpt>
      <trkpt lat="48.67833" lon="-2.31434">
        <ele>61.66</ele>
        <time>2019-08-01T10:45:24Z</time>
      </trkpt>
      <trkpt lat="48.67823" lon="-2.31436">
        <ele>61.66</ele>
        <time>2019-08-01T10:45:31Z</time>
      </trkpt>
      <trkpt lat="48.67822" lon="-2.31437">
        <ele>61.66</ele>
        <time>2019-08-01T10:45:32Z</time>
      </trkpt>
      <trkpt lat="48.67812" lon="-2.31442">
        <ele>61.66</ele>
        <time>2019-08-01T10:45:40Z</time>
      </trkpt>
      <trkpt lat="48.67808" lon="-2.31445">
        <ele>62.14</ele>
        <time>2019-08-01T10:45:43Z</time>
      </trkpt>
      <trkpt lat="48.678" lon="-2.31448">
        <ele>62.14</ele>
        <time>2019-08-01T10:45:48Z</time>
      </trkpt>
      <trkpt lat="48.67795" lon="-2.31448">
        <ele>62.14</ele>
        <time>2019-08-01T10:45:51Z</time>
      </trkpt>
      <trkpt lat="48.67787" lon="-2.31449">
        <ele>61.18</ele>
        <time>2019-08-01T10:45:57Z</time>
      </trkpt>
      <trkpt lat="48.67784" lon="-2.3145">
        <ele>60.7</ele>
        <time>2019-08-01T10:46:00Z</time>
      </trkpt>
      <trkpt lat="48.67778" lon="-2.31459">
        <ele>61.18</ele>
        <time>2019-08-01T10:46:07Z</time>
      </trkpt>
      <trkpt lat="48.67771" lon="-2.31465">
        <ele>62.14</ele>
        <time>2019-08-01T10:46:13Z</time>
      </trkpt>
      <trkpt lat="48.67765" lon="-2.31472">
        <ele>62.62</ele>
        <time>2019-08-01T10:46:21Z</time>
      </trkpt>
      <trkpt lat="48.67764" lon="-2.31473">
        <ele>62.62</ele>
        <time>2019-08-01T10:46:23Z</time>
      </trkpt>
      <trkpt lat="48.67762" lon="-2.31477">
        <ele>62.62</ele>
        <time>2019-08-01T10:46:26Z</time>
      </trkpt>
      <trkpt lat="48.67752" lon="-2.31485">
        <ele>63.1</ele>
        <time>2019-08-01T10:46:34Z</time>
      </trkpt>
      <trkpt lat="48.67752" lon="-2.31486">
        <ele>63.1</ele>
        <time>2019-08-01T10:46:35Z</time>
      </trkpt>
      <trkpt lat="48.6774" lon="-2.3149">
        <ele>63.58</ele>
        <time>2019-08-01T10:46:44Z</time>
      </trkpt>
      <trkpt lat="48.67735" lon="-2.31493">
        <ele>63.58</ele>
        <time>2019-08-01T10:46:49Z</time>
      </trkpt>
      <trkpt lat="48.67729" lon="-2.31495">
        <ele>63.58</ele>
        <time>2019-08-01T10:46:53Z</time>
      </trkpt>
      <trkpt lat="48.67719" lon="-2.31501">
        <ele>63.58</ele>
        <time>2019-08-01T10:47:01Z</time>
      </trkpt>
      <trkpt lat="48.6771" lon="-2.31505">
        <ele>63.58</ele>
        <time>2019-08-01T10:47:07Z</time>
      </trkpt>
      <trkpt lat="48.67698" lon="-2.3151">
        <ele>64.07</ele>
        <time>2019-08-01T10:47:15Z</time>
      </trkpt>
      <trkpt lat="48.67685" lon="-2.31515">
        <ele>62.62</ele>
        <time>2019-08-01T10:47:24Z</time>
      </trkpt>
      <trkpt lat="48.67682" lon="-2.31516">
        <ele>62.62</ele>
        <time>2019-08-01T10:47:26Z</time>
      </trkpt>
      <trkpt lat="48.67677" lon="-2.31516">
        <ele>62.14</ele>
        <time>2019-08-01T10:47:30Z</time>
      </trkpt>
      <trkpt lat="48.67666" lon="-2.31519">
        <ele>62.62</ele>
        <time>2019-08-01T10:47:37Z</time>
      </trkpt>
      <trkpt lat="48.67665" lon="-2.31519">
        <ele>62.14</ele>
        <time>2019-08-01T10:47:38Z</time>
      </trkpt>
      <trkpt lat="48.67659" lon="-2.3152">
        <ele>62.62</ele>
        <time>2019-08-01T10:47:44Z</time>
      </trkpt>
      <trkpt lat="48.67653" lon="-2.31524">
        <ele>62.62</ele>
        <time>2019-08-01T10:47:51Z</time>
      </trkpt>
      <trkpt lat="48.6765" lon="-2.31528">
        <ele>62.62</ele>
        <time>2019-08-01T10:47:55Z</time>
      </trkpt>
      <trkpt lat="48.67646" lon="-2.31528">
        <ele>62.62</ele>
        <time>2019-08-01T10:47:59Z</time>
      </trkpt>
      <trkpt lat="48.67639" lon="-2.31529">
        <ele>63.1</ele>
        <time>2019-08-01T10:48:06Z</time>
      </trkpt>
      <trkpt lat="48.6763" lon="-2.31535">
        <ele>63.1</ele>
        <time>2019-08-01T10:48:14Z</time>
      </trkpt>
      <trkpt lat="48.67629" lon="-2.31534">
        <ele>63.1</ele>
        <time>2019-08-01T10:48:15Z</time>
      </trkpt>
      <trkpt lat="48.67621" lon="-2.31532">
        <ele>62.62</ele>
        <time>2019-08-01T10:48:21Z</time>
      </trkpt>
      <trkpt lat="48.67612" lon="-2.31533">
        <ele>63.1</ele>
        <time>2019-08-01T10:48:28Z</time>
      </trkpt>
      <trkpt lat="48.67608" lon="-2.31535">
        <ele>63.1</ele>
        <time>2019-08-01T10:48:31Z</time>
      </trkpt>
      <trkpt lat="48.67602" lon="-2.31535">
        <ele>63.58</ele>
        <time>2019-08-01T10:48:35Z</time>
      </trkpt>
      <trkpt lat="48.67597" lon="-2.31538">
        <ele>63.1</ele>
        <time>2019-08-01T10:48:39Z</time>
      </trkpt>
      <trkpt lat="48.67595" lon="-2.31539">
        <ele>63.58</ele>
        <time>2019-08-01T10:48:41Z</time>
      </trkpt>
      <trkpt lat="48.67584" lon="-2.31534">
        <ele>63.58</ele>
        <time>2019-08-01T10:48:50Z</time>
      </trkpt>
      <trkpt lat="48.67583" lon="-2.31534">
        <ele>63.58</ele>
        <time>2019-08-01T10:48:51Z</time>
      </trkpt>
      <trkpt lat="48.67573" lon="-2.31533">
        <ele>62.62</ele>
        <time>2019-08-01T10:49:00Z</time>
      </trkpt>
      <trkpt lat="48.67572" lon="-2.31533">
        <ele>62.62</ele>
        <time>2019-08-01T10:49:01Z</time>
      </trkpt>
      <trkpt lat="48.67568" lon="-2.31536">
        <ele>61.66</ele>
        <time>2019-08-01T10:49:05Z</time>
      </trkpt>
      <trkpt lat="48.6756" lon="-2.31548">
        <ele>60.7</ele>
        <time>2019-08-01T10:49:13Z</time>
      </trkpt>
      <trkpt lat="48.67552" lon="-2.31562">
        <ele>59.74</ele>
        <time>2019-08-01T10:49:21Z</time>
      </trkpt>
      <trkpt lat="48.67547" lon="-2.31576">
        <ele>59.26</ele>
        <time>2019-08-01T10:49:28Z</time>
      </trkpt>
      <trkpt lat="48.6754" lon="-2.3159">
        <ele>58.3</ele>
        <time>2019-08-01T10:49:36Z</time>
      </trkpt>
      <trkpt lat="48.67537" lon="-2.31606">
        <ele>58.3</ele>
        <time>2019-08-01T10:49:44Z</time>
      </trkpt>
      <trkpt lat="48.67534" lon="-2.31621">
        <ele>58.3</ele>
        <time>2019-08-01T10:49:51Z</time>
      </trkpt>
      <trkpt lat="48.6753" lon="-2.31635">
        <ele>57.82</ele>
        <time>2019-08-01T10:49:58Z</time>
      </trkpt>
      <trkpt lat="48.67522" lon="-2.31651">
        <ele>57.34</ele>
        <time>2019-08-01T10:50:08Z</time>
      </trkpt>
      <trkpt lat="48.6752" lon="-2.31654">
        <ele>57.34</ele>
        <time>2019-08-01T10:50:10Z</time>
      </trkpt>
      <trkpt lat="48.67515" lon="-2.31661">
        <ele>56.86</ele>
        <time>2019-08-01T10:50:15Z</time>
      </trkpt>
      <trkpt lat="48.67509" lon="-2.31676">
        <ele>56.37</ele>
        <time>2019-08-01T10:50:24Z</time>
      </trkpt>
      <trkpt lat="48.67505" lon="-2.31681">
        <ele>56.37</ele>
        <time>2019-08-01T10:50:30Z</time>
      </trkpt>
      <trkpt lat="48.67501" lon="-2.31682">
        <ele>54.45</ele>
        <time>2019-08-01T10:50:37Z</time>
      </trkpt>
      <trkpt lat="48.67494" lon="-2.31681">
        <ele>53.49</ele>
        <time>2019-08-01T10:50:44Z</time>
      </trkpt>
      <trkpt lat="48.6749" lon="-2.31676">
        <ele>52.05</ele>
        <time>2019-08-01T10:50:48Z</time>
      </trkpt>
      <trkpt lat="48.67487" lon="-2.31669">
        <ele>51.57</ele>
        <time>2019-08-01T10:50:52Z</time>
      </trkpt>
      <trkpt lat="48.67484" lon="-2.31664">
        <ele>51.57</ele>
        <time>2019-08-01T10:50:55Z</time>
      </trkpt>
      <trkpt lat="48.67479" lon="-2.31655">
        <ele>52.05</ele>
        <time>2019-08-01T10:51:01Z</time>
      </trkpt>
      <trkpt lat="48.67478" lon="-2.31651">
        <ele>52.53</ele>
        <time>2019-08-01T10:51:03Z</time>
      </trkpt>
      <trkpt lat="48.67477" lon="-2.31647">
        <ele>52.53</ele>
        <time>2019-08-01T10:51:05Z</time>
      </trkpt>
      <trkpt lat="48.6748" lon="-2.31637">
        <ele>53.01</ele>
        <time>2019-08-01T10:51:11Z</time>
      </trkpt>
      <trkpt lat="48.67484" lon="-2.31619">
        <ele>53.01</ele>
        <time>2019-08-01T10:51:20Z</time>
      </trkpt>
      <trkpt lat="48.67486" lon="-2.31608">
        <ele>53.01</ele>
        <time>2019-08-01T10:51:27Z</time>
      </trkpt>
      <trkpt lat="48.67484" lon="-2.31601">
        <ele>54.45</ele>
        <time>2019-08-01T10:51:33Z</time>
      </trkpt>
      <trkpt lat="48.67483" lon="-2.31596">
        <ele>55.41</ele>
        <time>2019-08-01T10:51:38Z</time>
      </trkpt>
      <trkpt lat="48.67481" lon="-2.31597">
        <ele>55.89</ele>
        <time>2019-08-01T10:51:40Z</time>
      </trkpt>
      <trkpt lat="48.67477" lon="-2.31605">
        <ele>56.37</ele>
        <time>2019-08-01T10:51:46Z</time>
      </trkpt>
      <trkpt lat="48.67474" lon="-2.31609">
        <ele>57.34</ele>
        <time>2019-08-01T10:51:53Z</time>
      </trkpt>
      <trkpt lat="48.67475" lon="-2.31604">
        <ele>57.82</ele>
        <time>2019-08-01T10:51:56Z</time>
      </trkpt>
      <trkpt lat="48.67476" lon="-2.31596">
        <ele>58.3</ele>
        <time>2019-08-01T10:52:03Z</time>
      </trkpt>
      <trkpt lat="48.67475" lon="-2.31596">
        <ele>58.78</ele>
        <time>2019-08-01T10:52:05Z</time>
      </trkpt>
      <trkpt lat="48.67469" lon="-2.31605">
        <ele>59.74</ele>
        <time>2019-08-01T10:52:13Z</time>
      </trkpt>
      <trkpt lat="48.67467" lon="-2.31609">
        <ele>60.22</ele>
        <time>2019-08-01T10:52:19Z</time>
      </trkpt>
      <trkpt lat="48.67467" lon="-2.31608">
        <ele>60.22</ele>
        <time>2019-08-01T10:52:21Z</time>
      </trkpt>
      <trkpt lat="48.67467" lon="-2.31603">
        <ele>60.7</ele>
        <time>2019-08-01T10:52:24Z</time>
      </trkpt>
      <trkpt lat="48.67469" lon="-2.31595">
        <ele>60.7</ele>
        <time>2019-08-01T10:52:28Z</time>
      </trkpt>
      <trkpt lat="48.67471" lon="-2.31581">
        <ele>60.7</ele>
        <time>2019-08-01T10:52:35Z</time>
      </trkpt>
      <trkpt lat="48.67471" lon="-2.31577">
        <ele>60.7</ele>
        <time>2019-08-01T10:52:37Z</time>
      </trkpt>
      <trkpt lat="48.67461" lon="-2.31575">
        <ele>61.66</ele>
        <time>2019-08-01T10:52:45Z</time>
      </trkpt>
      <trkpt lat="48.6746" lon="-2.31575">
        <ele>61.66</ele>
        <time>2019-08-01T10:52:47Z</time>
      </trkpt>
      <trkpt lat="48.67457" lon="-2.31575">
        <ele>61.66</ele>
        <time>2019-08-01T10:52:50Z</time>
      </trkpt>
      <trkpt lat="48.67454" lon="-2.31576">
        <ele>61.66</ele>
        <time>2019-08-01T10:52:53Z</time>
      </trkpt>
      <trkpt lat="48.67443" lon="-2.31575">
        <ele>62.14</ele>
        <time>2019-08-01T10:53:00Z</time>
      </trkpt>
      <trkpt lat="48.67439" lon="-2.31575">
        <ele>62.62</ele>
        <time>2019-08-01T10:53:03Z</time>
      </trkpt>
      <trkpt lat="48.67434" lon="-2.31573">
        <ele>63.1</ele>
        <time>2019-08-01T10:53:08Z</time>
      </trkpt>
      <trkpt lat="48.67424" lon="-2.3157">
        <ele>64.55</ele>
        <time>2019-08-01T10:53:16Z</time>
      </trkpt>
      <trkpt lat="48.67414" lon="-2.31567">
        <ele>64.07</ele>
        <time>2019-08-01T10:53:24Z</time>
      </trkpt>
      <trkpt lat="48.67404" lon="-2.31566">
        <ele>64.07</ele>
        <time>2019-08-01T10:53:31Z</time>
      </trkpt>
      <trkpt lat="48.67394" lon="-2.31563">
        <ele>64.55</ele>
        <time>2019-08-01T10:53:39Z</time>
      </trkpt>
      <trkpt lat="48.6738" lon="-2.3156">
        <ele>64.55</ele>
        <time>2019-08-01T10:53:48Z</time>
      </trkpt>
      <trkpt lat="48.67369" lon="-2.31558">
        <ele>65.03</ele>
        <time>2019-08-01T10:53:57Z</time>
      </trkpt>
      <trkpt lat="48.67364" lon="-2.31557">
        <ele>65.03</ele>
        <time>2019-08-01T10:54:01Z</time>
      </trkpt>
      <trkpt lat="48.67355" lon="-2.31555">
        <ele>65.51</ele>
        <time>2019-08-01T10:54:08Z</time>
      </trkpt>
      <trkpt lat="48.67353" lon="-2.31554">
        <ele>65.51</ele>
        <time>2019-08-01T10:54:10Z</time>
      </trkpt>
      <trkpt lat="48.67346" lon="-2.31553">
        <ele>65.99</ele>
        <time>2019-08-01T10:54:16Z</time>
      </trkpt>
      <trkpt lat="48.67341" lon="-2.31552">
        <ele>65.99</ele>
        <time>2019-08-01T10:54:20Z</time>
      </trkpt>
      <trkpt lat="48.67334" lon="-2.31548">
        <ele>65.99</ele>
        <time>2019-08-01T10:54:27Z</time>
      </trkpt>
      <trkpt lat="48.67331" lon="-2.31547">
        <ele>65.51</ele>
        <time>2019-08-01T10:54:29Z</time>
      </trkpt>
      <trkpt lat="48.67326" lon="-2.31542">
        <ele>65.03</ele>
        <time>2019-08-01T10:54:35Z</time>
      </trkpt>
      <trkpt lat="48.67322" lon="-2.31538">
        <ele>64.55</ele>
        <time>2019-08-01T10:54:38Z</time>
      </trkpt>
      <trkpt lat="48.67319" lon="-2.31534">
        <ele>64.55</ele>
        <time>2019-08-01T10:54:41Z</time>
      </trkpt>
      <trkpt lat="48.67311" lon="-2.31528">
        <ele>64.07</ele>
        <time>2019-08-01T10:54:48Z</time>
      </trkpt>
      <trkpt lat="48.67304" lon="-2.31522">
        <ele>63.58</ele>
        <time>2019-08-01T10:54:53Z</time>
      </trkpt>
      <trkpt lat="48.67296" lon="-2.3152">
        <ele>63.58</ele>
        <time>2019-08-01T10:55:00Z</time>
      </trkpt>
      <trkpt lat="48.67293" lon="-2.3152">
        <ele>63.58</ele>
        <time>2019-08-01T10:55:02Z</time>
      </trkpt>
      <trkpt lat="48.67289" lon="-2.31517">
        <ele>63.1</ele>
        <time>2019-08-01T10:55:06Z</time>
      </trkpt>
      <trkpt lat="48.67283" lon="-2.31513">
        <ele>62.14</ele>
        <time>2019-08-01T10:55:12Z</time>
      </trkpt>
      <trkpt lat="48.67281" lon="-2.31513">
        <ele>62.14</ele>
        <time>2019-08-01T10:55:14Z</time>
      </trkpt>
      <trkpt lat="48.67279" lon="-2.31502">
        <ele>61.18</ele>
        <time>2019-08-01T10:55:21Z</time>
      </trkpt>
      <trkpt lat="48.67275" lon="-2.31491">
        <ele>60.7</ele>
        <time>2019-08-01T10:55:29Z</time>
      </trkpt>
      <trkpt lat="48.67264" lon="-2.31487">
        <ele>60.7</ele>
        <time>2019-08-01T10:55:37Z</time>
      </trkpt>
      <trkpt lat="48.67261" lon="-2.31486">
        <ele>60.7</ele>
        <time>2019-08-01T10:55:40Z</time>
      </trkpt>
      <trkpt lat="48.67256" lon="-2.31475">
        <ele>60.7</ele>
        <time>2019-08-01T10:55:47Z</time>
      </trkpt>
      <trkpt lat="48.67253" lon="-2.31468">
        <ele>61.18</ele>
        <time>2019-08-01T10:55:54Z</time>
      </trkpt>
      <trkpt lat="48.6725" lon="-2.31465">
        <ele>61.66</ele>
        <time>2019-08-01T10:55:58Z</time>
      </trkpt>
      <trkpt lat="48.67249" lon="-2.31457">
        <ele>62.14</ele>
        <time>2019-08-01T10:56:04Z</time>
      </trkpt>
      <trkpt lat="48.6725" lon="-2.3145">
        <ele>62.62</ele>
        <time>2019-08-01T10:56:09Z</time>
      </trkpt>
      <trkpt lat="48.67245" lon="-2.31437">
        <ele>62.62</ele>
        <time>2019-08-01T10:56:17Z</time>
      </trkpt>
      <trkpt lat="48.67241" lon="-2.31433">
        <ele>63.1</ele>
        <time>2019-08-01T10:56:23Z</time>
      </trkpt>
      <trkpt lat="48.67237" lon="-2.3142">
        <ele>63.58</ele>
        <time>2019-08-01T10:56:31Z</time>
      </trkpt>
      <trkpt lat="48.67232" lon="-2.31413">
        <ele>64.07</ele>
        <time>2019-08-01T10:56:39Z</time>
      </trkpt>
      <trkpt lat="48.6723" lon="-2.31412">
        <ele>64.07</ele>
        <time>2019-08-01T10:56:42Z</time>
      </trkpt>
      <trkpt lat="48.67225" lon="-2.31406">
        <ele>64.55</ele>
        <time>2019-08-01T10:56:49Z</time>
      </trkpt>
      <trkpt lat="48.67225" lon="-2.31405">
        <ele>64.55</ele>
        <time>2019-08-01T10:56:50Z</time>
      </trkpt>
      <trkpt lat="48.67222" lon="-2.31398">
        <ele>63.58</ele>
        <time>2019-08-01T10:56:58Z</time>
      </trkpt>
      <trkpt lat="48.6722" lon="-2.31395">
        <ele>62.62</ele>
        <time>2019-08-01T10:57:06Z</time>
      </trkpt>
      <trkpt lat="48.67218" lon="-2.31393">
        <ele>62.14</ele>
        <time>2019-08-01T10:57:08Z</time>
      </trkpt>
      <trkpt lat="48.67211" lon="-2.31387">
        <ele>61.66</ele>
        <time>2019-08-01T10:57:14Z</time>
      </trkpt>
      <trkpt lat="48.67203" lon="-2.3138">
        <ele>61.18</ele>
        <time>2019-08-01T10:57:20Z</time>
      </trkpt>
      <trkpt lat="48.67195" lon="-2.31369">
        <ele>61.18</ele>
        <time>2019-08-01T10:57:26Z</time>
      </trkpt>
      <trkpt lat="48.67188" lon="-2.31361">
        <ele>61.18</ele>
        <time>2019-08-01T10:57:32Z</time>
      </trkpt>
      <trkpt lat="48.67186" lon="-2.31359">
        <ele>61.18</ele>
        <time>2019-08-01T10:57:34Z</time>
      </trkpt>
      <trkpt lat="48.67179" lon="-2.31348">
        <ele>60.7</ele>
        <time>2019-08-01T10:57:41Z</time>
      </trkpt>
      <trkpt lat="48.67175" lon="-2.31341">
        <ele>60.22</ele>
        <time>2019-08-01T10:57:49Z</time>
      </trkpt>
      <trkpt lat="48.67174" lon="-2.31341">
        <ele>60.7</ele>
        <time>2019-08-01T10:57:50Z</time>
      </trkpt>
      <trkpt lat="48.67169" lon="-2.31335">
        <ele>59.26</ele>
        <time>2019-08-01T10:57:57Z</time>
      </trkpt>
      <trkpt lat="48.67166" lon="-2.31332">
        <ele>59.26</ele>
        <time>2019-08-01T10:58:03Z</time>
      </trkpt>
      <trkpt lat="48.67166" lon="-2.31331">
        <ele>59.26</ele>
        <time>2019-08-01T10:58:04Z</time>
      </trkpt>
      <trkpt lat="48.67161" lon="-2.31325">
        <ele>58.78</ele>
        <time>2019-08-01T10:58:09Z</time>
      </trkpt>
      <trkpt lat="48.6716" lon="-2.31323">
        <ele>58.78</ele>
        <time>2019-08-01T10:58:11Z</time>
      </trkpt>
      <trkpt lat="48.67154" lon="-2.3131">
        <ele>58.78</ele>
        <time>2019-08-01T10:58:19Z</time>
      </trkpt>
      <trkpt lat="48.67152" lon="-2.31308">
        <ele>59.26</ele>
        <time>2019-08-01T10:58:21Z</time>
      </trkpt>
      <trkpt lat="48.67148" lon="-2.31304">
        <ele>58.78</ele>
        <time>2019-08-01T10:58:26Z</time>
      </trkpt>
      <trkpt lat="48.67142" lon="-2.31299">
        <ele>58.3</ele>
        <time>2019-08-01T10:58:33Z</time>
      </trkpt>
      <trkpt lat="48.67132" lon="-2.31299">
        <ele>58.3</ele>
        <time>2019-08-01T10:58:40Z</time>
      </trkpt>
      <trkpt lat="48.67124" lon="-2.31299">
        <ele>58.3</ele>
        <time>2019-08-01T10:58:45Z</time>
      </trkpt>
      <trkpt lat="48.67117" lon="-2.31296">
        <ele>58.3</ele>
        <time>2019-08-01T10:58:51Z</time>
      </trkpt>
      <trkpt lat="48.67114" lon="-2.31295">
        <ele>58.78</ele>
        <time>2019-08-01T10:58:53Z</time>
      </trkpt>
      <trkpt lat="48.67104" lon="-2.31289">
        <ele>58.78</ele>
        <time>2019-08-01T10:59:01Z</time>
      </trkpt>
      <trkpt lat="48.67098" lon="-2.31286">
        <ele>59.26</ele>
        <time>2019-08-01T10:59:06Z</time>
      </trkpt>
      <trkpt lat="48.67094" lon="-2.31282">
        <ele>59.26</ele>
        <time>2019-08-01T10:59:10Z</time>
      </trkpt>
      <trkpt lat="48.67088" lon="-2.31273">
        <ele>60.22</ele>
        <time>2019-08-01T10:59:17Z</time>
      </trkpt>
      <trkpt lat="48.67085" lon="-2.31268">
        <ele>60.22</ele>
        <time>2019-08-01T10:59:22Z</time>
      </trkpt>
      <trkpt lat="48.67084" lon="-2.31266">
        <ele>60.7</ele>
        <time>2019-08-01T10:59:23Z</time>
      </trkpt>
      <trkpt lat="48.6708" lon="-2.31264">
        <ele>60.7</ele>
        <time>2019-08-01T10:59:27Z</time>
      </trkpt>
      <trkpt lat="48.67075" lon="-2.31255">
        <ele>61.18</ele>
        <time>2019-08-01T10:59:34Z</time>
      </trkpt>
      <trkpt lat="48.6707" lon="-2.31246">
        <ele>61.66</ele>
        <time>2019-08-01T10:59:40Z</time>
      </trkpt>
      <trkpt lat="48.67064" lon="-2.3124">
        <ele>62.14</ele>
        <time>2019-08-01T10:59:47Z</time>
      </trkpt>
      <trkpt lat="48.67063" lon="-2.31237">
        <ele>62.62</ele>
        <time>2019-08-01T10:59:50Z</time>
      </trkpt>
      <trkpt lat="48.67059" lon="-2.3123">
        <ele>62.62</ele>
        <time>2019-08-01T10:59:57Z</time>
      </trkpt>
      <trkpt lat="48.67057" lon="-2.31225">
        <ele>63.1</ele>
        <time>2019-08-01T11:00:00Z</time>
      </trkpt>
      <trkpt lat="48.67055" lon="-2.31216">
        <ele>63.58</ele>
        <time>2019-08-01T11:00:05Z</time>
      </trkpt>
      <trkpt lat="48.67052" lon="-2.31208">
        <ele>64.07</ele>
        <time>2019-08-01T11:00:11Z</time>
      </trkpt>
      <trkpt lat="48.67047" lon="-2.31198">
        <ele>64.55</ele>
        <time>2019-08-01T11:00:18Z</time>
      </trkpt>
      <trkpt lat="48.67045" lon="-2.31193">
        <ele>64.55</ele>
        <time>2019-08-01T11:00:21Z</time>
      </trkpt>
      <trkpt lat="48.67042" lon="-2.31188">
        <ele>64.55</ele>
        <time>2019-08-01T11:00:25Z</time>
      </trkpt>
      <trkpt lat="48.67038" lon="-2.31182">
        <ele>64.55</ele>
        <time>2019-08-01T11:00:29Z</time>
      </trkpt>
      <trkpt lat="48.67035" lon="-2.31172">
        <ele>64.07</ele>
        <time>2019-08-01T11:00:37Z</time>
      </trkpt>
      <trkpt lat="48.67031" lon="-2.31165">
        <ele>63.1</ele>
        <time>2019-08-01T11:00:44Z</time>
      </trkpt>
      <trkpt lat="48.6703" lon="-2.31162">
        <ele>62.14</ele>
        <time>2019-08-01T11:00:46Z</time>
      </trkpt>
      <trkpt lat="48.67019" lon="-2.31162">
        <ele>62.14</ele>
        <time>2019-08-01T11:00:54Z</time>
      </trkpt>
      <trkpt lat="48.67014" lon="-2.31163">
        <ele>62.14</ele>
        <time>2019-08-01T11:00:58Z</time>
      </trkpt>
      <trkpt lat="48.67007" lon="-2.31165">
        <ele>62.14</ele>
        <time>2019-08-01T11:01:03Z</time>
      </trkpt>
      <trkpt lat="48.66998" lon="-2.31166">
        <ele>62.14</ele>
        <time>2019-08-01T11:01:10Z</time>
      </trkpt>
      <trkpt lat="48.66986" lon="-2.31169">
        <ele>62.62</ele>
        <time>2019-08-01T11:01:18Z</time>
      </trkpt>
      <trkpt lat="48.66978" lon="-2.3117">
        <ele>62.14</ele>
        <time>2019-08-01T11:01:25Z</time>
      </trkpt>
      <trkpt lat="48.66977" lon="-2.31169">
        <ele>62.14</ele>
        <time>2019-08-01T11:01:26Z</time>
      </trkpt>
      <trkpt lat="48.66969" lon="-2.31167">
        <ele>62.62</ele>
        <time>2019-08-01T11:01:33Z</time>
      </trkpt>
      <trkpt lat="48.6696" lon="-2.31168">
        <ele>62.62</ele>
        <time>2019-08-01T11:01:40Z</time>
      </trkpt>
      <trkpt lat="48.66958" lon="-2.31168">
        <ele>62.62</ele>
        <time>2019-08-01T11:01:41Z</time>
      </trkpt>
      <trkpt lat="48.66949" lon="-2.31165">
        <ele>62.14</ele>
        <time>2019-08-01T11:01:48Z</time>
      </trkpt>
      <trkpt lat="48.66944" lon="-2.31162">
        <ele>61.66</ele>
        <time>2019-08-01T11:01:54Z</time>
      </trkpt>
      <trkpt lat="48.66943" lon="-2.3116">
        <ele>61.66</ele>
        <time>2019-08-01T11:01:56Z</time>
      </trkpt>
      <trkpt lat="48.66943" lon="-2.31145">
        <ele>61.18</ele>
        <time>2019-08-01T11:02:06Z</time>
      </trkpt>
      <trkpt lat="48.66944" lon="-2.31142">
        <ele>61.18</ele>
        <time>2019-08-01T11:02:09Z</time>
      </trkpt>
      <trkpt lat="48.66949" lon="-2.31134">
        <ele>61.18</ele>
        <time>2019-08-01T11:02:16Z</time>
      </trkpt>
      <trkpt lat="48.66955" lon="-2.31122">
        <ele>61.66</ele>
        <time>2019-08-01T11:02:24Z</time>
      </trkpt>
      <trkpt lat="48.66957" lon="-2.3112">
        <ele>62.14</ele>
        <time>2019-08-01T11:02:26Z</time>
      </trkpt>
      <trkpt lat="48.66956" lon="-2.31112">
        <ele>63.1</ele>
        <time>2019-08-01T11:02:33Z</time>
      </trkpt>
      <trkpt lat="48.66957" lon="-2.31109">
        <ele>63.1</ele>
        <time>2019-08-01T11:02:35Z</time>
      </trkpt>
      <trkpt lat="48.66963" lon="-2.31095">
        <ele>63.1</ele>
        <time>2019-08-01T11:02:44Z</time>
      </trkpt>
      <trkpt lat="48.66965" lon="-2.31083">
        <ele>63.58</ele>
        <time>2019-08-01T11:02:51Z</time>
      </trkpt>
      <trkpt lat="48.66968" lon="-2.31073">
        <ele>63.58</ele>
        <time>2019-08-01T11:02:59Z</time>
      </trkpt>
      <trkpt lat="48.66968" lon="-2.31072">
        <ele>63.58</ele>
        <time>2019-08-01T11:03:08Z</time>
      </trkpt>
      <trkpt lat="48.66968" lon="-2.31072">
        <ele>63.58</ele>
        <time>2019-08-01T11:03:09Z</time>
      </trkpt>
      <trkpt lat="48.6697" lon="-2.31066">
        <ele>63.1</ele>
        <time>2019-08-01T11:03:14Z</time>
      </trkpt>
      <trkpt lat="48.66972" lon="-2.31059">
        <ele>62.62</ele>
        <time>2019-08-01T11:03:18Z</time>
      </trkpt>
      <trkpt lat="48.66971" lon="-2.31056">
        <ele>62.14</ele>
        <time>2019-08-01T11:03:20Z</time>
      </trkpt>
      <trkpt lat="48.66965" lon="-2.31042">
        <ele>61.66</ele>
        <time>2019-08-01T11:03:29Z</time>
      </trkpt>
      <trkpt lat="48.6696" lon="-2.31031">
        <ele>61.18</ele>
        <time>2019-08-01T11:03:35Z</time>
      </trkpt>
      <trkpt lat="48.66953" lon="-2.3102">
        <ele>62.14</ele>
        <time>2019-08-01T11:03:42Z</time>
      </trkpt>
      <trkpt lat="48.66946" lon="-2.31009">
        <ele>61.18</ele>
        <time>2019-08-01T11:03:49Z</time>
      </trkpt>
      <trkpt lat="48.66939" lon="-2.30998">
        <ele>60.7</ele>
        <time>2019-08-01T11:03:57Z</time>
      </trkpt>
      <trkpt lat="48.66934" lon="-2.30988">
        <ele>60.7</ele>
        <time>2019-08-01T11:04:04Z</time>
      </trkpt>
      <trkpt lat="48.66932" lon="-2.30982">
        <ele>60.7</ele>
        <time>2019-08-01T11:04:07Z</time>
      </trkpt>
      <trkpt lat="48.66929" lon="-2.30963">
        <ele>61.18</ele>
        <time>2019-08-01T11:04:18Z</time>
      </trkpt>
      <trkpt lat="48.66925" lon="-2.30952">
        <ele>61.66</ele>
        <time>2019-08-01T11:04:25Z</time>
      </trkpt>
      <trkpt lat="48.6692" lon="-2.30942">
        <ele>61.18</ele>
        <time>2019-08-01T11:04:32Z</time>
      </trkpt>
      <trkpt lat="48.66916" lon="-2.30936">
        <ele>61.66</ele>
        <time>2019-08-01T11:04:38Z</time>
      </trkpt>
      <trkpt lat="48.6691" lon="-2.3093">
        <ele>62.14</ele>
        <time>2019-08-01T11:04:45Z</time>
      </trkpt>
      <trkpt lat="48.66907" lon="-2.30926">
        <ele>62.62</ele>
        <time>2019-08-01T11:04:50Z</time>
      </trkpt>
      <trkpt lat="48.66903" lon="-2.30919">
        <ele>63.1</ele>
        <time>2019-08-01T11:04:55Z</time>
      </trkpt>
      <trkpt lat="48.66901" lon="-2.30914">
        <ele>63.58</ele>
        <time>2019-08-01T11:04:58Z</time>
      </trkpt>
      <trkpt lat="48.66897" lon="-2.30903">
        <ele>64.07</ele>
        <time>2019-08-01T11:05:05Z</time>
      </trkpt>
      <trkpt lat="48.66896" lon="-2.30901">
        <ele>64.55</ele>
        <time>2019-08-01T11:05:06Z</time>
      </trkpt>
      <trkpt lat="48.66896" lon="-2.30891">
        <ele>65.03</ele>
        <time>2019-08-01T11:05:12Z</time>
      </trkpt>
      <trkpt lat="48.66894" lon="-2.30877">
        <ele>65.51</ele>
        <time>2019-08-01T11:05:20Z</time>
      </trkpt>
      <trkpt lat="48.66893" lon="-2.30869">
        <ele>65.99</ele>
        <time>2019-08-01T11:05:27Z</time>
      </trkpt>
      <trkpt lat="48.66891" lon="-2.30857">
        <ele>65.99</ele>
        <time>2019-08-01T11:05:35Z</time>
      </trkpt>
      <trkpt lat="48.6689" lon="-2.30851">
        <ele>65.99</ele>
        <time>2019-08-01T11:05:38Z</time>
      </trkpt>
      <trkpt lat="48.66886" lon="-2.30846">
        <ele>65.99</ele>
        <time>2019-08-01T11:05:41Z</time>
      </trkpt>
      <trkpt lat="48.66884" lon="-2.30832">
        <ele>66.47</ele>
        <time>2019-08-01T11:05:49Z</time>
      </trkpt>
      <trkpt lat="48.66882" lon="-2.30826">
        <ele>66.47</ele>
        <time>2019-08-01T11:05:53Z</time>
      </trkpt>
      <trkpt lat="48.66876" lon="-2.30814">
        <ele>67.43</ele>
        <time>2019-08-01T11:06:02Z</time>
      </trkpt>
      <trkpt lat="48.66872" lon="-2.30803">
        <ele>67.91</ele>
        <time>2019-08-01T11:06:09Z</time>
      </trkpt>
      <trkpt lat="48.66868" lon="-2.30793">
        <ele>68.87</ele>
        <time>2019-08-01T11:06:16Z</time>
      </trkpt>
      <trkpt lat="48.66866" lon="-2.30786">
        <ele>69.83</ele>
        <time>2019-08-01T11:06:22Z</time>
      </trkpt>
      <trkpt lat="48.66863" lon="-2.30777">
        <ele>70.31</ele>
        <time>2019-08-01T11:06:28Z</time>
      </trkpt>
      <trkpt lat="48.66861" lon="-2.30767">
        <ele>70.79</ele>
        <time>2019-08-01T11:06:34Z</time>
      </trkpt>
      <trkpt lat="48.6686" lon="-2.30763">
        <ele>70.79</ele>
        <time>2019-08-01T11:06:37Z</time>
      </trkpt>
      <trkpt lat="48.66853" lon="-2.30751">
        <ele>70.31</ele>
        <time>2019-08-01T11:06:45Z</time>
      </trkpt>
      <trkpt lat="48.66849" lon="-2.30741">
        <ele>69.83</ele>
        <time>2019-08-01T11:06:52Z</time>
      </trkpt>
      <trkpt lat="48.66847" lon="-2.3073">
        <ele>69.35</ele>
        <time>2019-08-01T11:06:58Z</time>
      </trkpt>
      <trkpt lat="48.66845" lon="-2.30721">
        <ele>69.35</ele>
        <time>2019-08-01T11:07:03Z</time>
      </trkpt>
      <trkpt lat="48.66846" lon="-2.30712">
        <ele>69.83</ele>
        <time>2019-08-01T11:07:08Z</time>
      </trkpt>
      <trkpt lat="48.66846" lon="-2.30708">
        <ele>69.83</ele>
        <time>2019-08-01T11:07:10Z</time>
      </trkpt>
      <trkpt lat="48.66847" lon="-2.30692">
        <ele>70.31</ele>
        <time>2019-08-01T11:07:18Z</time>
      </trkpt>
      <trkpt lat="48.66846" lon="-2.30686">
        <ele>70.31</ele>
        <time>2019-08-01T11:07:21Z</time>
      </trkpt>
      <trkpt lat="48.66845" lon="-2.30668">
        <ele>71.27</ele>
        <time>2019-08-01T11:07:29Z</time>
      </trkpt>
      <trkpt lat="48.66843" lon="-2.30657">
        <ele>70.31</ele>
        <time>2019-08-01T11:07:36Z</time>
      </trkpt>
      <trkpt lat="48.66841" lon="-2.30654">
        <ele>70.31</ele>
        <time>2019-08-01T11:07:39Z</time>
      </trkpt>
      <trkpt lat="48.66838" lon="-2.30645">
        <ele>69.83</ele>
        <time>2019-08-01T11:07:48Z</time>
      </trkpt>
      <trkpt lat="48.66835" lon="-2.30643">
        <ele>69.83</ele>
        <time>2019-08-01T11:07:54Z</time>
      </trkpt>
      <trkpt lat="48.6683" lon="-2.30637">
        <ele>69.83</ele>
        <time>2019-08-01T11:08:00Z</time>
      </trkpt>
      <trkpt lat="48.6683" lon="-2.30633">
        <ele>69.83</ele>
        <time>2019-08-01T11:08:03Z</time>
      </trkpt>
      <trkpt lat="48.6683" lon="-2.30621">
        <ele>68.87</ele>
        <time>2019-08-01T11:08:10Z</time>
      </trkpt>
      <trkpt lat="48.66827" lon="-2.30608">
        <ele>68.87</ele>
        <time>2019-08-01T11:08:17Z</time>
      </trkpt>
      <trkpt lat="48.66823" lon="-2.306">
        <ele>68.87</ele>
        <time>2019-08-01T11:08:23Z</time>
      </trkpt>
      <trkpt lat="48.66821" lon="-2.30587">
        <ele>68.87</ele>
        <time>2019-08-01T11:08:30Z</time>
      </trkpt>
      <trkpt lat="48.66818" lon="-2.30574">
        <ele>69.35</ele>
        <time>2019-08-01T11:08:37Z</time>
      </trkpt>
      <trkpt lat="48.66815" lon="-2.30561">
        <ele>69.83</ele>
        <time>2019-08-01T11:08:44Z</time>
      </trkpt>
      <trkpt lat="48.66812" lon="-2.30549">
        <ele>70.31</ele>
        <time>2019-08-01T11:08:51Z</time>
      </trkpt>
      <trkpt lat="48.66807" lon="-2.30542">
        <ele>71.27</ele>
        <time>2019-08-01T11:08:58Z</time>
      </trkpt>
      <trkpt lat="48.66806" lon="-2.30538">
        <ele>71.27</ele>
        <time>2019-08-01T11:09:00Z</time>
      </trkpt>
      <trkpt lat="48.66805" lon="-2.30535">
        <ele>71.76</ele>
        <time>2019-08-01T11:09:02Z</time>
      </trkpt>
      <trkpt lat="48.66803" lon="-2.30523">
        <ele>72.72</ele>
        <time>2019-08-01T11:09:10Z</time>
      </trkpt>
      <trkpt lat="48.66801" lon="-2.30514">
        <ele>73.68</ele>
        <time>2019-08-01T11:09:16Z</time>
      </trkpt>
      <trkpt lat="48.66801" lon="-2.30513">
        <ele>74.64</ele>
        <time>2019-08-01T11:09:17Z</time>
      </trkpt>
      <trkpt lat="48.668" lon="-2.30506">
        <ele>74.64</ele>
        <time>2019-08-01T11:09:24Z</time>
      </trkpt>
      <trkpt lat="48.668" lon="-2.30494">
        <ele>75.6</ele>
        <time>2019-08-01T11:09:32Z</time>
      </trkpt>
      <trkpt lat="48.66798" lon="-2.30488">
        <ele>77.04</ele>
        <time>2019-08-01T11:09:39Z</time>
      </trkpt>
      <trkpt lat="48.66796" lon="-2.30477">
        <ele>77.52</ele>
        <time>2019-08-01T11:09:46Z</time>
      </trkpt>
      <trkpt lat="48.66792" lon="-2.30473">
        <ele>78</ele>
        <time>2019-08-01T11:09:50Z</time>
      </trkpt>
      <trkpt lat="48.66787" lon="-2.30464">
        <ele>78.48</ele>
        <time>2019-08-01T11:09:56Z</time>
      </trkpt>
      <trkpt lat="48.66784" lon="-2.30459">
        <ele>78.48</ele>
        <time>2019-08-01T11:09:59Z</time>
      </trkpt>
      <trkpt lat="48.66777" lon="-2.30446">
        <ele>78.97</ele>
        <time>2019-08-01T11:10:06Z</time>
      </trkpt>
      <trkpt lat="48.66774" lon="-2.30439">
        <ele>78.97</ele>
        <time>2019-08-01T11:10:11Z</time>
      </trkpt>
      <trkpt lat="48.66773" lon="-2.3043">
        <ele>78.48</ele>
        <time>2019-08-01T11:10:18Z</time>
      </trkpt>
      <trkpt lat="48.66772" lon="-2.30427">
        <ele>78</ele>
        <time>2019-08-01T11:10:20Z</time>
      </trkpt>
      <trkpt lat="48.6677" lon="-2.30416">
        <ele>77.04</ele>
        <time>2019-08-01T11:10:27Z</time>
      </trkpt>
      <trkpt lat="48.66768" lon="-2.30398">
        <ele>77.52</ele>
        <time>2019-08-01T11:10:36Z</time>
      </trkpt>
      <trkpt lat="48.66766" lon="-2.30394">
        <ele>77.52</ele>
        <time>2019-08-01T11:10:39Z</time>
      </trkpt>
      <trkpt lat="48.6676" lon="-2.30382">
        <ele>77.04</ele>
        <time>2019-08-01T11:10:47Z</time>
      </trkpt>
      <trkpt lat="48.66754" lon="-2.30375">
        <ele>77.04</ele>
        <time>2019-08-01T11:10:53Z</time>
      </trkpt>
      <trkpt lat="48.6675" lon="-2.3037">
        <ele>76.56</ele>
        <time>2019-08-01T11:10:58Z</time>
      </trkpt>
      <trkpt lat="48.66745" lon="-2.30366">
        <ele>76.08</ele>
        <time>2019-08-01T11:11:02Z</time>
      </trkpt>
      <trkpt lat="48.66741" lon="-2.30354">
        <ele>74.16</ele>
        <time>2019-08-01T11:11:10Z</time>
      </trkpt>
      <trkpt lat="48.66737" lon="-2.30345">
        <ele>72.72</ele>
        <time>2019-08-01T11:11:16Z</time>
      </trkpt>
      <trkpt lat="48.66735" lon="-2.30339">
        <ele>70.31</ele>
        <time>2019-08-01T11:11:22Z</time>
      </trkpt>
      <trkpt lat="48.66732" lon="-2.30333">
        <ele>68.87</ele>
        <time>2019-08-01T11:11:27Z</time>
      </trkpt>
      <trkpt lat="48.66728" lon="-2.3033">
        <ele>68.87</ele>
        <time>2019-08-01T11:11:30Z</time>
      </trkpt>
      <trkpt lat="48.66723" lon="-2.30323">
        <ele>68.39</ele>
        <time>2019-08-01T11:11:35Z</time>
      </trkpt>
      <trkpt lat="48.66721" lon="-2.30319">
        <ele>67.91</ele>
        <time>2019-08-01T11:11:37Z</time>
      </trkpt>
      <trkpt lat="48.66718" lon="-2.30309">
        <ele>67.43</ele>
        <time>2019-08-01T11:11:44Z</time>
      </trkpt>
      <trkpt lat="48.66715" lon="-2.30293">
        <ele>66.95</ele>
        <time>2019-08-01T11:11:53Z</time>
      </trkpt>
      <trkpt lat="48.66717" lon="-2.30278">
        <ele>65.99</ele>
        <time>2019-08-01T11:12:00Z</time>
      </trkpt>
      <trkpt lat="48.66718" lon="-2.3027">
        <ele>65.51</ele>
        <time>2019-08-01T11:12:05Z</time>
      </trkpt>
      <trkpt lat="48.66717" lon="-2.30263">
        <ele>65.03</ele>
        <time>2019-08-01T11:12:09Z</time>
      </trkpt>
      <trkpt lat="48.66717" lon="-2.3025">
        <ele>64.55</ele>
        <time>2019-08-01T11:12:15Z</time>
      </trkpt>
      <trkpt lat="48.6672" lon="-2.30239">
        <ele>65.03</ele>
        <time>2019-08-01T11:12:21Z</time>
      </trkpt>
      <trkpt lat="48.6672" lon="-2.30229">
        <ele>65.03</ele>
        <time>2019-08-01T11:12:28Z</time>
      </trkpt>
      <trkpt lat="48.66721" lon="-2.30222">
        <ele>64.55</ele>
        <time>2019-08-01T11:12:32Z</time>
      </trkpt>
      <trkpt lat="48.66718" lon="-2.30203">
        <ele>64.07</ele>
        <time>2019-08-01T11:12:40Z</time>
      </trkpt>
      <trkpt lat="48.66718" lon="-2.30202">
        <ele>63.58</ele>
        <time>2019-08-01T11:12:41Z</time>
      </trkpt>
      <trkpt lat="48.66721" lon="-2.30199">
        <ele>61.66</ele>
        <time>2019-08-01T11:12:44Z</time>
      </trkpt>
      <trkpt lat="48.66723" lon="-2.30196">
        <ele>61.18</ele>
        <time>2019-08-01T11:12:46Z</time>
      </trkpt>
      <trkpt lat="48.66726" lon="-2.30181">
        <ele>61.18</ele>
        <time>2019-08-01T11:12:53Z</time>
      </trkpt>
      <trkpt lat="48.66726" lon="-2.30167">
        <ele>61.66</ele>
        <time>2019-08-01T11:13:00Z</time>
      </trkpt>
      <trkpt lat="48.66726" lon="-2.30154">
        <ele>61.66</ele>
        <time>2019-08-01T11:13:06Z</time>
      </trkpt>
      <trkpt lat="48.66725" lon="-2.30151">
        <ele>61.66</ele>
        <time>2019-08-01T11:13:08Z</time>
      </trkpt>
      <trkpt lat="48.66726" lon="-2.30136">
        <ele>61.66</ele>
        <time>2019-08-01T11:13:15Z</time>
      </trkpt>
      <trkpt lat="48.66726" lon="-2.30132">
        <ele>63.1</ele>
        <time>2019-08-01T11:13:18Z</time>
      </trkpt>
      <trkpt lat="48.66724" lon="-2.30125">
        <ele>63.58</ele>
        <time>2019-08-01T11:13:26Z</time>
      </trkpt>
      <trkpt lat="48.66724" lon="-2.30122">
        <ele>64.55</ele>
        <time>2019-08-01T11:13:34Z</time>
      </trkpt>
      <trkpt lat="48.66723" lon="-2.30114">
        <ele>65.03</ele>
        <time>2019-08-01T11:13:38Z</time>
      </trkpt>
      <trkpt lat="48.66719" lon="-2.30105">
        <ele>65.51</ele>
        <time>2019-08-01T11:13:45Z</time>
      </trkpt>
      <trkpt lat="48.66718" lon="-2.30099">
        <ele>66.47</ele>
        <time>2019-08-01T11:13:51Z</time>
      </trkpt>
      <trkpt lat="48.66715" lon="-2.30086">
        <ele>65.99</ele>
        <time>2019-08-01T11:13:57Z</time>
      </trkpt>
      <trkpt lat="48.66714" lon="-2.30078">
        <ele>65.99</ele>
        <time>2019-08-01T11:14:01Z</time>
      </trkpt>
      <trkpt lat="48.66713" lon="-2.30065">
        <ele>66.95</ele>
        <time>2019-08-01T11:14:07Z</time>
      </trkpt>
      <trkpt lat="48.66713" lon="-2.3006">
        <ele>66.95</ele>
        <time>2019-08-01T11:14:09Z</time>
      </trkpt>
      <trkpt lat="48.66714" lon="-2.30044">
        <ele>67.43</ele>
        <time>2019-08-01T11:14:17Z</time>
      </trkpt>
      <trkpt lat="48.66714" lon="-2.30037">
        <ele>67.91</ele>
        <time>2019-08-01T11:14:21Z</time>
      </trkpt>
      <trkpt lat="48.66713" lon="-2.30032">
        <ele>68.39</ele>
        <time>2019-08-01T11:14:24Z</time>
      </trkpt>
      <trkpt lat="48.66711" lon="-2.30013">
        <ele>69.35</ele>
        <time>2019-08-01T11:14:34Z</time>
      </trkpt>
      <trkpt lat="48.6671" lon="-2.30003">
        <ele>70.31</ele>
        <time>2019-08-01T11:14:40Z</time>
      </trkpt>
      <trkpt lat="48.66708" lon="-2.29987">
        <ele>71.27</ele>
        <time>2019-08-01T11:14:47Z</time>
      </trkpt>
      <trkpt lat="48.66708" lon="-2.29974">
        <ele>70.79</ele>
        <time>2019-08-01T11:14:54Z</time>
      </trkpt>
      <trkpt lat="48.66708" lon="-2.2996">
        <ele>71.27</ele>
        <time>2019-08-01T11:15:02Z</time>
      </trkpt>
      <trkpt lat="48.66707" lon="-2.29947">
        <ele>70.79</ele>
        <time>2019-08-01T11:15:09Z</time>
      </trkpt>
      <trkpt lat="48.66707" lon="-2.29946">
        <ele>70.79</ele>
        <time>2019-08-01T11:15:10Z</time>
      </trkpt>
      <trkpt lat="48.66702" lon="-2.29934">
        <ele>70.79</ele>
        <time>2019-08-01T11:15:17Z</time>
      </trkpt>
      <trkpt lat="48.66698" lon="-2.29925">
        <ele>70.31</ele>
        <time>2019-08-01T11:15:23Z</time>
      </trkpt>
      <trkpt lat="48.66694" lon="-2.29915">
        <ele>70.31</ele>
        <time>2019-08-01T11:15:30Z</time>
      </trkpt>
      <trkpt lat="48.66692" lon="-2.29902">
        <ele>69.35</ele>
        <time>2019-08-01T11:15:37Z</time>
      </trkpt>
      <trkpt lat="48.6669" lon="-2.29887">
        <ele>68.39</ele>
        <time>2019-08-01T11:15:44Z</time>
      </trkpt>
      <trkpt lat="48.66691" lon="-2.29876">
        <ele>66.95</ele>
        <time>2019-08-01T11:15:51Z</time>
      </trkpt>
      <trkpt lat="48.66692" lon="-2.29865">
        <ele>65.03</ele>
        <time>2019-08-01T11:15:58Z</time>
      </trkpt>
      <trkpt lat="48.66692" lon="-2.29854">
        <ele>64.55</ele>
        <time>2019-08-01T11:16:04Z</time>
      </trkpt>
      <trkpt lat="48.66693" lon="-2.29849">
        <ele>63.58</ele>
        <time>2019-08-01T11:16:07Z</time>
      </trkpt>
      <trkpt lat="48.6669" lon="-2.2983">
        <ele>62.62</ele>
        <time>2019-08-01T11:16:16Z</time>
      </trkpt>
      <trkpt lat="48.66685" lon="-2.29815">
        <ele>63.1</ele>
        <time>2019-08-01T11:16:24Z</time>
      </trkpt>
      <trkpt lat="48.66682" lon="-2.29805">
        <ele>63.1</ele>
        <time>2019-08-01T11:16:30Z</time>
      </trkpt>
      <trkpt lat="48.6668" lon="-2.29794">
        <ele>62.14</ele>
        <time>2019-08-01T11:16:37Z</time>
      </trkpt>
      <trkpt lat="48.66682" lon="-2.29787">
        <ele>61.18</ele>
        <time>2019-08-01T11:16:44Z</time>
      </trkpt>
      <trkpt lat="48.66683" lon="-2.29786">
        <ele>60.7</ele>
        <time>2019-08-01T11:16:46Z</time>
      </trkpt>
      <trkpt lat="48.66686" lon="-2.2978">
        <ele>60.22</ele>
        <time>2019-08-01T11:16:52Z</time>
      </trkpt>
      <trkpt lat="48.66685" lon="-2.29768">
        <ele>59.74</ele>
        <time>2019-08-01T11:16:59Z</time>
      </trkpt>
      <trkpt lat="48.66686" lon="-2.29761">
        <ele>58.78</ele>
        <time>2019-08-01T11:17:03Z</time>
      </trkpt>
      <trkpt lat="48.66691" lon="-2.29744">
        <ele>58.3</ele>
        <time>2019-08-01T11:17:11Z</time>
      </trkpt>
      <trkpt lat="48.66694" lon="-2.29732">
        <ele>58.3</ele>
        <time>2019-08-01T11:17:19Z</time>
      </trkpt>
      <trkpt lat="48.66696" lon="-2.2973">
        <ele>57.82</ele>
        <time>2019-08-01T11:17:23Z</time>
      </trkpt>
      <trkpt lat="48.66701" lon="-2.29729">
        <ele>56.86</ele>
        <time>2019-08-01T11:17:29Z</time>
      </trkpt>
      <trkpt lat="48.66704" lon="-2.29726">
        <ele>55.89</ele>
        <time>2019-08-01T11:17:32Z</time>
      </trkpt>
      <trkpt lat="48.66708" lon="-2.29717">
        <ele>55.41</ele>
        <time>2019-08-01T11:17:38Z</time>
      </trkpt>
      <trkpt lat="48.66714" lon="-2.29709">
        <ele>54.45</ele>
        <time>2019-08-01T11:17:45Z</time>
      </trkpt>
      <trkpt lat="48.66718" lon="-2.29696">
        <ele>53.49</ele>
        <time>2019-08-01T11:17:53Z</time>
      </trkpt>
      <trkpt lat="48.66717" lon="-2.29677">
        <ele>53.49</ele>
        <time>2019-08-01T11:18:02Z</time>
      </trkpt>
      <trkpt lat="48.66717" lon="-2.29669">
        <ele>53.49</ele>
        <time>2019-08-01T11:18:06Z</time>
      </trkpt>
      <trkpt lat="48.66717" lon="-2.29656">
        <ele>53.97</ele>
        <time>2019-08-01T11:18:13Z</time>
      </trkpt>
      <trkpt lat="48.66719" lon="-2.29639">
        <ele>53.97</ele>
        <time>2019-08-01T11:18:22Z</time>
      </trkpt>
      <trkpt lat="48.66721" lon="-2.29624">
        <ele>53.49</ele>
        <time>2019-08-01T11:18:30Z</time>
      </trkpt>
      <trkpt lat="48.66722" lon="-2.29617">
        <ele>53.01</ele>
        <time>2019-08-01T11:18:34Z</time>
      </trkpt>
      <trkpt lat="48.66721" lon="-2.29611">
        <ele>53.01</ele>
        <time>2019-08-01T11:18:37Z</time>
      </trkpt>
      <trkpt lat="48.66723" lon="-2.29595">
        <ele>52.53</ele>
        <time>2019-08-01T11:18:45Z</time>
      </trkpt>
      <trkpt lat="48.66726" lon="-2.29581">
        <ele>52.53</ele>
        <time>2019-08-01T11:18:54Z</time>
      </trkpt>
      <trkpt lat="48.66727" lon="-2.2958">
        <ele>52.53</ele>
        <time>2019-08-01T11:18:55Z</time>
      </trkpt>
      <trkpt lat="48.66732" lon="-2.29572">
        <ele>52.53</ele>
        <time>2019-08-01T11:19:01Z</time>
      </trkpt>
      <trkpt lat="48.66733" lon="-2.29568">
        <ele>52.53</ele>
        <time>2019-08-01T11:19:04Z</time>
      </trkpt>
      <trkpt lat="48.66735" lon="-2.29554">
        <ele>52.53</ele>
        <time>2019-08-01T11:19:11Z</time>
      </trkpt>
      <trkpt lat="48.66737" lon="-2.29548">
        <ele>52.53</ele>
        <time>2019-08-01T11:19:14Z</time>
      </trkpt>
      <trkpt lat="48.66738" lon="-2.29543">
        <ele>52.05</ele>
        <time>2019-08-01T11:19:17Z</time>
      </trkpt>
      <trkpt lat="48.66737" lon="-2.29539">
        <ele>52.05</ele>
        <time>2019-08-01T11:19:20Z</time>
      </trkpt>
      <trkpt lat="48.66737" lon="-2.29533">
        <ele>52.05</ele>
        <time>2019-08-01T11:19:27Z</time>
      </trkpt>
      <trkpt lat="48.66736" lon="-2.2953">
        <ele>52.05</ele>
        <time>2019-08-01T11:19:30Z</time>
      </trkpt>
      <trkpt lat="48.66726" lon="-2.29528">
        <ele>53.97</ele>
        <time>2019-08-01T11:19:39Z</time>
      </trkpt>
      <trkpt lat="48.6672" lon="-2.29528">
        <ele>54.93</ele>
        <time>2019-08-01T11:19:45Z</time>
      </trkpt>
      <trkpt lat="48.66716" lon="-2.29525">
        <ele>54.93</ele>
        <time>2019-08-01T11:19:49Z</time>
      </trkpt>
      <trkpt lat="48.66708" lon="-2.29521">
        <ele>54.93</ele>
        <time>2019-08-01T11:19:56Z</time>
      </trkpt>
      <trkpt lat="48.66702" lon="-2.29517">
        <ele>55.41</ele>
        <time>2019-08-01T11:20:03Z</time>
      </trkpt>
      <trkpt lat="48.66702" lon="-2.29517">
        <ele>55.41</ele>
        <time>2019-08-01T11:20:16Z</time>
      </trkpt>
      <trkpt lat="48.66698" lon="-2.29514">
        <ele>55.41</ele>
        <time>2019-08-01T11:20:23Z</time>
      </trkpt>
      <trkpt lat="48.66689" lon="-2.29509">
        <ele>55.89</ele>
        <time>2019-08-01T11:20:30Z</time>
      </trkpt>
      <trkpt lat="48.66679" lon="-2.29501">
        <ele>56.37</ele>
        <time>2019-08-01T11:20:38Z</time>
      </trkpt>
      <trkpt lat="48.66675" lon="-2.29499">
        <ele>56.37</ele>
        <time>2019-08-01T11:20:41Z</time>
      </trkpt>
      <trkpt lat="48.66669" lon="-2.29492">
        <ele>56.86</ele>
        <time>2019-08-01T11:20:47Z</time>
      </trkpt>
      <trkpt lat="48.66665" lon="-2.29485">
        <ele>57.34</ele>
        <time>2019-08-01T11:20:53Z</time>
      </trkpt>
      <trkpt lat="48.66665" lon="-2.29484">
        <ele>57.34</ele>
        <time>2019-08-01T11:20:56Z</time>
      </trkpt>
      <trkpt lat="48.66663" lon="-2.29489">
        <ele>57.34</ele>
        <time>2019-08-01T11:21:00Z</time>
      </trkpt>
      <trkpt lat="48.66661" lon="-2.29492">
        <ele>57.34</ele>
        <time>2019-08-01T11:21:02Z</time>
      </trkpt>
      <trkpt lat="48.66652" lon="-2.29497">
        <ele>57.82</ele>
        <time>2019-08-01T11:21:10Z</time>
      </trkpt>
      <trkpt lat="48.6665" lon="-2.29499">
        <ele>57.82</ele>
        <time>2019-08-01T11:21:12Z</time>
      </trkpt>
      <trkpt lat="48.66645" lon="-2.29497">
        <ele>58.78</ele>
        <time>2019-08-01T11:21:17Z</time>
      </trkpt>
      <trkpt lat="48.66644" lon="-2.29493">
        <ele>59.74</ele>
        <time>2019-08-01T11:21:19Z</time>
      </trkpt>
      <trkpt lat="48.66639" lon="-2.29482">
        <ele>59.26</ele>
        <time>2019-08-01T11:21:26Z</time>
      </trkpt>
      <trkpt lat="48.66636" lon="-2.29477">
        <ele>59.26</ele>
        <time>2019-08-01T11:21:30Z</time>
      </trkpt>
      <trkpt lat="48.66632" lon="-2.29468">
        <ele>59.26</ele>
        <time>2019-08-01T11:21:35Z</time>
      </trkpt>
      <trkpt lat="48.66627" lon="-2.29459">
        <ele>59.26</ele>
        <time>2019-08-01T11:21:41Z</time>
      </trkpt>
      <trkpt lat="48.66623" lon="-2.29451">
        <ele>59.26</ele>
        <time>2019-08-01T11:21:46Z</time>
      </trkpt>
      <trkpt lat="48.6662" lon="-2.29444">
        <ele>59.26</ele>
        <time>2019-08-01T11:21:51Z</time>
      </trkpt>
      <trkpt lat="48.66614" lon="-2.29429">
        <ele>59.26</ele>
        <time>2019-08-01T11:21:59Z</time>
      </trkpt>
      <trkpt lat="48.66609" lon="-2.29416">
        <ele>59.26</ele>
        <time>2019-08-01T11:22:05Z</time>
      </trkpt>
      <trkpt lat="48.66604" lon="-2.29402">
        <ele>59.26</ele>
        <time>2019-08-01T11:22:11Z</time>
      </trkpt>
      <trkpt lat="48.666" lon="-2.29391">
        <ele>58.78</ele>
        <time>2019-08-01T11:22:17Z</time>
      </trkpt>
      <trkpt lat="48.66597" lon="-2.29375">
        <ele>58.78</ele>
        <time>2019-08-01T11:22:25Z</time>
      </trkpt>
      <trkpt lat="48.66593" lon="-2.29362">
        <ele>58.78</ele>
        <time>2019-08-01T11:22:32Z</time>
      </trkpt>
      <trkpt lat="48.66588" lon="-2.29347">
        <ele>58.3</ele>
        <time>2019-08-01T11:22:40Z</time>
      </trkpt>
      <trkpt lat="48.66586" lon="-2.29338">
        <ele>58.3</ele>
        <time>2019-08-01T11:22:46Z</time>
      </trkpt>
      <trkpt lat="48.66585" lon="-2.29334">
        <ele>58.3</ele>
        <time>2019-08-01T11:22:48Z</time>
      </trkpt>
      <trkpt lat="48.66584" lon="-2.29328">
        <ele>58.3</ele>
        <time>2019-08-01T11:22:51Z</time>
      </trkpt>
      <trkpt lat="48.66582" lon="-2.2932">
        <ele>58.3</ele>
        <time>2019-08-01T11:22:56Z</time>
      </trkpt>
      <trkpt lat="48.66578" lon="-2.29306">
        <ele>58.78</ele>
        <time>2019-08-01T11:23:02Z</time>
      </trkpt>
      <trkpt lat="48.66572" lon="-2.29288">
        <ele>58.78</ele>
        <time>2019-08-01T11:23:10Z</time>
      </trkpt>
      <trkpt lat="48.66569" lon="-2.2928">
        <ele>58.78</ele>
        <time>2019-08-01T11:23:14Z</time>
      </trkpt>
      <trkpt lat="48.66567" lon="-2.29275">
        <ele>58.78</ele>
        <time>2019-08-01T11:23:17Z</time>
      </trkpt>
      <trkpt lat="48.6656" lon="-2.29262">
        <ele>58.78</ele>
        <time>2019-08-01T11:23:25Z</time>
      </trkpt>
      <trkpt lat="48.66554" lon="-2.29247">
        <ele>58.78</ele>
        <time>2019-08-01T11:23:32Z</time>
      </trkpt>
      <trkpt lat="48.66547" lon="-2.29236">
        <ele>59.26</ele>
        <time>2019-08-01T11:23:40Z</time>
      </trkpt>
      <trkpt lat="48.66544" lon="-2.29229">
        <ele>58.78</ele>
        <time>2019-08-01T11:23:44Z</time>
      </trkpt>
      <trkpt lat="48.66539" lon="-2.29223">
        <ele>59.26</ele>
        <time>2019-08-01T11:23:50Z</time>
      </trkpt>
      <trkpt lat="48.66538" lon="-2.29222">
        <ele>59.74</ele>
        <time>2019-08-01T11:23:52Z</time>
      </trkpt>
      <trkpt lat="48.66532" lon="-2.29219">
        <ele>59.26</ele>
        <time>2019-08-01T11:23:57Z</time>
      </trkpt>
      <trkpt lat="48.66529" lon="-2.29217">
        <ele>59.26</ele>
        <time>2019-08-01T11:24:00Z</time>
      </trkpt>
      <trkpt lat="48.66526" lon="-2.29216">
        <ele>58.78</ele>
        <time>2019-08-01T11:24:03Z</time>
      </trkpt>
      <trkpt lat="48.66522" lon="-2.29212">
        <ele>58.78</ele>
        <time>2019-08-01T11:24:07Z</time>
      </trkpt>
      <trkpt lat="48.66516" lon="-2.29206">
        <ele>58.78</ele>
        <time>2019-08-01T11:24:12Z</time>
      </trkpt>
      <trkpt lat="48.66514" lon="-2.29203">
        <ele>58.78</ele>
        <time>2019-08-01T11:24:14Z</time>
      </trkpt>
      <trkpt lat="48.66513" lon="-2.29199">
        <ele>58.78</ele>
        <time>2019-08-01T11:24:16Z</time>
      </trkpt>
      <trkpt lat="48.66503" lon="-2.29192">
        <ele>58.3</ele>
        <time>2019-08-01T11:24:23Z</time>
      </trkpt>
      <trkpt lat="48.66498" lon="-2.29189">
        <ele>57.82</ele>
        <time>2019-08-01T11:24:27Z</time>
      </trkpt>
      <trkpt lat="48.66492" lon="-2.29187">
        <ele>56.86</ele>
        <time>2019-08-01T11:24:33Z</time>
      </trkpt>
      <trkpt lat="48.66491" lon="-2.29188">
        <ele>56.86</ele>
        <time>2019-08-01T11:24:34Z</time>
      </trkpt>
      <trkpt lat="48.66485" lon="-2.29196">
        <ele>57.34</ele>
        <time>2019-08-01T11:24:43Z</time>
      </trkpt>
      <trkpt lat="48.66476" lon="-2.29202">
        <ele>57.34</ele>
        <time>2019-08-01T11:24:51Z</time>
      </trkpt>
      <trkpt lat="48.66473" lon="-2.29206">
        <ele>57.34</ele>
        <time>2019-08-01T11:24:58Z</time>
      </trkpt>
      <trkpt lat="48.66472" lon="-2.29207">
        <ele>57.82</ele>
        <time>2019-08-01T11:25:07Z</time>
      </trkpt>
      <trkpt lat="48.66472" lon="-2.29208">
        <ele>57.34</ele>
        <time>2019-08-01T11:25:20Z</time>
      </trkpt>
    </trkseg>
  </trk>
</gpx>